PWSweather.com
Personal Weather Stations
Station Observations
KCTGROTO5
Groton, CT 06340

Groton, CT 06340

Lat: 41.355721, Lon: -72.084428

Elevation: 0

Station Type: acurite 5in1

High Low Average
Temperature 46.5°F8.1°C 9.8°F-12.3°C 30.6°F-0.8°C
Dew Point 45.9°F7.7°C 3.5°F-15.8°C 28.7°F-1.8°C
Winds 34.0 mph 54.7 kmh Calm Calm 7.0 mph SSW11.3 kmh SSW
Wind Gusts 34.0 mph54.7 kmh 1.0 mph1.6 kmh 12.0 mph19.3 kmh
Humidity 98% 74% 93%
Pressure 29.94 in1013.9 mb 29.15 in987.1 mb -
Precipitation 2.33 in59.2 mm - -
Hour Temp Dew Point Humidity Winds Wind Gusts Pressure Precip Precip Rate Daily Precip Total
12:00 AM 32.4°F0.2°C 31.9°F-0.1°C 98% Calm Calm 5.0 mph8.0 kmh 29.93 in1013.5 mb 0.00 in0.0 mm 0.00 in0.0 mm 0.00 in0.0 mm
12:01 AM 32.5°F0.3°C 32.0°F0.0°C 98% 2.0 mph WSW3.2 kmh WSW 5.0 mph8.0 kmh 29.93 in1013.5 mb 0.00 in0.0 mm 0.00 in0.0 mm 0.00 in0.0 mm
12:02 AM 32.5°F0.3°C 32.0°F0.0°C 98% Calm Calm 5.0 mph8.0 kmh 29.94 in1013.9 mb 0.00 in0.0 mm 0.00 in0.0 mm 0.00 in0.0 mm
12:03 AM 32.5°F0.3°C 32.0°F0.0°C 98% Calm Calm 5.0 mph8.0 kmh 29.93 in1013.5 mb 0.00 in0.0 mm 0.00 in0.0 mm 0.00 in0.0 mm
12:04 AM 32.5°F0.3°C 32.0°F0.0°C 98% Calm Calm 5.0 mph8.0 kmh 29.93 in1013.5 mb 0.00 in0.0 mm 0.00 in0.0 mm 0.00 in0.0 mm
12:05 AM 32.5°F0.3°C 32.0°F0.0°C 98% Calm Calm 5.0 mph8.0 kmh 29.93 in1013.5 mb 0.00 in0.0 mm 0.00 in0.0 mm 0.00 in0.0 mm
12:06 AM 32.5°F0.3°C 32.0°F0.0°C 98% Calm Calm 5.0 mph8.0 kmh 29.93 in1013.5 mb 0.00 in0.0 mm 0.00 in0.0 mm 0.00 in0.0 mm
12:07 AM 32.5°F0.3°C 32.0°F0.0°C 98% Calm Calm 2.0 mph3.2 kmh 29.93 in1013.5 mb 0.00 in0.0 mm 0.00 in0.0 mm 0.00 in0.0 mm
12:08 AM 32.5°F0.3°C 32.0°F0.0°C 98% 1.0 mph 1.6 kmh 2.0 mph3.2 kmh 29.93 in1013.5 mb 0.00 in0.0 mm 0.00 in0.0 mm 0.00 in0.0 mm
12:09 AM 32.5°F0.3°C 32.0°F0.0°C 98% 1.0 mph NNE1.6 kmh NNE 3.0 mph4.8 kmh 29.93 in1013.5 mb 0.00 in0.0 mm 0.00 in0.0 mm 0.00 in0.0 mm
12:10 AM 32.5°F0.3°C 32.0°F0.0°C 98% 1.0 mph NNW1.6 kmh NNW 3.0 mph4.8 kmh 29.93 in1013.5 mb 0.00 in0.0 mm 0.00 in0.0 mm 0.00 in0.0 mm
12:11 AM 32.5°F0.3°C 32.0°F0.0°C 98% 2.0 mph 3.2 kmh 3.0 mph4.8 kmh 29.93 in1013.5 mb 0.00 in0.0 mm 0.00 in0.0 mm 0.00 in0.0 mm
12:12 AM 32.5°F0.3°C 32.0°F0.0°C 98% 3.0 mph NNE4.8 kmh NNE 3.0 mph4.8 kmh 29.93 in1013.5 mb 0.00 in0.0 mm 0.00 in0.0 mm 0.00 in0.0 mm
12:13 AM 32.5°F0.3°C 32.0°F0.0°C 98% 4.0 mph NW6.4 kmh NW 4.0 mph6.4 kmh 29.93 in1013.5 mb 0.00 in0.0 mm 0.00 in0.0 mm 0.00 in0.0 mm
12:14 AM 32.5°F0.3°C 32.0°F0.0°C 98% Calm Calm 4.0 mph6.4 kmh 29.93 in1013.5 mb 0.00 in0.0 mm 0.00 in0.0 mm 0.00 in0.0 mm
12:15 AM 32.5°F0.3°C 32.0°F0.0°C 98% 3.0 mph 4.8 kmh 4.0 mph6.4 kmh 29.92 in1013.2 mb 0.00 in0.0 mm 0.00 in0.0 mm 0.00 in0.0 mm
12:16 AM 32.5°F0.3°C 32.0°F0.0°C 98% 1.0 mph NNE1.6 kmh NNE 4.0 mph6.4 kmh 29.92 in1013.2 mb 0.00 in0.0 mm 0.00 in0.0 mm 0.00 in0.0 mm
12:17 AM 32.5°F0.3°C 32.0°F0.0°C 98% 4.0 mph NE6.4 kmh NE 4.0 mph6.4 kmh 29.92 in1013.2 mb 0.00 in0.0 mm 0.00 in0.0 mm 0.00 in0.0 mm
12:18 AM 32.5°F0.3°C 32.0°F0.0°C 98% Calm Calm 4.0 mph6.4 kmh 29.91 in1012.9 mb 0.00 in0.0 mm 0.00 in0.0 mm 0.00 in0.0 mm
12:19 AM 32.5°F0.3°C 32.0°F0.0°C 98% Calm Calm 4.0 mph6.4 kmh 29.91 in1012.9 mb 0.00 in0.0 mm 0.00 in0.0 mm 0.00 in0.0 mm
12:20 AM 32.5°F0.3°C 32.0°F0.0°C 98% 6.0 mph NNE9.7 kmh NNE 6.0 mph9.7 kmh 29.91 in1012.9 mb 0.00 in0.0 mm 0.00 in0.0 mm 0.00 in0.0 mm
12:21 AM 32.6°F0.3°C 32.1°F0.1°C 98% 2.0 mph WNW3.2 kmh WNW 6.0 mph9.7 kmh 29.91 in1012.9 mb 0.00 in0.0 mm 0.00 in0.0 mm 0.00 in0.0 mm
12:22 AM 32.6°F0.3°C 32.1°F0.1°C 98% 3.0 mph S4.8 kmh S 6.0 mph9.7 kmh 29.91 in1012.9 mb 0.00 in0.0 mm 0.00 in0.0 mm 0.00 in0.0 mm
12:23 AM 32.6°F0.3°C 32.1°F0.1°C 98% 1.0 mph WNW1.6 kmh WNW 6.0 mph9.7 kmh 29.91 in1012.9 mb 0.00 in0.0 mm 0.00 in0.0 mm 0.00 in0.0 mm
12:24 AM 32.6°F0.3°C 32.1°F0.1°C 98% 2.0 mph W3.2 kmh W 6.0 mph9.7 kmh 29.91 in1012.9 mb 0.00 in0.0 mm 0.00 in0.0 mm 0.00 in0.0 mm
12:25 AM 32.6°F0.3°C 32.1°F0.1°C 98% 3.0 mph NNE4.8 kmh NNE 6.0 mph9.7 kmh 29.91 in1012.9 mb 0.00 in0.0 mm 0.00 in0.0 mm 0.00 in0.0 mm
12:26 AM 32.6°F0.3°C 32.1°F0.1°C 98% Calm Calm 6.0 mph9.7 kmh 29.91 in1012.9 mb 0.00 in0.0 mm 0.00 in0.0 mm 0.00 in0.0 mm
12:27 AM 32.6°F0.3°C 32.1°F0.1°C 98% Calm Calm 6.0 mph9.7 kmh 29.91 in1012.9 mb 0.00 in0.0 mm 0.00 in0.0 mm 0.00 in0.0 mm
12:28 AM 32.6°F0.3°C 32.1°F0.1°C 98% 3.0 mph NNW4.8 kmh NNW 6.0 mph9.7 kmh 29.92 in1013.2 mb 0.00 in0.0 mm 0.00 in0.0 mm 0.00 in0.0 mm
12:29 AM 32.6°F0.3°C 32.1°F0.1°C 98% 1.0 mph W1.6 kmh W 6.0 mph9.7 kmh 29.92 in1013.2 mb 0.00 in0.0 mm 0.00 in0.0 mm 0.00 in0.0 mm
12:30 AM 32.6°F0.3°C 32.1°F0.1°C 98% Calm Calm 6.0 mph9.7 kmh 29.91 in1012.9 mb 0.00 in0.0 mm 0.00 in0.0 mm 0.00 in0.0 mm
12:31 AM 32.9°F0.5°C 32.4°F0.2°C 98% Calm Calm 5.0 mph8.0 kmh 29.91 in1012.9 mb 0.00 in0.0 mm 0.00 in0.0 mm 0.00 in0.0 mm
12:32 AM 32.9°F0.5°C 32.4°F0.2°C 98% Calm Calm 5.0 mph8.0 kmh 29.91 in1012.9 mb 0.00 in0.0 mm 0.00 in0.0 mm 0.00 in0.0 mm
12:33 AM 32.9°F0.5°C 32.4°F0.2°C 98% Calm Calm 5.0 mph8.0 kmh 29.91 in1012.9 mb 0.00 in0.0 mm 0.00 in0.0 mm 0.00 in0.0 mm
12:34 AM 32.9°F0.5°C 32.4°F0.2°C 98% 1.0 mph NE1.6 kmh NE 5.0 mph8.0 kmh 29.91 in1012.9 mb 0.00 in0.0 mm 0.00 in0.0 mm 0.00 in0.0 mm
12:35 AM 32.9°F0.5°C 32.4°F0.2°C 98% 1.0 mph NNE1.6 kmh NNE 5.0 mph8.0 kmh 29.91 in1012.9 mb 0.00 in0.0 mm 0.00 in0.0 mm 0.00 in0.0 mm
12:36 AM 32.9°F0.5°C 32.4°F0.2°C 98% 2.0 mph ENE3.2 kmh ENE 5.0 mph8.0 kmh 29.90 in1012.5 mb 0.00 in0.0 mm 0.00 in0.0 mm 0.00 in0.0 mm
12:37 AM 32.9°F0.5°C 32.4°F0.2°C 98% 1.0 mph NNW1.6 kmh NNW 6.0 mph9.7 kmh 29.90 in1012.5 mb 0.00 in0.0 mm 0.00 in0.0 mm 0.00 in0.0 mm
12:38 AM 32.9°F0.5°C 32.4°F0.2°C 98% Calm Calm 6.0 mph9.7 kmh 29.90 in1012.5 mb 0.00 in0.0 mm 0.00 in0.0 mm 0.00 in0.0 mm
12:39 AM 32.9°F0.5°C 32.4°F0.2°C 98% 3.0 mph NNW4.8 kmh NNW 6.0 mph9.7 kmh 29.91 in1012.9 mb 0.00 in0.0 mm 0.00 in0.0 mm 0.00 in0.0 mm
12:40 AM 32.9°F0.5°C 32.4°F0.2°C 98% 2.0 mph ENE3.2 kmh ENE 6.0 mph9.7 kmh 29.91 in1012.9 mb 0.00 in0.0 mm 0.00 in0.0 mm 0.00 in0.0 mm
12:41 AM 32.9°F0.5°C 32.4°F0.2°C 98% 3.0 mph NE4.8 kmh NE 6.0 mph9.7 kmh 29.90 in1012.5 mb 0.00 in0.0 mm 0.00 in0.0 mm 0.00 in0.0 mm
12:42 AM 32.9°F0.5°C 32.4°F0.2°C 98% Calm Calm 6.0 mph9.7 kmh 29.90 in1012.5 mb 0.00 in0.0 mm 0.00 in0.0 mm 0.00 in0.0 mm
12:43 AM 33.0°F0.6°C 32.5°F0.3°C 98% Calm Calm 6.0 mph9.7 kmh 29.90 in1012.5 mb 0.00 in0.0 mm 0.00 in0.0 mm 0.00 in0.0 mm
12:44 AM 33.0°F0.6°C 32.5°F0.3°C 98% Calm Calm 6.0 mph9.7 kmh 29.90 in1012.5 mb 0.00 in0.0 mm 0.00 in0.0 mm 0.00 in0.0 mm
12:45 AM 33.0°F0.6°C 32.5°F0.3°C 98% Calm Calm 6.0 mph9.7 kmh 29.90 in1012.5 mb 0.00 in0.0 mm 0.00 in0.0 mm 0.00 in0.0 mm
12:46 AM 33.0°F0.6°C 32.5°F0.3°C 98% Calm Calm 6.0 mph9.7 kmh 29.90 in1012.5 mb 0.00 in0.0 mm 0.00 in0.0 mm 0.00 in0.0 mm
12:47 AM 33.0°F0.6°C 32.5°F0.3°C 98% 2.0 mph 3.2 kmh 4.0 mph6.4 kmh 29.90 in1012.5 mb 0.00 in0.0 mm 0.00 in0.0 mm 0.00 in0.0 mm
12:48 AM 33.0°F0.6°C 32.5°F0.3°C 98% 5.0 mph NE8.0 kmh NE 5.0 mph8.0 kmh 29.90 in1012.5 mb 0.00 in0.0 mm 0.00 in0.0 mm 0.00 in0.0 mm
12:49 AM 33.0°F0.6°C 32.5°F0.3°C 98% 2.0 mph 3.2 kmh 5.0 mph8.0 kmh 29.89 in1012.2 mb 0.00 in0.0 mm 0.00 in0.0 mm 0.00 in0.0 mm
12:50 AM 33.0°F0.6°C 32.5°F0.3°C 98% 3.0 mph NNE4.8 kmh NNE 5.0 mph8.0 kmh 29.89 in1012.2 mb 0.00 in0.0 mm 0.00 in0.0 mm 0.00 in0.0 mm
12:51 AM 33.0°F0.6°C 32.5°F0.3°C 98% 2.0 mph ENE3.2 kmh ENE 5.0 mph8.0 kmh 29.89 in1012.2 mb 0.00 in0.0 mm 0.00 in0.0 mm 0.00 in0.0 mm
12:52 AM 33.0°F0.6°C 32.5°F0.3°C 98% 4.0 mph NNE6.4 kmh NNE 5.0 mph8.0 kmh 29.89 in1012.2 mb 0.00 in0.0 mm 0.00 in0.0 mm 0.00 in0.0 mm
12:53 AM 33.0°F0.6°C 32.5°F0.3°C 98% 2.0 mph NW3.2 kmh NW 5.0 mph8.0 kmh 29.89 in1012.2 mb 0.00 in0.0 mm 0.00 in0.0 mm 0.00 in0.0 mm
12:54 AM 33.0°F0.6°C 32.5°F0.3°C 98% 3.0 mph NNE4.8 kmh NNE 5.0 mph8.0 kmh 29.89 in1012.2 mb 0.00 in0.0 mm 0.00 in0.0 mm 0.00 in0.0 mm
12:55 AM 33.2°F0.7°C 32.7°F0.4°C 98% Calm Calm 6.0 mph9.7 kmh 29.89 in1012.2 mb 0.00 in0.0 mm 0.00 in0.0 mm 0.00 in0.0 mm
12:56 AM 33.2°F0.7°C 32.7°F0.4°C 98% 1.0 mph NNW1.6 kmh NNW 6.0 mph9.7 kmh 29.88 in1011.9 mb 0.00 in0.0 mm 0.00 in0.0 mm 0.00 in0.0 mm
12:57 AM 33.2°F0.7°C 32.7°F0.4°C 98% 2.0 mph NNW3.2 kmh NNW 6.0 mph9.7 kmh 29.89 in1012.2 mb 0.00 in0.0 mm 0.00 in0.0 mm 0.00 in0.0 mm
12:58 AM 33.2°F0.7°C 32.7°F0.4°C 98% 1.0 mph WSW1.6 kmh WSW 6.0 mph9.7 kmh 29.89 in1012.2 mb 0.00 in0.0 mm 0.00 in0.0 mm 0.00 in0.0 mm
12:59 AM 33.2°F0.7°C 32.7°F0.4°C 98% 2.0 mph 3.2 kmh 6.0 mph9.7 kmh 29.89 in1012.2 mb 0.00 in0.0 mm 0.00 in0.0 mm 0.00 in0.0 mm
01:00 AM 33.2°F0.7°C 32.7°F0.4°C 98% Calm Calm 6.0 mph9.7 kmh 29.88 in1011.9 mb 0.00 in0.0 mm 0.00 in0.0 mm 0.00 in0.0 mm
01:01 AM 33.2°F0.7°C 32.7°F0.4°C 98% 1.0 mph 1.6 kmh 6.0 mph9.7 kmh 29.88 in1011.9 mb 0.00 in0.0 mm 0.00 in0.0 mm 0.00 in0.0 mm
01:02 AM 33.2°F0.7°C 32.7°F0.4°C 98% 3.0 mph NNW4.8 kmh NNW 6.0 mph9.7 kmh 29.87 in1011.5 mb 0.00 in0.0 mm 0.00 in0.0 mm 0.00 in0.0 mm
01:03 AM 33.2°F0.7°C 32.7°F0.4°C 98% Calm Calm 6.0 mph9.7 kmh 29.87 in1011.5 mb 0.00 in0.0 mm 0.00 in0.0 mm 0.00 in0.0 mm
01:04 AM 33.2°F0.7°C 32.7°F0.4°C 98% 1.0 mph S1.6 kmh S 6.0 mph9.7 kmh 29.87 in1011.5 mb 0.00 in0.0 mm 0.00 in0.0 mm 0.00 in0.0 mm
01:05 AM 33.2°F0.7°C 32.7°F0.4°C 98% 3.0 mph NNE4.8 kmh NNE 3.0 mph4.8 kmh 29.87 in1011.5 mb 0.00 in0.0 mm 0.00 in0.0 mm 0.00 in0.0 mm
01:06 AM 33.2°F0.7°C 32.7°F0.4°C 98% 3.0 mph WNW4.8 kmh WNW 3.0 mph4.8 kmh 29.87 in1011.5 mb 0.00 in0.0 mm 0.00 in0.0 mm 0.00 in0.0 mm
01:07 AM 33.2°F0.7°C 32.7°F0.4°C 98% Calm Calm 3.0 mph4.8 kmh 29.87 in1011.5 mb 0.00 in0.0 mm 0.00 in0.0 mm 0.00 in0.0 mm
01:08 AM 33.2°F0.7°C 32.7°F0.4°C 98% 3.0 mph 4.8 kmh 4.0 mph6.4 kmh 29.87 in1011.5 mb 0.00 in0.0 mm 0.00 in0.0 mm 0.00 in0.0 mm
01:09 AM 33.2°F0.7°C 32.7°F0.4°C 98% 1.0 mph 1.6 kmh 4.0 mph6.4 kmh 29.87 in1011.5 mb 0.00 in0.0 mm 0.00 in0.0 mm 0.00 in0.0 mm
01:10 AM 33.2°F0.7°C 32.7°F0.4°C 98% 3.0 mph 4.8 kmh 4.0 mph6.4 kmh 29.87 in1011.5 mb 0.00 in0.0 mm 0.00 in0.0 mm 0.00 in0.0 mm
01:11 AM 33.2°F0.7°C 32.7°F0.4°C 98% 2.0 mph NNW3.2 kmh NNW 4.0 mph6.4 kmh 29.87 in1011.5 mb 0.00 in0.0 mm 0.00 in0.0 mm 0.00 in0.0 mm
01:12 AM 33.2°F0.7°C 32.7°F0.4°C 98% 1.0 mph NNE1.6 kmh NNE 4.0 mph6.4 kmh 29.87 in1011.5 mb 0.00 in0.0 mm 0.00 in0.0 mm 0.00 in0.0 mm
01:13 AM 33.2°F0.7°C 32.7°F0.4°C 98% 3.0 mph NW4.8 kmh NW 4.0 mph6.4 kmh 29.86 in1011.2 mb 0.00 in0.0 mm 0.00 in0.0 mm 0.00 in0.0 mm
01:14 AM 33.2°F0.7°C 32.7°F0.4°C 98% 3.0 mph NE4.8 kmh NE 4.0 mph6.4 kmh 29.86 in1011.2 mb 0.00 in0.0 mm 0.00 in0.0 mm 0.00 in0.0 mm
01:15 AM 33.2°F0.7°C 32.7°F0.4°C 98% 1.0 mph W1.6 kmh W 4.0 mph6.4 kmh 29.86 in1011.2 mb 0.00 in0.0 mm 0.00 in0.0 mm 0.00 in0.0 mm
01:16 AM 33.4°F0.8°C 32.9°F0.5°C 98% Calm Calm 4.0 mph6.4 kmh 29.85 in1010.8 mb 0.00 in0.0 mm 0.00 in0.0 mm 0.00 in0.0 mm
01:17 AM 33.4°F0.8°C 32.9°F0.5°C 98% 3.0 mph NE4.8 kmh NE 4.0 mph6.4 kmh 29.85 in1010.8 mb 0.00 in0.0 mm 0.00 in0.0 mm 0.00 in0.0 mm
01:18 AM 33.4°F0.8°C 32.9°F0.5°C 98% Calm Calm 4.0 mph6.4 kmh 29.85 in1010.8 mb 0.00 in0.0 mm 0.00 in0.0 mm 0.00 in0.0 mm
01:19 AM 33.4°F0.8°C 32.9°F0.5°C 98% Calm Calm 4.0 mph6.4 kmh 29.85 in1010.8 mb 0.00 in0.0 mm 0.00 in0.0 mm 0.00 in0.0 mm
01:20 AM 33.4°F0.8°C 32.9°F0.5°C 98% 4.0 mph NNW6.4 kmh NNW 4.0 mph6.4 kmh 29.86 in1011.2 mb 0.00 in0.0 mm 0.00 in0.0 mm 0.00 in0.0 mm
01:21 AM 33.4°F0.8°C 32.9°F0.5°C 98% Calm Calm 4.0 mph6.4 kmh 29.86 in1011.2 mb 0.00 in0.0 mm 0.00 in0.0 mm 0.00 in0.0 mm
01:22 AM 33.5°F0.8°C 33.0°F0.6°C 98% 3.0 mph SSW4.8 kmh SSW 4.0 mph6.4 kmh 29.86 in1011.2 mb 0.00 in0.0 mm 0.00 in0.0 mm 0.00 in0.0 mm
01:23 AM 33.5°F0.8°C 33.0°F0.6°C 98% 1.0 mph NNE1.6 kmh NNE 4.0 mph6.4 kmh 29.86 in1011.2 mb 0.00 in0.0 mm 0.00 in0.0 mm 0.00 in0.0 mm
01:24 AM 33.5°F0.8°C 33.0°F0.6°C 98% 4.0 mph NNE6.4 kmh NNE 4.0 mph6.4 kmh 29.86 in1011.2 mb 0.00 in0.0 mm 0.00 in0.0 mm 0.00 in0.0 mm
01:25 AM 33.5°F0.8°C 33.0°F0.6°C 98% Calm Calm 5.0 mph8.0 kmh 29.86 in1011.2 mb 0.00 in0.0 mm 0.00 in0.0 mm 0.00 in0.0 mm
01:26 AM 33.5°F0.8°C 33.0°F0.6°C 98% 1.0 mph NNW1.6 kmh NNW 5.0 mph8.0 kmh 29.85 in1010.8 mb 0.00 in0.0 mm 0.00 in0.0 mm 0.00 in0.0 mm
01:27 AM 33.5°F0.8°C 33.0°F0.6°C 98% Calm Calm 5.0 mph8.0 kmh 29.85 in1010.8 mb 0.00 in0.0 mm 0.00 in0.0 mm 0.00 in0.0 mm
01:28 AM 33.5°F0.8°C 33.0°F0.6°C 98% 3.0 mph NNW4.8 kmh NNW 5.0 mph8.0 kmh 29.85 in1010.8 mb 0.00 in0.0 mm 0.00 in0.0 mm 0.00 in0.0 mm
01:29 AM 33.5°F0.8°C 33.0°F0.6°C 98% Calm Calm 5.0 mph8.0 kmh 29.85 in1010.8 mb 0.00 in0.0 mm 0.00 in0.0 mm 0.00 in0.0 mm
01:30 AM 33.5°F0.8°C 33.0°F0.6°C 98% 5.0 mph 8.0 kmh 5.0 mph8.0 kmh 29.85 in1010.8 mb 0.00 in0.0 mm 0.00 in0.0 mm 0.00 in0.0 mm
01:31 AM 33.5°F0.8°C 33.0°F0.6°C 98% 1.0 mph NNW1.6 kmh NNW 5.0 mph8.0 kmh 29.85 in1010.8 mb 0.00 in0.0 mm 0.00 in0.0 mm 0.00 in0.0 mm
01:32 AM 33.5°F0.8°C 33.0°F0.6°C 98% Calm Calm 5.0 mph8.0 kmh 29.85 in1010.8 mb 0.00 in0.0 mm 0.00 in0.0 mm 0.00 in0.0 mm
01:33 AM 33.5°F0.8°C 33.0°F0.6°C 98% Calm Calm 5.0 mph8.0 kmh 29.85 in1010.8 mb 0.00 in0.0 mm 0.00 in0.0 mm 0.00 in0.0 mm
01:34 AM 33.5°F0.8°C 33.0°F0.6°C 98% 3.0 mph 4.8 kmh 5.0 mph8.0 kmh 29.85 in1010.8 mb 0.00 in0.0 mm 0.00 in0.0 mm 0.00 in0.0 mm
01:35 AM 33.5°F0.8°C 33.0°F0.6°C 98% 3.0 mph E4.8 kmh E 6.0 mph9.7 kmh 29.85 in1010.8 mb 0.00 in0.0 mm 0.00 in0.0 mm 0.00 in0.0 mm
01:36 AM 33.5°F0.8°C 33.0°F0.6°C 98% 3.0 mph NNE4.8 kmh NNE 6.0 mph9.7 kmh 29.85 in1010.8 mb 0.00 in0.0 mm 0.00 in0.0 mm 0.00 in0.0 mm
01:37 AM 33.5°F0.8°C 33.0°F0.6°C 98% Calm Calm 6.0 mph9.7 kmh 29.85 in1010.8 mb 0.00 in0.0 mm 0.00 in0.0 mm 0.00 in0.0 mm
01:38 AM 33.5°F0.8°C 33.0°F0.6°C 98% 3.0 mph 4.8 kmh 6.0 mph9.7 kmh 29.84 in1010.5 mb 0.00 in0.0 mm 0.00 in0.0 mm 0.00 in0.0 mm
01:39 AM 33.5°F0.8°C 33.0°F0.6°C 98% 3.0 mph NW4.8 kmh NW 6.0 mph9.7 kmh 29.84 in1010.5 mb 0.00 in0.0 mm 0.00 in0.0 mm 0.00 in0.0 mm
01:40 AM 33.5°F0.8°C 33.0°F0.6°C 98% 2.0 mph 3.2 kmh 6.0 mph9.7 kmh 29.84 in1010.5 mb 0.00 in0.0 mm 0.00 in0.0 mm 0.00 in0.0 mm
01:41 AM 33.5°F0.8°C 33.0°F0.6°C 98% 8.0 mph NNE12.9 kmh NNE 8.0 mph12.9 kmh 29.84 in1010.5 mb 0.00 in0.0 mm 0.00 in0.0 mm 0.00 in0.0 mm
01:42 AM 33.5°F0.8°C 33.0°F0.6°C 98% 1.0 mph NNE1.6 kmh NNE 8.0 mph12.9 kmh 29.83 in1010.2 mb 0.00 in0.0 mm 0.00 in0.0 mm 0.00 in0.0 mm
01:43 AM 33.5°F0.8°C 33.0°F0.6°C 98% 2.0 mph W3.2 kmh W 8.0 mph12.9 kmh 29.83 in1010.2 mb 0.00 in0.0 mm 0.00 in0.0 mm 0.00 in0.0 mm
01:44 AM 33.8°F1.0°C 33.3°F0.7°C 98% Calm Calm 8.0 mph12.9 kmh 29.83 in1010.2 mb 0.00 in0.0 mm 0.00 in0.0 mm 0.00 in0.0 mm
01:45 AM 33.8°F1.0°C 33.3°F0.7°C 98% 6.0 mph NNW9.7 kmh NNW 8.0 mph12.9 kmh 29.83 in1010.2 mb 0.00 in0.0 mm 0.00 in0.0 mm 0.00 in0.0 mm
01:46 AM 33.8°F1.0°C 33.3°F0.7°C 98% 3.0 mph NNE4.8 kmh NNE 8.0 mph12.9 kmh 29.83 in1010.2 mb 0.00 in0.0 mm 0.00 in0.0 mm 0.00 in0.0 mm
01:47 AM 33.8°F1.0°C 33.3°F0.7°C 98% 7.0 mph NNE11.3 kmh NNE 8.0 mph12.9 kmh 29.83 in1010.2 mb 0.00 in0.0 mm 0.00 in0.0 mm 0.00 in0.0 mm
01:48 AM 33.8°F1.0°C 33.3°F0.7°C 98% 3.0 mph NNE4.8 kmh NNE 8.0 mph12.9 kmh 29.83 in1010.2 mb 0.00 in0.0 mm 0.00 in0.0 mm 0.00 in0.0 mm
01:49 AM 33.8°F1.0°C 33.3°F0.7°C 98% 1.0 mph WNW1.6 kmh WNW 8.0 mph12.9 kmh 29.83 in1010.2 mb 0.00 in0.0 mm 0.00 in0.0 mm 0.00 in0.0 mm
01:50 AM 33.8°F1.0°C 33.3°F0.7°C 98% 4.0 mph NNW6.4 kmh NNW 8.0 mph12.9 kmh 29.83 in1010.2 mb 0.00 in0.0 mm 0.00 in0.0 mm 0.00 in0.0 mm
01:51 AM 33.8°F1.0°C 33.3°F0.7°C 98% 3.0 mph 4.8 kmh 8.0 mph12.9 kmh 29.83 in1010.2 mb 0.00 in0.0 mm 0.00 in0.0 mm 0.00 in0.0 mm
01:52 AM 33.8°F1.0°C 33.3°F0.7°C 98% 5.0 mph 8.0 kmh 7.0 mph11.3 kmh 29.83 in1010.2 mb 0.00 in0.0 mm 0.00 in0.0 mm 0.00 in0.0 mm
01:53 AM 33.8°F1.0°C 33.3°F0.7°C 98% 4.0 mph NW6.4 kmh NW 7.0 mph11.3 kmh 29.83 in1010.2 mb 0.00 in0.0 mm 0.00 in0.0 mm 0.00 in0.0 mm
01:54 AM 33.8°F1.0°C 33.3°F0.7°C 98% 2.0 mph ESE3.2 kmh ESE 7.0 mph11.3 kmh 29.83 in1010.2 mb 0.00 in0.0 mm 0.00 in0.0 mm 0.00 in0.0 mm
01:55 AM 33.8°F1.0°C 33.3°F0.7°C 98% 4.0 mph SSE6.4 kmh SSE 7.0 mph11.3 kmh 29.83 in1010.2 mb 0.00 in0.0 mm 0.00 in0.0 mm 0.00 in0.0 mm
01:56 AM 33.8°F1.0°C 33.3°F0.7°C 98% 1.0 mph SSE1.6 kmh SSE 7.0 mph11.3 kmh 29.83 in1010.2 mb 0.00 in0.0 mm 0.00 in0.0 mm 0.00 in0.0 mm
01:57 AM 33.8°F1.0°C 33.3°F0.7°C 98% 5.0 mph 8.0 kmh 6.0 mph9.7 kmh 29.83 in1010.2 mb 0.00 in0.0 mm 0.00 in0.0 mm 0.00 in0.0 mm
01:58 AM 33.8°F1.0°C 33.3°F0.7°C 98% 4.0 mph NNE6.4 kmh NNE 10.0 mph16.1 kmh 29.83 in1010.2 mb 0.00 in0.0 mm 0.00 in0.0 mm 0.00 in0.0 mm
01:59 AM 34.0°F1.1°C 33.5°F0.8°C 98% 3.0 mph NNE4.8 kmh NNE 10.0 mph16.1 kmh 29.83 in1010.2 mb 0.00 in0.0 mm 0.00 in0.0 mm 0.00 in0.0 mm
02:00 AM 34.0°F1.1°C 33.5°F0.8°C 98% 3.0 mph W4.8 kmh W 10.0 mph16.1 kmh 29.83 in1010.2 mb 0.00 in0.0 mm 0.00 in0.0 mm 0.00 in0.0 mm
02:01 AM 34.0°F1.1°C 33.5°F0.8°C 98% 4.0 mph ESE6.4 kmh ESE 10.0 mph16.1 kmh 29.83 in1010.2 mb 0.00 in0.0 mm 0.00 in0.0 mm 0.00 in0.0 mm
02:02 AM 34.0°F1.1°C 33.5°F0.8°C 98% 4.0 mph NNE6.4 kmh NNE 10.0 mph16.1 kmh 29.83 in1010.2 mb 0.00 in0.0 mm 0.00 in0.0 mm 0.00 in0.0 mm
02:03 AM 34.0°F1.1°C 33.5°F0.8°C 98% Calm Calm 10.0 mph16.1 kmh 29.83 in1010.2 mb 0.00 in0.0 mm 0.00 in0.0 mm 0.00 in0.0 mm
02:04 AM 34.0°F1.1°C 33.5°F0.8°C 98% 6.0 mph NNW9.7 kmh NNW 10.0 mph16.1 kmh 29.83 in1010.2 mb 0.00 in0.0 mm 0.00 in0.0 mm 0.00 in0.0 mm
02:05 AM 34.0°F1.1°C 33.5°F0.8°C 98% Calm Calm 10.0 mph16.1 kmh 29.83 in1010.2 mb 0.00 in0.0 mm 0.00 in0.0 mm 0.00 in0.0 mm
02:06 AM 34.0°F1.1°C 33.5°F0.8°C 98% 3.0 mph NNE4.8 kmh NNE 10.0 mph16.1 kmh 29.83 in1010.2 mb 0.00 in0.0 mm 0.00 in0.0 mm 0.00 in0.0 mm
02:07 AM 34.0°F1.1°C 33.5°F0.8°C 98% 2.0 mph NNW3.2 kmh NNW 10.0 mph16.1 kmh 29.83 in1010.2 mb 0.00 in0.0 mm 0.00 in0.0 mm 0.00 in0.0 mm
02:08 AM 34.0°F1.1°C 33.5°F0.8°C 98% Calm Calm 8.0 mph12.9 kmh 29.83 in1010.2 mb 0.00 in0.0 mm 0.00 in0.0 mm 0.00 in0.0 mm
02:09 AM 34.0°F1.1°C 33.5°F0.8°C 98% 5.0 mph NW8.0 kmh NW 8.0 mph12.9 kmh 29.83 in1010.2 mb 0.00 in0.0 mm 0.00 in0.0 mm 0.00 in0.0 mm
02:10 AM 34.0°F1.1°C 33.5°F0.8°C 98% 3.0 mph W4.8 kmh W 8.0 mph12.9 kmh 29.83 in1010.2 mb 0.00 in0.0 mm 0.00 in0.0 mm 0.00 in0.0 mm
02:11 AM 34.0°F1.1°C 33.5°F0.8°C 98% Calm Calm 8.0 mph12.9 kmh 29.83 in1010.2 mb 0.00 in0.0 mm 0.00 in0.0 mm 0.00 in0.0 mm
02:12 AM 34.0°F1.1°C 33.5°F0.8°C 98% 4.0 mph NNE6.4 kmh NNE 8.0 mph12.9 kmh 29.82 in1009.8 mb 0.00 in0.0 mm 0.00 in0.0 mm 0.00 in0.0 mm
02:13 AM 34.0°F1.1°C 33.5°F0.8°C 98% 1.0 mph SSE1.6 kmh SSE 8.0 mph12.9 kmh 29.82 in1009.8 mb 0.00 in0.0 mm 0.00 in0.0 mm 0.00 in0.0 mm
02:14 AM 34.0°F1.1°C 33.5°F0.8°C 98% 6.0 mph WNW9.7 kmh WNW 8.0 mph12.9 kmh 29.82 in1009.8 mb 0.00 in0.0 mm 0.00 in0.0 mm 0.00 in0.0 mm
02:15 AM 34.0°F1.1°C 33.5°F0.8°C 98% 8.0 mph NNE12.9 kmh NNE 8.0 mph12.9 kmh 29.82 in1009.8 mb 0.00 in0.0 mm 0.00 in0.0 mm 0.00 in0.0 mm
02:16 AM 34.0°F1.1°C 33.5°F0.8°C 98% 5.0 mph NNE8.0 kmh NNE 8.0 mph12.9 kmh 29.81 in1009.5 mb 0.00 in0.0 mm 0.00 in0.0 mm 0.00 in0.0 mm
02:17 AM 34.0°F1.1°C 33.5°F0.8°C 98% 2.0 mph NNE3.2 kmh NNE 8.0 mph12.9 kmh 29.81 in1009.5 mb 0.00 in0.0 mm 0.00 in0.0 mm 0.00 in0.0 mm
02:18 AM 34.0°F1.1°C 33.5°F0.8°C 98% Calm Calm 8.0 mph12.9 kmh 29.81 in1009.5 mb 0.00 in0.0 mm 0.00 in0.0 mm 0.00 in0.0 mm
02:19 AM 34.0°F1.1°C 33.5°F0.8°C 98% 6.0 mph NW9.7 kmh NW 8.0 mph12.9 kmh 29.81 in1009.5 mb 0.00 in0.0 mm 0.00 in0.0 mm 0.00 in0.0 mm
02:20 AM 34.0°F1.1°C 33.5°F0.8°C 98% 4.0 mph NNW6.4 kmh NNW 8.0 mph12.9 kmh 29.81 in1009.5 mb 0.00 in0.0 mm 0.00 in0.0 mm 0.00 in0.0 mm
02:21 AM 34.0°F1.1°C 33.5°F0.8°C 98% 4.0 mph NNW6.4 kmh NNW 8.0 mph12.9 kmh 29.81 in1009.5 mb 0.01 in0.3 mm 0.60 in15.2 mm 0.01 in0.3 mm
02:22 AM 34.0°F1.1°C 33.5°F0.8°C 98% 4.0 mph NNE6.4 kmh NNE 8.0 mph12.9 kmh 29.81 in1009.5 mb 0.02 in0.5 mm 0.60 in15.2 mm 0.02 in0.5 mm
02:23 AM 34.0°F1.1°C 33.5°F0.8°C 98% 5.0 mph NNE8.0 kmh NNE 8.0 mph12.9 kmh 29.81 in1009.5 mb 0.03 in0.8 mm 0.60 in15.2 mm 0.03 in0.8 mm
02:24 AM 34.2°F1.2°C 33.7°F0.9°C 98% 2.0 mph NE3.2 kmh NE 10.0 mph16.1 kmh 29.81 in1009.5 mb 0.04 in1.0 mm 0.60 in15.2 mm 0.04 in1.0 mm
02:25 AM 34.2°F1.2°C 33.7°F0.9°C 98% 3.0 mph NNE4.8 kmh NNE 10.0 mph16.1 kmh 29.81 in1009.5 mb 0.05 in1.3 mm 0.60 in15.2 mm 0.05 in1.3 mm
02:26 AM 34.2°F1.2°C 33.7°F0.9°C 98% 4.0 mph NNW6.4 kmh NNW 10.0 mph16.1 kmh 29.81 in1009.5 mb 0.06 in1.5 mm 0.60 in15.2 mm 0.06 in1.5 mm
02:27 AM 34.2°F1.2°C 33.7°F0.9°C 98% 4.0 mph NNE6.4 kmh NNE 10.0 mph16.1 kmh 29.81 in1009.5 mb 0.07 in1.8 mm 0.60 in15.2 mm 0.07 in1.8 mm
02:28 AM 34.2°F1.2°C 33.7°F0.9°C 98% 3.0 mph WSW4.8 kmh WSW 10.0 mph16.1 kmh 29.81 in1009.5 mb 0.08 in2.0 mm 0.60 in15.2 mm 0.08 in2.0 mm
02:29 AM 34.2°F1.2°C 33.7°F0.9°C 98% 1.0 mph S1.6 kmh S 10.0 mph16.1 kmh 29.81 in1009.5 mb 0.09 in2.3 mm 0.60 in15.2 mm 0.09 in2.3 mm
02:30 AM 34.2°F1.2°C 33.7°F0.9°C 98% 6.0 mph NW9.7 kmh NW 10.0 mph16.1 kmh 29.81 in1009.5 mb 0.09 in2.3 mm 0.00 in0.0 mm 0.09 in2.3 mm
02:31 AM 34.2°F1.2°C 33.7°F0.9°C 98% 2.0 mph NE3.2 kmh NE 10.0 mph16.1 kmh 29.81 in1009.5 mb 0.10 in2.5 mm 0.60 in15.2 mm 0.10 in2.5 mm
02:32 AM 34.2°F1.2°C 33.7°F0.9°C 98% 5.0 mph NNE8.0 kmh NNE 10.0 mph16.1 kmh 29.81 in1009.5 mb 0.11 in2.8 mm 0.60 in15.2 mm 0.11 in2.8 mm
02:33 AM 34.2°F1.2°C 33.7°F0.9°C 98% Calm Calm 10.0 mph16.1 kmh 29.81 in1009.5 mb 0.11 in2.8 mm 0.00 in0.0 mm 0.11 in2.8 mm
02:34 AM 34.2°F1.2°C 33.7°F0.9°C 98% Calm Calm 6.0 mph9.7 kmh 29.81 in1009.5 mb 0.12 in3.0 mm 0.60 in15.2 mm 0.12 in3.0 mm
02:35 AM 34.2°F1.2°C 33.7°F0.9°C 98% 4.0 mph NNW6.4 kmh NNW 6.0 mph9.7 kmh 29.81 in1009.5 mb 0.13 in3.3 mm 0.60 in15.2 mm 0.13 in3.3 mm
02:36 AM 34.2°F1.2°C 33.7°F0.9°C 98% 4.0 mph NE6.4 kmh NE 6.0 mph9.7 kmh 29.80 in1009.1 mb 0.13 in3.3 mm 0.00 in0.0 mm 0.13 in3.3 mm
02:37 AM 34.2°F1.2°C 33.7°F0.9°C 98% 4.0 mph NE6.4 kmh NE 6.0 mph9.7 kmh 29.80 in1009.1 mb 0.14 in3.6 mm 0.60 in15.2 mm 0.14 in3.6 mm
02:38 AM 34.2°F1.2°C 33.7°F0.9°C 98% 5.0 mph NNE8.0 kmh NNE 6.0 mph9.7 kmh 29.80 in1009.1 mb 0.15 in3.8 mm 0.60 in15.2 mm 0.15 in3.8 mm
02:39 AM 34.2°F1.2°C 33.7°F0.9°C 98% Calm Calm 6.0 mph9.7 kmh 29.80 in1009.1 mb 0.15 in3.8 mm 0.00 in0.0 mm 0.15 in3.8 mm
02:40 AM 34.2°F1.2°C 33.7°F0.9°C 98% 2.0 mph ENE3.2 kmh ENE 6.0 mph9.7 kmh 29.79 in1008.8 mb 0.16 in4.1 mm 0.60 in15.2 mm 0.16 in4.1 mm
02:41 AM 34.2°F1.2°C 33.7°F0.9°C 98% 3.0 mph NW4.8 kmh NW 6.0 mph9.7 kmh 29.79 in1008.8 mb 0.16 in4.1 mm 0.00 in0.0 mm 0.16 in4.1 mm
02:42 AM 34.2°F1.2°C 33.7°F0.9°C 98% 6.0 mph WNW9.7 kmh WNW 6.0 mph9.7 kmh 29.79 in1008.8 mb 0.17 in4.3 mm 0.60 in15.2 mm 0.17 in4.3 mm
02:43 AM 34.2°F1.2°C 33.7°F0.9°C 98% Calm Calm 6.0 mph9.7 kmh 29.79 in1008.8 mb 0.17 in4.3 mm 0.00 in0.0 mm 0.17 in4.3 mm
02:44 AM 34.2°F1.2°C 33.7°F0.9°C 98% 3.0 mph 4.8 kmh 6.0 mph9.7 kmh 29.78 in1008.5 mb 0.18 in4.6 mm 0.60 in15.2 mm 0.18 in4.6 mm
02:45 AM 34.2°F1.2°C 33.7°F0.9°C 98% 4.0 mph NW6.4 kmh NW 6.0 mph9.7 kmh 29.78 in1008.5 mb 0.19 in4.8 mm 0.60 in15.2 mm 0.19 in4.8 mm
02:46 AM 34.2°F1.2°C 33.7°F0.9°C 98% 3.0 mph NNE4.8 kmh NNE 6.0 mph9.7 kmh 29.78 in1008.5 mb 0.19 in4.8 mm 0.00 in0.0 mm 0.19 in4.8 mm
02:47 AM 34.2°F1.2°C 33.7°F0.9°C 98% 6.0 mph 9.7 kmh 10.0 mph16.1 kmh 29.78 in1008.5 mb 0.20 in5.1 mm 0.60 in15.2 mm 0.20 in5.1 mm
02:48 AM 34.2°F1.2°C 33.7°F0.9°C 98% 6.0 mph NNW9.7 kmh NNW 10.0 mph16.1 kmh 29.77 in1008.1 mb 0.21 in5.3 mm 0.60 in15.2 mm 0.21 in5.3 mm
02:49 AM 34.2°F1.2°C 33.7°F0.9°C 98% 2.0 mph NNE3.2 kmh NNE 10.0 mph16.1 kmh 29.77 in1008.1 mb 0.21 in5.3 mm 0.00 in0.0 mm 0.21 in5.3 mm
02:50 AM 34.2°F1.2°C 33.7°F0.9°C 98% 1.0 mph WNW1.6 kmh WNW 10.0 mph16.1 kmh 29.77 in1008.1 mb 0.22 in5.6 mm 0.60 in15.2 mm 0.22 in5.6 mm
02:51 AM 34.2°F1.2°C 33.7°F0.9°C 98% 4.0 mph 6.4 kmh 10.0 mph16.1 kmh 29.77 in1008.1 mb 0.23 in5.8 mm 0.60 in15.2 mm 0.23 in5.8 mm
02:52 AM 34.2°F1.2°C 33.7°F0.9°C 98% 1.0 mph W1.6 kmh W 10.0 mph16.1 kmh 29.76 in1007.8 mb 0.23 in5.8 mm 0.00 in0.0 mm 0.23 in5.8 mm
02:53 AM 34.2°F1.2°C 33.7°F0.9°C 98% 3.0 mph NNE4.8 kmh NNE 10.0 mph16.1 kmh 29.76 in1007.8 mb 0.24 in6.1 mm 0.60 in15.2 mm 0.24 in6.1 mm
02:54 AM 34.2°F1.2°C 33.7°F0.9°C 98% 3.0 mph 4.8 kmh 10.0 mph16.1 kmh 29.76 in1007.8 mb 0.25 in6.4 mm 0.60 in15.2 mm 0.25 in6.4 mm
02:55 AM 34.2°F1.2°C 33.7°F0.9°C 98% 3.0 mph S4.8 kmh S 10.0 mph16.1 kmh 29.76 in1007.8 mb 0.25 in6.4 mm 0.00 in0.0 mm 0.25 in6.4 mm
02:56 AM 34.2°F1.2°C 33.7°F0.9°C 98% Calm Calm 10.0 mph16.1 kmh 29.75 in1007.5 mb 0.26 in6.6 mm 0.60 in15.2 mm 0.26 in6.6 mm
02:57 AM 34.2°F1.2°C 33.7°F0.9°C 98% Calm Calm 6.0 mph9.7 kmh 29.75 in1007.5 mb 0.27 in6.9 mm 0.60 in15.2 mm 0.27 in6.9 mm
02:58 AM 34.2°F1.2°C 33.7°F0.9°C 98% 4.0 mph NNW6.4 kmh NNW 5.0 mph8.0 kmh 29.74 in1007.1 mb 0.27 in6.9 mm 0.00 in0.0 mm 0.27 in6.9 mm
02:59 AM 34.2°F1.2°C 33.7°F0.9°C 98% 1.0 mph NE1.6 kmh NE 5.0 mph8.0 kmh 29.74 in1007.1 mb 0.28 in7.1 mm 0.60 in15.2 mm 0.28 in7.1 mm
03:00 AM 34.2°F1.2°C 33.7°F0.9°C 98% 1.0 mph NNE1.6 kmh NNE 9.0 mph14.5 kmh 29.74 in1007.1 mb 0.29 in7.4 mm 0.01 in0.3 mm 0.29 in7.4 mm
03:01 AM 34.2°F1.2°C 33.7°F0.9°C 98% 5.0 mph NNW8.0 kmh NNW 9.0 mph14.5 kmh 29.74 in1007.1 mb 0.29 in7.4 mm 0.00 in0.0 mm 0.29 in7.4 mm
03:02 AM 34.2°F1.2°C 33.7°F0.9°C 98% 3.0 mph NW4.8 kmh NW 9.0 mph14.5 kmh 29.75 in1007.5 mb 0.29 in7.4 mm 0.00 in0.0 mm 0.29 in7.4 mm
03:03 AM 34.2°F1.2°C 33.7°F0.9°C 98% 4.0 mph SSE6.4 kmh SSE 9.0 mph14.5 kmh 29.75 in1007.5 mb 0.30 in7.6 mm 0.60 in15.2 mm 0.30 in7.6 mm
03:04 AM 34.2°F1.2°C 33.7°F0.9°C 98% 1.0 mph 1.6 kmh 9.0 mph14.5 kmh 29.74 in1007.1 mb 0.30 in7.6 mm 0.00 in0.0 mm 0.30 in7.6 mm
03:05 AM 34.2°F1.2°C 33.7°F0.9°C 98% 2.0 mph WNW3.2 kmh WNW 9.0 mph14.5 kmh 29.74 in1007.1 mb 0.30 in7.6 mm 0.00 in0.0 mm 0.30 in7.6 mm
03:06 AM 34.2°F1.2°C 33.7°F0.9°C 98% 4.0 mph NNW6.4 kmh NNW 9.0 mph14.5 kmh 29.74 in1007.1 mb 0.00 in0.0 mm 0.00 in0.0 mm 0.31 in7.9 mm
03:07 AM 34.2°F1.2°C 33.7°F0.9°C 98% 5.0 mph WNW8.0 kmh WNW 9.0 mph14.5 kmh 29.74 in1007.1 mb 0.00 in0.0 mm 0.00 in0.0 mm 0.31 in7.9 mm
03:08 AM 34.2°F1.2°C 33.7°F0.9°C 98% 4.0 mph SW6.4 kmh SW 9.0 mph14.5 kmh 29.74 in1007.1 mb 0.00 in0.0 mm 0.00 in0.0 mm 0.31 in7.9 mm
03:09 AM 34.2°F1.2°C 33.7°F0.9°C 98% 4.0 mph NE6.4 kmh NE 9.0 mph14.5 kmh 29.74 in1007.1 mb 0.01 in0.3 mm 0.60 in15.2 mm 0.32 in8.1 mm
03:10 AM 34.2°F1.2°C 33.7°F0.9°C 98% 5.0 mph NNE8.0 kmh NNE 6.0 mph9.7 kmh 29.73 in1006.8 mb 0.01 in0.3 mm 0.00 in0.0 mm 0.32 in8.1 mm
03:11 AM 34.2°F1.2°C 33.7°F0.9°C 98% 5.0 mph 8.0 kmh 6.0 mph9.7 kmh 29.73 in1006.8 mb 0.02 in0.5 mm 0.60 in15.2 mm 0.33 in8.4 mm
03:12 AM 34.2°F1.2°C 33.7°F0.9°C 98% 2.0 mph W3.2 kmh W 6.0 mph9.7 kmh 29.73 in1006.8 mb 0.02 in0.5 mm 0.00 in0.0 mm 0.33 in8.4 mm
03:13 AM 34.2°F1.2°C 33.7°F0.9°C 98% 1.0 mph NNW1.6 kmh NNW 6.0 mph9.7 kmh 29.73 in1006.8 mb 0.02 in0.5 mm 0.00 in0.0 mm 0.33 in8.4 mm
03:14 AM 34.2°F1.2°C 33.7°F0.9°C 98% 6.0 mph NNE9.7 kmh NNE 7.0 mph11.3 kmh 29.73 in1006.8 mb 0.03 in0.8 mm 0.60 in15.2 mm 0.34 in8.6 mm
03:15 AM 34.2°F1.2°C 33.7°F0.9°C 98% 2.0 mph NW3.2 kmh NW 7.0 mph11.3 kmh 29.73 in1006.8 mb 0.03 in0.8 mm 0.00 in0.0 mm 0.34 in8.6 mm
03:16 AM 34.2°F1.2°C 33.7°F0.9°C 98% 5.0 mph 8.0 kmh 7.0 mph11.3 kmh 29.73 in1006.8 mb 0.03 in0.8 mm 0.00 in0.0 mm 0.34 in8.6 mm
03:17 AM 34.2°F1.2°C 33.7°F0.9°C 98% 6.0 mph 9.7 kmh 7.0 mph11.3 kmh 29.73 in1006.8 mb 0.04 in1.0 mm 0.60 in15.2 mm 0.35 in8.9 mm
03:18 AM 34.5°F1.4°C 34.0°F1.1°C 98% 4.0 mph SW6.4 kmh SW 9.0 mph14.5 kmh 29.72 in1006.4 mb 0.04 in1.0 mm 0.00 in0.0 mm 0.35 in8.9 mm
03:19 AM 34.5°F1.4°C 34.0°F1.1°C 98% 8.0 mph NE12.9 kmh NE 9.0 mph14.5 kmh 29.72 in1006.4 mb 0.05 in1.3 mm 0.60 in15.2 mm 0.36 in9.1 mm
03:20 AM 34.5°F1.4°C 34.0°F1.1°C 98% 3.0 mph 4.8 kmh 13.0 mph20.9 kmh 29.72 in1006.4 mb 0.05 in1.3 mm 0.00 in0.0 mm 0.36 in9.1 mm
03:21 AM 34.5°F1.4°C 34.0°F1.1°C 98% 3.0 mph NNW4.8 kmh NNW 13.0 mph20.9 kmh 29.72 in1006.4 mb 0.05 in1.3 mm 0.00 in0.0 mm 0.36 in9.1 mm
03:22 AM 34.5°F1.4°C 34.0°F1.1°C 98% 7.0 mph NW11.3 kmh NW 13.0 mph20.9 kmh 29.72 in1006.4 mb 0.06 in1.5 mm 0.60 in15.2 mm 0.37 in9.4 mm
03:23 AM 34.5°F1.4°C 34.0°F1.1°C 98% 4.0 mph ENE6.4 kmh ENE 13.0 mph20.9 kmh 29.72 in1006.4 mb 0.06 in1.5 mm 0.00 in0.0 mm 0.37 in9.4 mm
03:24 AM 34.5°F1.4°C 34.0°F1.1°C 98% 8.0 mph NNE12.9 kmh NNE 13.0 mph20.9 kmh 29.71 in1006.1 mb 0.06 in1.5 mm 0.00 in0.0 mm 0.37 in9.4 mm
03:25 AM 34.5°F1.4°C 34.0°F1.1°C 98% 6.0 mph NNW9.7 kmh NNW 13.0 mph20.9 kmh 29.71 in1006.1 mb 0.07 in1.8 mm 0.60 in15.2 mm 0.38 in9.7 mm
03:26 AM 34.5°F1.4°C 34.0°F1.1°C 98% 6.0 mph NE9.7 kmh NE 13.0 mph20.9 kmh 29.70 in1005.8 mb 0.07 in1.8 mm 0.00 in0.0 mm 0.38 in9.7 mm
03:27 AM 34.5°F1.4°C 34.0°F1.1°C 98% 6.0 mph NNE9.7 kmh NNE 13.0 mph20.9 kmh 29.70 in1005.8 mb 0.08 in2.0 mm 0.60 in15.2 mm 0.39 in9.9 mm
03:28 AM 34.5°F1.4°C 34.0°F1.1°C 98% 9.0 mph 14.5 kmh 13.0 mph20.9 kmh 29.70 in1005.8 mb 0.08 in2.0 mm 0.00 in0.0 mm 0.39 in9.9 mm
03:29 AM 34.5°F1.4°C 34.0°F1.1°C 98% 4.0 mph NNE6.4 kmh NNE 13.0 mph20.9 kmh 29.70 in1005.8 mb 0.08 in2.0 mm 0.00 in0.0 mm 0.39 in9.9 mm
03:30 AM 34.5°F1.4°C 34.0°F1.1°C 98% 7.0 mph NW11.3 kmh NW 10.0 mph16.1 kmh 29.70 in1005.8 mb 0.09 in2.3 mm 0.60 in15.2 mm 0.40 in10.2 mm
03:31 AM 34.5°F1.4°C 34.0°F1.1°C 98% 2.0 mph NNE3.2 kmh NNE 10.0 mph16.1 kmh 29.70 in1005.8 mb 0.09 in2.3 mm 0.00 in0.0 mm 0.40 in10.2 mm
03:32 AM 34.7°F1.5°C 34.2°F1.2°C 98% 6.0 mph W9.7 kmh W 10.0 mph16.1 kmh 29.69 in1005.4 mb 0.09 in2.3 mm 0.00 in0.0 mm 0.40 in10.2 mm
03:33 AM 34.7°F1.5°C 34.2°F1.2°C 98% 1.0 mph ENE1.6 kmh ENE 10.0 mph16.1 kmh 29.69 in1005.4 mb 0.10 in2.5 mm 0.60 in15.2 mm 0.41 in10.4 mm
03:34 AM 34.7°F1.5°C 34.2°F1.2°C 98% Calm Calm 10.0 mph16.1 kmh 29.69 in1005.4 mb 0.10 in2.5 mm 0.00 in0.0 mm 0.41 in10.4 mm
03:35 AM 34.7°F1.5°C 34.2°F1.2°C 98% 2.0 mph NNE3.2 kmh NNE 10.0 mph16.1 kmh 29.69 in1005.4 mb 0.11 in2.8 mm 0.60 in15.2 mm 0.42 in10.7 mm
03:36 AM 34.7°F1.5°C 34.2°F1.2°C 98% 5.0 mph W8.0 kmh W 10.0 mph16.1 kmh 29.70 in1005.8 mb 0.11 in2.8 mm 0.00 in0.0 mm 0.42 in10.7 mm
03:37 AM 34.7°F1.5°C 34.2°F1.2°C 98% 2.0 mph ESE3.2 kmh ESE 10.0 mph16.1 kmh 29.70 in1005.8 mb 0.11 in2.8 mm 0.00 in0.0 mm 0.42 in10.7 mm
03:38 AM 34.7°F1.5°C 34.2°F1.2°C 98% 3.0 mph NW4.8 kmh NW 10.0 mph16.1 kmh 29.69 in1005.4 mb 0.11 in2.8 mm 0.00 in0.0 mm 0.42 in10.7 mm
03:39 AM 34.7°F1.5°C 34.2°F1.2°C 98% 3.0 mph NE4.8 kmh NE 10.0 mph16.1 kmh 29.69 in1005.4 mb 0.12 in3.0 mm 0.60 in15.2 mm 0.43 in10.9 mm
03:40 AM 34.7°F1.5°C 34.2°F1.2°C 98% 4.0 mph W6.4 kmh W 7.0 mph11.3 kmh 29.69 in1005.4 mb 0.12 in3.0 mm 0.00 in0.0 mm 0.43 in10.9 mm
03:41 AM 34.7°F1.5°C 34.2°F1.2°C 98% 2.0 mph SSE3.2 kmh SSE 6.0 mph9.7 kmh 29.69 in1005.4 mb 0.12 in3.0 mm 0.00 in0.0 mm 0.43 in10.9 mm
03:42 AM 34.9°F1.6°C 34.4°F1.3°C 98% 1.0 mph NNE1.6 kmh NNE 6.0 mph9.7 kmh 29.69 in1005.4 mb 0.12 in3.0 mm 0.00 in0.0 mm 0.43 in10.9 mm
03:43 AM 34.9°F1.6°C 34.4°F1.3°C 98% 3.0 mph W4.8 kmh W 6.0 mph9.7 kmh 29.70 in1005.8 mb 0.12 in3.0 mm 0.00 in0.0 mm 0.43 in10.9 mm
03:44 AM 34.9°F1.6°C 34.4°F1.3°C 98% 1.0 mph 1.6 kmh 8.0 mph12.9 kmh 29.70 in1005.8 mb 0.12 in3.0 mm 0.00 in0.0 mm 0.43 in10.9 mm
03:45 AM 34.9°F1.6°C 34.4°F1.3°C 98% 3.0 mph NNE4.8 kmh NNE 8.0 mph12.9 kmh 29.70 in1005.8 mb 0.13 in3.3 mm 0.60 in15.2 mm 0.44 in11.2 mm
03:46 AM 34.9°F1.6°C 34.4°F1.3°C 98% 1.0 mph NNW1.6 kmh NNW 8.0 mph12.9 kmh 29.70 in1005.8 mb 0.13 in3.3 mm 0.00 in0.0 mm 0.44 in11.2 mm
03:47 AM 35.0°F1.7°C 34.5°F1.4°C 98% 4.0 mph NNE6.4 kmh NNE 8.0 mph12.9 kmh 29.70 in1005.8 mb 0.13 in3.3 mm 0.00 in0.0 mm 0.44 in11.2 mm
03:48 AM 35.0°F1.7°C 34.5°F1.4°C 98% 8.0 mph 12.9 kmh 8.0 mph12.9 kmh 29.70 in1005.8 mb 0.13 in3.3 mm 0.00 in0.0 mm 0.44 in11.2 mm
03:49 AM 35.0°F1.7°C 34.5°F1.4°C 98% 2.0 mph S3.2 kmh S 8.0 mph12.9 kmh 29.70 in1005.8 mb 0.13 in3.3 mm 0.00 in0.0 mm 0.44 in11.2 mm
03:50 AM 35.0°F1.7°C 34.5°F1.4°C 98% 1.0 mph 1.6 kmh 8.0 mph12.9 kmh 29.71 in1006.1 mb 0.14 in3.6 mm 0.60 in15.2 mm 0.45 in11.4 mm
03:51 AM 35.0°F1.7°C 34.5°F1.4°C 98% 2.0 mph 3.2 kmh 8.0 mph12.9 kmh 29.71 in1006.1 mb 0.14 in3.6 mm 0.00 in0.0 mm 0.45 in11.4 mm
03:52 AM 35.0°F1.7°C 34.5°F1.4°C 98% 4.0 mph NNW6.4 kmh NNW 8.0 mph12.9 kmh 29.71 in1006.1 mb 0.15 in3.8 mm 0.60 in15.2 mm 0.46 in11.7 mm
03:53 AM 35.1°F1.7°C 34.6°F1.4°C 98% 3.0 mph NE4.8 kmh NE 8.0 mph12.9 kmh 29.71 in1006.1 mb 0.16 in4.1 mm 0.60 in15.2 mm 0.47 in11.9 mm
03:54 AM 35.1°F1.7°C 34.6°F1.4°C 98% 4.0 mph NNE6.4 kmh NNE 8.0 mph12.9 kmh 29.70 in1005.8 mb 0.18 in4.6 mm 1.20 in30.5 mm 0.49 in12.4 mm
03:55 AM 35.1°F1.7°C 34.6°F1.4°C 98% 10.0 mph NNE16.1 kmh NNE 10.0 mph16.1 kmh 29.70 in1005.8 mb 0.20 in5.1 mm 1.20 in30.5 mm 0.51 in13.0 mm
03:56 AM 35.1°F1.7°C 34.6°F1.4°C 98% 5.0 mph NNE8.0 kmh NNE 10.0 mph16.1 kmh 29.69 in1005.4 mb 0.20 in5.1 mm 0.00 in0.0 mm 0.51 in13.0 mm
03:57 AM 35.1°F1.7°C 34.6°F1.4°C 98% 2.0 mph E3.2 kmh E 10.0 mph16.1 kmh 29.69 in1005.4 mb 0.21 in5.3 mm 0.60 in15.2 mm 0.52 in13.2 mm
03:58 AM 35.1°F1.7°C 34.6°F1.4°C 98% 7.0 mph NW11.3 kmh NW 10.0 mph16.1 kmh 29.69 in1005.4 mb 0.21 in5.3 mm 0.00 in0.0 mm 0.52 in13.2 mm
03:59 AM 35.1°F1.7°C 34.6°F1.4°C 98% 5.0 mph NE8.0 kmh NE 10.0 mph16.1 kmh 29.69 in1005.4 mb 0.22 in5.6 mm 0.60 in15.2 mm 0.53 in13.5 mm
04:00 AM 35.1°F1.7°C 34.6°F1.4°C 98% 2.0 mph SSW3.2 kmh SSW 10.0 mph16.1 kmh 29.70 in1005.8 mb 0.22 in5.6 mm 0.00 in0.0 mm 0.53 in13.5 mm
04:01 AM 35.1°F1.7°C 34.6°F1.4°C 98% 2.0 mph NNE3.2 kmh NNE 10.0 mph16.1 kmh 29.70 in1005.8 mb 0.22 in5.6 mm 0.00 in0.0 mm 0.53 in13.5 mm
04:02 AM 35.1°F1.7°C 34.6°F1.4°C 98% 1.0 mph S1.6 kmh S 10.0 mph16.1 kmh 29.70 in1005.8 mb 0.22 in5.6 mm 0.00 in0.0 mm 0.53 in13.5 mm
04:03 AM 35.1°F1.7°C 34.6°F1.4°C 98% Calm Calm 10.0 mph16.1 kmh 29.70 in1005.8 mb 0.22 in5.6 mm 0.00 in0.0 mm 0.53 in13.5 mm
04:04 AM 35.1°F1.7°C 34.6°F1.4°C 98% Calm Calm 10.0 mph16.1 kmh 29.70 in1005.8 mb 0.23 in5.8 mm 0.60 in15.2 mm 0.54 in13.7 mm
04:05 AM 35.1°F1.7°C 34.6°F1.4°C 98% 5.0 mph NE8.0 kmh NE 7.0 mph11.3 kmh 29.70 in1005.8 mb 0.23 in5.8 mm 0.00 in0.0 mm 0.54 in13.7 mm
04:06 AM 35.1°F1.7°C 34.6°F1.4°C 98% 3.0 mph ESE4.8 kmh ESE 7.0 mph11.3 kmh 29.70 in1005.8 mb 0.00 in0.0 mm 0.00 in0.0 mm 0.54 in13.7 mm
04:07 AM 35.1°F1.7°C 34.6°F1.4°C 98% 2.0 mph NNE3.2 kmh NNE 7.0 mph11.3 kmh 29.70 in1005.8 mb 0.01 in0.3 mm 0.60 in15.2 mm 0.55 in14.0 mm
04:08 AM 35.1°F1.7°C 34.6°F1.4°C 98% 4.0 mph 6.4 kmh 6.0 mph9.7 kmh 29.69 in1005.4 mb 0.01 in0.3 mm 0.00 in0.0 mm 0.55 in14.0 mm
04:09 AM 35.1°F1.7°C 34.6°F1.4°C 98% 5.0 mph NNW8.0 kmh NNW 9.0 mph14.5 kmh 29.69 in1005.4 mb 0.01 in0.3 mm 0.00 in0.0 mm 0.55 in14.0 mm
04:10 AM 35.1°F1.7°C 34.6°F1.4°C 98% 8.0 mph NNW12.9 kmh NNW 9.0 mph14.5 kmh 29.69 in1005.4 mb 0.02 in0.5 mm 0.60 in15.2 mm 0.56 in14.2 mm
04:11 AM 35.1°F1.7°C 34.6°F1.4°C 98% 4.0 mph WNW6.4 kmh WNW 9.0 mph14.5 kmh 29.68 in1005.1 mb 0.02 in0.5 mm 0.00 in0.0 mm 0.56 in14.2 mm
04:12 AM 35.1°F1.7°C 34.6°F1.4°C 98% 2.0 mph 3.2 kmh 9.0 mph14.5 kmh 29.68 in1005.1 mb 0.03 in0.8 mm 0.60 in15.2 mm 0.57 in14.5 mm
04:13 AM 35.1°F1.7°C 34.6°F1.4°C 98% 4.0 mph NNE6.4 kmh NNE 9.0 mph14.5 kmh 29.68 in1005.1 mb 0.03 in0.8 mm 0.00 in0.0 mm 0.57 in14.5 mm
04:14 AM 35.1°F1.7°C 34.6°F1.4°C 98% 2.0 mph NE3.2 kmh NE 9.0 mph14.5 kmh 29.67 in1004.7 mb 0.03 in0.8 mm 0.00 in0.0 mm 0.57 in14.5 mm
04:15 AM 35.1°F1.7°C 34.6°F1.4°C 98% 5.0 mph 8.0 kmh 9.0 mph14.5 kmh 29.67 in1004.7 mb 0.04 in1.0 mm 0.60 in15.2 mm 0.58 in14.7 mm
04:16 AM 35.1°F1.7°C 34.6°F1.4°C 98% 3.0 mph 4.8 kmh 9.0 mph14.5 kmh 29.67 in1004.7 mb 0.04 in1.0 mm 0.00 in0.0 mm 0.58 in14.7 mm
04:17 AM 35.1°F1.7°C 34.6°F1.4°C 98% 2.0 mph NW3.2 kmh NW 9.0 mph14.5 kmh 29.67 in1004.7 mb 0.05 in1.3 mm 0.60 in15.2 mm 0.59 in15.0 mm
04:18 AM 35.1°F1.7°C 34.6°F1.4°C 98% 3.0 mph NNE4.8 kmh NNE 9.0 mph14.5 kmh 29.67 in1004.7 mb 0.05 in1.3 mm 0.00 in0.0 mm 0.59 in15.0 mm
04:19 AM 35.1°F1.7°C 34.6°F1.4°C 98% 4.0 mph NW6.4 kmh NW 8.0 mph12.9 kmh 29.67 in1004.7 mb 0.05 in1.3 mm 0.00 in0.0 mm 0.59 in15.0 mm
04:20 AM 35.1°F1.7°C 34.6°F1.4°C 98% 2.0 mph 3.2 kmh 8.0 mph12.9 kmh 29.67 in1004.7 mb 0.05 in1.3 mm 0.00 in0.0 mm 0.59 in15.0 mm
04:21 AM 35.1°F1.7°C 34.6°F1.4°C 98% 5.0 mph 8.0 kmh 6.0 mph9.7 kmh 29.67 in1004.7 mb 0.05 in1.3 mm 0.00 in0.0 mm 0.59 in15.0 mm
04:22 AM 35.1°F1.7°C 34.6°F1.4°C 98% 3.0 mph 4.8 kmh 6.0 mph9.7 kmh 29.66 in1004.4 mb 0.06 in1.5 mm 0.60 in15.2 mm 0.60 in15.2 mm
04:23 AM 35.1°F1.7°C 34.6°F1.4°C 98% 2.0 mph ESE3.2 kmh ESE 6.0 mph9.7 kmh 29.66 in1004.4 mb 0.06 in1.5 mm 0.00 in0.0 mm 0.60 in15.2 mm
04:24 AM 35.1°F1.7°C 34.6°F1.4°C 98% 3.0 mph ENE4.8 kmh ENE 6.0 mph9.7 kmh 29.65 in1004.1 mb 0.06 in1.5 mm 0.00 in0.0 mm 0.60 in15.2 mm
04:25 AM 35.1°F1.7°C 34.6°F1.4°C 98% 3.0 mph W4.8 kmh W 6.0 mph9.7 kmh 29.65 in1004.1 mb 0.07 in1.8 mm 0.60 in15.2 mm 0.61 in15.5 mm
04:26 AM 35.1°F1.7°C 34.6°F1.4°C 98% 4.0 mph W6.4 kmh W 6.0 mph9.7 kmh 29.64 in1003.7 mb 0.07 in1.8 mm 0.00 in0.0 mm 0.61 in15.5 mm
04:27 AM 35.1°F1.7°C 34.6°F1.4°C 98% 2.0 mph NNW3.2 kmh NNW 6.0 mph9.7 kmh 29.64 in1003.7 mb 0.07 in1.8 mm 0.00 in0.0 mm 0.61 in15.5 mm
04:28 AM 35.1°F1.7°C 34.6°F1.4°C 98% 1.0 mph E1.6 kmh E 6.0 mph9.7 kmh 29.65 in1004.1 mb 0.07 in1.8 mm 0.00 in0.0 mm 0.61 in15.5 mm
04:29 AM 35.1°F1.7°C 34.6°F1.4°C 98% 3.0 mph NW4.8 kmh NW 5.0 mph8.0 kmh 29.65 in1004.1 mb 0.07 in1.8 mm 0.00 in0.0 mm 0.61 in15.5 mm
04:30 AM 35.4°F1.9°C 34.9°F1.6°C 98% 4.0 mph WNW6.4 kmh WNW 6.0 mph9.7 kmh 29.65 in1004.1 mb 0.08 in2.0 mm 0.60 in15.2 mm 0.62 in15.7 mm
04:31 AM 35.4°F1.9°C 34.9°F1.6°C 98% 3.0 mph W4.8 kmh W 6.0 mph9.7 kmh 29.65 in1004.1 mb 0.08 in2.0 mm 0.00 in0.0 mm 0.62 in15.7 mm
04:32 AM 35.4°F1.9°C 34.9°F1.6°C 98% 3.0 mph ENE4.8 kmh ENE 6.0 mph9.7 kmh 29.65 in1004.1 mb 0.08 in2.0 mm 0.00 in0.0 mm 0.62 in15.7 mm
04:33 AM 35.4°F1.9°C 34.9°F1.6°C 98% 2.0 mph WNW3.2 kmh WNW 6.0 mph9.7 kmh 29.65 in1004.1 mb 0.08 in2.0 mm 0.00 in0.0 mm 0.62 in15.7 mm
04:34 AM 35.4°F1.9°C 34.9°F1.6°C 98% 2.0 mph S3.2 kmh S 6.0 mph9.7 kmh 29.65 in1004.1 mb 0.08 in2.0 mm 0.00 in0.0 mm 0.62 in15.7 mm
04:35 AM 35.4°F1.9°C 34.9°F1.6°C 98% 5.0 mph E8.0 kmh E 6.0 mph9.7 kmh 29.65 in1004.1 mb 0.09 in2.3 mm 0.60 in15.2 mm 0.63 in16.0 mm
04:36 AM 35.5°F1.9°C 35.0°F1.7°C 98% 2.0 mph 3.2 kmh 6.0 mph9.7 kmh 29.65 in1004.1 mb 0.09 in2.3 mm 0.00 in0.0 mm 0.63 in16.0 mm
04:37 AM 35.5°F1.9°C 35.0°F1.7°C 98% 1.0 mph NW1.6 kmh NW 6.0 mph9.7 kmh 29.65 in1004.1 mb 0.09 in2.3 mm 0.00 in0.0 mm 0.63 in16.0 mm
04:38 AM 35.5°F1.9°C 35.0°F1.7°C 98% 3.0 mph WNW4.8 kmh WNW 6.0 mph9.7 kmh 29.65 in1004.1 mb 0.09 in2.3 mm 0.00 in0.0 mm 0.63 in16.0 mm
04:39 AM 35.5°F1.9°C 35.0°F1.7°C 98% 5.0 mph NE8.0 kmh NE 6.0 mph9.7 kmh 29.65 in1004.1 mb 0.10 in2.5 mm 0.60 in15.2 mm 0.64 in16.3 mm
04:40 AM 35.5°F1.9°C 35.0°F1.7°C 98% 2.0 mph 3.2 kmh 6.0 mph9.7 kmh 29.64 in1003.7 mb 0.10 in2.5 mm 0.00 in0.0 mm 0.64 in16.3 mm
04:41 AM 35.5°F1.9°C 35.0°F1.7°C 98% 2.0 mph NNE3.2 kmh NNE 5.0 mph8.0 kmh 29.64 in1003.7 mb 0.11 in2.8 mm 0.60 in15.2 mm 0.65 in16.5 mm
04:42 AM 35.5°F1.9°C 35.0°F1.7°C 98% 3.0 mph NNE4.8 kmh NNE 5.0 mph8.0 kmh 29.63 in1003.4 mb 0.11 in2.8 mm 0.00 in0.0 mm 0.65 in16.5 mm
04:43 AM 35.5°F1.9°C 35.0°F1.7°C 98% 2.0 mph WNW3.2 kmh WNW 5.0 mph8.0 kmh 29.63 in1003.4 mb 0.11 in2.8 mm 0.00 in0.0 mm 0.65 in16.5 mm
04:44 AM 35.5°F1.9°C 35.0°F1.7°C 98% 7.0 mph NW11.3 kmh NW 8.0 mph12.9 kmh 29.63 in1003.4 mb 0.11 in2.8 mm 0.00 in0.0 mm 0.65 in16.5 mm
04:45 AM 35.5°F1.9°C 35.0°F1.7°C 98% 2.0 mph ESE3.2 kmh ESE 8.0 mph12.9 kmh 29.63 in1003.4 mb 0.11 in2.8 mm 0.00 in0.0 mm 0.65 in16.5 mm
04:46 AM 35.5°F1.9°C 35.0°F1.7°C 98% 2.0 mph NNE3.2 kmh NNE 8.0 mph12.9 kmh 29.63 in1003.4 mb 0.11 in2.8 mm 0.00 in0.0 mm 0.65 in16.5 mm
04:47 AM 35.5°F1.9°C 35.0°F1.7°C 98% 2.0 mph E3.2 kmh E 8.0 mph12.9 kmh 29.63 in1003.4 mb 0.12 in3.0 mm 0.60 in15.2 mm 0.66 in16.8 mm
04:48 AM 35.5°F1.9°C 35.0°F1.7°C 98% 4.0 mph NW6.4 kmh NW 8.0 mph12.9 kmh 29.63 in1003.4 mb 0.12 in3.0 mm 0.00 in0.0 mm 0.66 in16.8 mm
04:49 AM 35.5°F1.9°C 35.0°F1.7°C 98% 8.0 mph NNW12.9 kmh NNW 9.0 mph14.5 kmh 29.63 in1003.4 mb 0.12 in3.0 mm 0.00 in0.0 mm 0.66 in16.8 mm
04:50 AM 35.5°F1.9°C 35.0°F1.7°C 98% 5.0 mph NNW8.0 kmh NNW 9.0 mph14.5 kmh 29.62 in1003.0 mb 0.12 in3.0 mm 0.00 in0.0 mm 0.66 in16.8 mm
04:51 AM 35.5°F1.9°C 35.0°F1.7°C 98% 3.0 mph NNE4.8 kmh NNE 9.0 mph14.5 kmh 29.61 in1002.7 mb 0.13 in3.3 mm 0.60 in15.2 mm 0.67 in17.0 mm
04:52 AM 35.5°F1.9°C 35.0°F1.7°C 98% 5.0 mph NNE8.0 kmh NNE 9.0 mph14.5 kmh 29.61 in1002.7 mb 0.13 in3.3 mm 0.00 in0.0 mm 0.67 in17.0 mm
04:53 AM 35.5°F1.9°C 35.0°F1.7°C 98% 5.0 mph NNE8.0 kmh NNE 9.0 mph14.5 kmh 29.61 in1002.7 mb 0.13 in3.3 mm 0.00 in0.0 mm 0.67 in17.0 mm
04:54 AM 35.5°F1.9°C 35.0°F1.7°C 98% 4.0 mph NW6.4 kmh NW 9.0 mph14.5 kmh 29.61 in1002.7 mb 0.13 in3.3 mm 0.00 in0.0 mm 0.67 in17.0 mm
04:55 AM 35.5°F1.9°C 35.0°F1.7°C 98% 4.0 mph WNW6.4 kmh WNW 9.0 mph14.5 kmh 29.61 in1002.7 mb 0.13 in3.3 mm 0.00 in0.0 mm 0.67 in17.0 mm
04:56 AM 35.5°F1.9°C 35.0°F1.7°C 98% 4.0 mph NW6.4 kmh NW 9.0 mph14.5 kmh 29.61 in1002.7 mb 0.13 in3.3 mm 0.00 in0.0 mm 0.67 in17.0 mm
04:57 AM 35.5°F1.9°C 35.0°F1.7°C 98% 4.0 mph 6.4 kmh 9.0 mph14.5 kmh 29.60 in1002.4 mb 0.13 in3.3 mm 0.00 in0.0 mm 0.67 in17.0 mm
04:58 AM 35.5°F1.9°C 35.0°F1.7°C 98% 5.0 mph NNW8.0 kmh NNW 9.0 mph14.5 kmh 29.61 in1002.7 mb 0.14 in3.6 mm 0.60 in15.2 mm 0.68 in17.3 mm
04:59 AM 35.5°F1.9°C 35.0°F1.7°C 98% 6.0 mph 9.7 kmh 9.0 mph14.5 kmh 29.61 in1002.7 mb 0.14 in3.6 mm 0.00 in0.0 mm 0.68 in17.3 mm
05:00 AM 35.5°F1.9°C 35.0°F1.7°C 98% 5.0 mph 8.0 kmh 9.0 mph14.5 kmh 29.61 in1002.7 mb 0.14 in3.6 mm 0.00 in0.0 mm 0.68 in17.3 mm
05:01 AM 35.5°F1.9°C 35.0°F1.7°C 98% Calm Calm 9.0 mph14.5 kmh 29.60 in1002.4 mb 0.14 in3.6 mm 0.00 in0.0 mm 0.68 in17.3 mm
05:02 AM 35.5°F1.9°C 35.0°F1.7°C 98% 2.0 mph NNE3.2 kmh NNE 9.0 mph14.5 kmh 29.61 in1002.7 mb 0.14 in3.6 mm 0.00 in0.0 mm 0.68 in17.3 mm
05:03 AM 35.5°F1.9°C 35.0°F1.7°C 98% 7.0 mph NE11.3 kmh NE 8.0 mph12.9 kmh 29.61 in1002.7 mb 0.14 in3.6 mm 0.00 in0.0 mm 0.68 in17.3 mm
05:04 AM 35.5°F1.9°C 35.0°F1.7°C 98% 6.0 mph WNW9.7 kmh WNW 8.0 mph12.9 kmh 29.61 in1002.7 mb 0.15 in3.8 mm 0.60 in15.2 mm 0.69 in17.5 mm
05:05 AM 35.5°F1.9°C 35.0°F1.7°C 98% 5.0 mph NE8.0 kmh NE 8.0 mph12.9 kmh 29.61 in1002.7 mb 0.15 in3.8 mm 0.00 in0.0 mm 0.69 in17.5 mm
05:06 AM 35.7°F2.1°C 35.2°F1.8°C 98% 5.0 mph NNE8.0 kmh NNE 10.0 mph16.1 kmh 29.61 in1002.7 mb 0.00 in0.0 mm 0.00 in0.0 mm 0.69 in17.5 mm
05:07 AM 35.7°F2.1°C 35.2°F1.8°C 98% 4.0 mph 6.4 kmh 10.0 mph16.1 kmh 29.61 in1002.7 mb 0.00 in0.0 mm 0.00 in0.0 mm 0.69 in17.5 mm
05:08 AM 35.7°F2.1°C 35.2°F1.8°C 98% 1.0 mph NNW1.6 kmh NNW 10.0 mph16.1 kmh 29.61 in1002.7 mb 0.00 in0.0 mm 0.00 in0.0 mm 0.69 in17.5 mm
05:09 AM 35.7°F2.1°C 35.2°F1.8°C 98% 2.0 mph NNE3.2 kmh NNE 10.0 mph16.1 kmh 29.61 in1002.7 mb 0.00 in0.0 mm 0.00 in0.0 mm 0.69 in17.5 mm
05:10 AM 35.7°F2.1°C 35.2°F1.8°C 98% 3.0 mph NW4.8 kmh NW 10.0 mph16.1 kmh 29.62 in1003.0 mb 0.01 in0.3 mm 0.60 in15.2 mm 0.70 in17.8 mm
05:11 AM 35.7°F2.1°C 35.2°F1.8°C 98% 5.0 mph NW8.0 kmh NW 10.0 mph16.1 kmh 29.62 in1003.0 mb 0.01 in0.3 mm 0.00 in0.0 mm 0.70 in17.8 mm
05:12 AM 35.7°F2.1°C 35.2°F1.8°C 98% Calm Calm 10.0 mph16.1 kmh 29.62 in1003.0 mb 0.01 in0.3 mm 0.00 in0.0 mm 0.70 in17.8 mm
05:13 AM 35.7°F2.1°C 35.2°F1.8°C 98% Calm Calm 10.0 mph16.1 kmh 29.61 in1002.7 mb 0.01 in0.3 mm 0.00 in0.0 mm 0.70 in17.8 mm
05:14 AM 35.7°F2.1°C 35.2°F1.8°C 98% 4.0 mph NNE6.4 kmh NNE 10.0 mph16.1 kmh 29.61 in1002.7 mb 0.01 in0.3 mm 0.00 in0.0 mm 0.70 in17.8 mm
05:15 AM 35.7°F2.1°C 35.2°F1.8°C 98% 3.0 mph 4.8 kmh 10.0 mph16.1 kmh 29.61 in1002.7 mb 0.01 in0.3 mm 0.00 in0.0 mm 0.70 in17.8 mm
05:16 AM 35.7°F2.1°C 35.2°F1.8°C 98% 3.0 mph WNW4.8 kmh WNW 5.0 mph8.0 kmh 29.61 in1002.7 mb 0.01 in0.3 mm 0.00 in0.0 mm 0.70 in17.8 mm
05:17 AM 35.7°F2.1°C 35.2°F1.8°C 98% 5.0 mph WNW8.0 kmh WNW 5.0 mph8.0 kmh 29.61 in1002.7 mb 0.02 in0.5 mm 0.60 in15.2 mm 0.71 in18.0 mm
05:18 AM 35.7°F2.1°C 35.2°F1.8°C 98% 4.0 mph NW6.4 kmh NW 7.0 mph11.3 kmh 29.60 in1002.4 mb 0.02 in0.5 mm 0.00 in0.0 mm 0.71 in18.0 mm
05:19 AM 35.7°F2.1°C 35.2°F1.8°C 98% 4.0 mph NNW6.4 kmh NNW 7.0 mph11.3 kmh 29.60 in1002.4 mb 0.02 in0.5 mm 0.00 in0.0 mm 0.71 in18.0 mm
05:20 AM 35.7°F2.1°C 35.2°F1.8°C 98% 3.0 mph WNW4.8 kmh WNW 7.0 mph11.3 kmh 29.60 in1002.4 mb 0.02 in0.5 mm 0.00 in0.0 mm 0.71 in18.0 mm
05:21 AM 35.7°F2.1°C 35.2°F1.8°C 98% 4.0 mph NNE6.4 kmh NNE 7.0 mph11.3 kmh 29.60 in1002.4 mb 0.02 in0.5 mm 0.00 in0.0 mm 0.71 in18.0 mm
05:22 AM 35.7°F2.1°C 35.2°F1.8°C 98% 3.0 mph NW4.8 kmh NW 7.0 mph11.3 kmh 29.60 in1002.4 mb 0.03 in0.8 mm 0.60 in15.2 mm 0.72 in18.3 mm
05:23 AM 35.7°F2.1°C 35.2°F1.8°C 98% 4.0 mph NNW6.4 kmh NNW 7.0 mph11.3 kmh 29.60 in1002.4 mb 0.03 in0.8 mm 0.00 in0.0 mm 0.72 in18.3 mm
05:24 AM 35.7°F2.1°C 35.2°F1.8°C 98% 7.0 mph NW11.3 kmh NW 7.0 mph11.3 kmh 29.59 in1002.0 mb 0.03 in0.8 mm 0.00 in0.0 mm 0.72 in18.3 mm
05:25 AM 35.9°F2.2°C 35.4°F1.9°C 98% 4.0 mph NNW6.4 kmh NNW 10.0 mph16.1 kmh 29.59 in1002.0 mb 0.03 in0.8 mm 0.00 in0.0 mm 0.72 in18.3 mm
05:26 AM 35.9°F2.2°C 35.4°F1.9°C 98% 4.0 mph WNW6.4 kmh WNW 10.0 mph16.1 kmh 29.60 in1002.4 mb 0.03 in0.8 mm 0.00 in0.0 mm 0.72 in18.3 mm
05:27 AM 35.9°F2.2°C 35.4°F1.9°C 98% 1.0 mph 1.6 kmh 10.0 mph16.1 kmh 29.60 in1002.4 mb 0.03 in0.8 mm 0.00 in0.0 mm 0.72 in18.3 mm
05:28 AM 35.9°F2.2°C 35.4°F1.9°C 98% 3.0 mph ENE4.8 kmh ENE 10.0 mph16.1 kmh 29.60 in1002.4 mb 0.03 in0.8 mm 0.00 in0.0 mm 0.72 in18.3 mm
05:29 AM 35.9°F2.2°C 35.4°F1.9°C 98% 2.0 mph E3.2 kmh E 10.0 mph16.1 kmh 29.60 in1002.4 mb 0.04 in1.0 mm 0.60 in15.2 mm 0.73 in18.5 mm
05:30 AM 35.9°F2.2°C 35.4°F1.9°C 98% 2.0 mph NNE3.2 kmh NNE 10.0 mph16.1 kmh 29.60 in1002.4 mb 0.04 in1.0 mm 0.00 in0.0 mm 0.73 in18.5 mm
05:31 AM 35.9°F2.2°C 35.4°F1.9°C 98% 2.0 mph ESE3.2 kmh ESE 10.0 mph16.1 kmh 29.60 in1002.4 mb 0.04 in1.0 mm 0.00 in0.0 mm 0.73 in18.5 mm
05:32 AM 35.9°F2.2°C 35.4°F1.9°C 98% 3.0 mph NNE4.8 kmh NNE 10.0 mph16.1 kmh 29.60 in1002.4 mb 0.04 in1.0 mm 0.00 in0.0 mm 0.73 in18.5 mm
05:33 AM 35.9°F2.2°C 35.4°F1.9°C 98% 3.0 mph NNE4.8 kmh NNE 10.0 mph16.1 kmh 29.60 in1002.4 mb 0.04 in1.0 mm 0.00 in0.0 mm 0.73 in18.5 mm
05:34 AM 35.9°F2.2°C 35.4°F1.9°C 98% 2.0 mph NNE3.2 kmh NNE 10.0 mph16.1 kmh 29.59 in1002.0 mb 0.04 in1.0 mm 0.00 in0.0 mm 0.73 in18.5 mm
05:35 AM 35.9°F2.2°C 35.4°F1.9°C 98% 3.0 mph NE4.8 kmh NE 8.0 mph12.9 kmh 29.59 in1002.0 mb 0.05 in1.3 mm 0.60 in15.2 mm 0.74 in18.8 mm
05:36 AM 35.9°F2.2°C 35.4°F1.9°C 98% 2.0 mph NNE3.2 kmh NNE 4.0 mph6.4 kmh 29.59 in1002.0 mb 0.05 in1.3 mm 0.00 in0.0 mm 0.74 in18.8 mm
05:37 AM 35.9°F2.2°C 35.4°F1.9°C 98% Calm Calm 4.0 mph6.4 kmh 29.59 in1002.0 mb 0.05 in1.3 mm 0.00 in0.0 mm 0.74 in18.8 mm
05:38 AM 35.9°F2.2°C 35.4°F1.9°C 98% 1.0 mph NNE1.6 kmh NNE 4.0 mph6.4 kmh 29.59 in1002.0 mb 0.05 in1.3 mm 0.00 in0.0 mm 0.74 in18.8 mm
05:39 AM 35.9°F2.2°C 35.4°F1.9°C 98% 1.0 mph NNE1.6 kmh NNE 4.0 mph6.4 kmh 29.59 in1002.0 mb 0.06 in1.5 mm 0.60 in15.2 mm 0.75 in19.1 mm
05:40 AM 35.9°F2.2°C 35.4°F1.9°C 98% 4.0 mph NNE6.4 kmh NNE 4.0 mph6.4 kmh 29.59 in1002.0 mb 0.06 in1.5 mm 0.00 in0.0 mm 0.75 in19.1 mm
05:41 AM 35.9°F2.2°C 35.4°F1.9°C 98% 2.0 mph NE3.2 kmh NE 4.0 mph6.4 kmh 29.59 in1002.0 mb 0.06 in1.5 mm 0.00 in0.0 mm 0.75 in19.1 mm
05:42 AM 35.9°F2.2°C 35.4°F1.9°C 98% 2.0 mph 3.2 kmh 4.0 mph6.4 kmh 29.58 in1001.7 mb 0.06 in1.5 mm 0.00 in0.0 mm 0.75 in19.1 mm
05:43 AM 35.9°F2.2°C 35.4°F1.9°C 98% 1.0 mph NE1.6 kmh NE 4.0 mph6.4 kmh 29.58 in1001.7 mb 0.07 in1.8 mm 0.60 in15.2 mm 0.76 in19.3 mm
05:44 AM 35.9°F2.2°C 35.4°F1.9°C 98% Calm Calm 4.0 mph6.4 kmh 29.58 in1001.7 mb 0.07 in1.8 mm 0.00 in0.0 mm 0.76 in19.3 mm
05:45 AM 35.9°F2.2°C 35.4°F1.9°C 98% 3.0 mph 4.8 kmh 4.0 mph6.4 kmh 29.58 in1001.7 mb 0.08 in2.0 mm 0.60 in15.2 mm 0.77 in19.6 mm
05:46 AM 35.9°F2.2°C 35.4°F1.9°C 98% 3.0 mph NW4.8 kmh NW 4.0 mph6.4 kmh 29.57 in1001.4 mb 0.08 in2.0 mm 0.00 in0.0 mm 0.77 in19.6 mm
05:47 AM 35.9°F2.2°C 35.4°F1.9°C 98% 2.0 mph 3.2 kmh 4.0 mph6.4 kmh 29.57 in1001.4 mb 0.08 in2.0 mm 0.00 in0.0 mm 0.77 in19.6 mm
05:48 AM 35.9°F2.2°C 35.4°F1.9°C 98% 3.0 mph NW4.8 kmh NW 4.0 mph6.4 kmh 29.57 in1001.4 mb 0.08 in2.0 mm 0.00 in0.0 mm 0.77 in19.6 mm
05:49 AM 35.9°F2.2°C 35.4°F1.9°C 98% 1.0 mph NE1.6 kmh NE 4.0 mph6.4 kmh 29.57 in1001.4 mb 0.09 in2.3 mm 0.60 in15.2 mm 0.78 in19.8 mm
05:50 AM 35.9°F2.2°C 35.4°F1.9°C 98% 1.0 mph NW1.6 kmh NW 4.0 mph6.4 kmh 29.57 in1001.4 mb 0.09 in2.3 mm 0.00 in0.0 mm 0.78 in19.8 mm
05:51 AM 35.9°F2.2°C 35.4°F1.9°C 98% 1.0 mph 1.6 kmh 4.0 mph6.4 kmh 29.57 in1001.4 mb 0.09 in2.3 mm 0.00 in0.0 mm 0.78 in19.8 mm
05:52 AM 35.9°F2.2°C 35.4°F1.9°C 98% 3.0 mph NW4.8 kmh NW 4.0 mph6.4 kmh 29.57 in1001.4 mb 0.10 in2.5 mm 0.60 in15.2 mm 0.79 in20.1 mm
05:53 AM 35.9°F2.2°C 35.4°F1.9°C 98% Calm Calm 4.0 mph6.4 kmh 29.57 in1001.4 mb 0.10 in2.5 mm 0.00 in0.0 mm 0.79 in20.1 mm
05:54 AM 35.9°F2.2°C 35.4°F1.9°C 98% 1.0 mph NNE1.6 kmh NNE 4.0 mph6.4 kmh 29.57 in1001.4 mb 0.10 in2.5 mm 0.00 in0.0 mm 0.79 in20.1 mm
05:55 AM 35.9°F2.2°C 35.4°F1.9°C 98% 3.0 mph NNE4.8 kmh NNE 4.0 mph6.4 kmh 29.57 in1001.4 mb 0.11 in2.8 mm 0.60 in15.2 mm 0.80 in20.3 mm
05:56 AM 35.9°F2.2°C 35.4°F1.9°C 98% 2.0 mph NNE3.2 kmh NNE 4.0 mph6.4 kmh 29.57 in1001.4 mb 0.11 in2.8 mm 0.00 in0.0 mm 0.80 in20.3 mm
05:57 AM 35.9°F2.2°C 35.4°F1.9°C 98% Calm Calm 4.0 mph6.4 kmh 29.57 in1001.4 mb 0.11 in2.8 mm 0.00 in0.0 mm 0.80 in20.3 mm
05:58 AM 35.9°F2.2°C 35.4°F1.9°C 98% Calm Calm 4.0 mph6.4 kmh 29.57 in1001.4 mb 0.12 in3.0 mm 0.60 in15.2 mm 0.81 in20.6 mm
05:59 AM 35.9°F2.2°C 35.4°F1.9°C 98% 3.0 mph NNE4.8 kmh NNE 4.0 mph6.4 kmh 29.57 in1001.4 mb 0.12 in3.0 mm 0.00 in0.0 mm 0.81 in20.6 mm
06:00 AM 35.9°F2.2°C 35.4°F1.9°C 98% 5.0 mph NNW8.0 kmh NNW 5.0 mph8.0 kmh 29.57 in1001.4 mb 0.13 in3.3 mm 0.01 in0.3 mm 0.82 in20.8 mm
06:01 AM 35.9°F2.2°C 35.4°F1.9°C 98% 2.0 mph 3.2 kmh 5.0 mph8.0 kmh 29.57 in1001.4 mb 0.13 in3.3 mm 0.00 in0.0 mm 0.82 in20.8 mm
06:02 AM 35.9°F2.2°C 35.4°F1.9°C 98% 4.0 mph 6.4 kmh 5.0 mph8.0 kmh 29.57 in1001.4 mb 0.13 in3.3 mm 0.00 in0.0 mm 0.82 in20.8 mm
06:03 AM 35.9°F2.2°C 35.4°F1.9°C 98% 2.0 mph 3.2 kmh 5.0 mph8.0 kmh 29.57 in1001.4 mb 0.14 in3.6 mm 0.60 in15.2 mm 0.83 in21.1 mm
06:04 AM 35.9°F2.2°C 35.4°F1.9°C 98% 2.0 mph NNE3.2 kmh NNE 5.0 mph8.0 kmh 29.56 in1001.0 mb 0.14 in3.6 mm 0.00 in0.0 mm 0.83 in21.1 mm
06:05 AM 35.9°F2.2°C 35.4°F1.9°C 98% 3.0 mph 4.8 kmh 5.0 mph8.0 kmh 29.56 in1001.0 mb 0.15 in3.8 mm 0.60 in15.2 mm 0.84 in21.3 mm
06:06 AM 35.9°F2.2°C 35.4°F1.9°C 98% 1.0 mph NNE1.6 kmh NNE 5.0 mph8.0 kmh 29.56 in1001.0 mb 0.00 in0.0 mm 0.00 in0.0 mm 0.84 in21.3 mm
06:07 AM 35.9°F2.2°C 35.4°F1.9°C 98% 5.0 mph NE8.0 kmh NE 5.0 mph8.0 kmh 29.56 in1001.0 mb 0.01 in0.3 mm 0.60 in15.2 mm 0.85 in21.6 mm
06:08 AM 35.9°F2.2°C 35.4°F1.9°C 98% 1.0 mph 1.6 kmh 5.0 mph8.0 kmh 29.56 in1001.0 mb 0.01 in0.3 mm 0.00 in0.0 mm 0.85 in21.6 mm
06:09 AM 35.9°F2.2°C 35.4°F1.9°C 98% 2.0 mph NNW3.2 kmh NNW 5.0 mph8.0 kmh 29.56 in1001.0 mb 0.02 in0.5 mm 0.60 in15.2 mm 0.86 in21.8 mm
06:10 AM 35.9°F2.2°C 35.4°F1.9°C 98% Calm Calm 5.0 mph8.0 kmh 29.56 in1001.0 mb 0.02 in0.5 mm 0.00 in0.0 mm 0.86 in21.8 mm
06:11 AM 35.9°F2.2°C 35.4°F1.9°C 98% 2.0 mph NW3.2 kmh NW 5.0 mph8.0 kmh 29.56 in1001.0 mb 0.03 in0.8 mm 0.60 in15.2 mm 0.87 in22.1 mm
06:12 AM 35.9°F2.2°C 35.4°F1.9°C 98% 3.0 mph NW4.8 kmh NW 5.0 mph8.0 kmh 29.56 in1001.0 mb 0.03 in0.8 mm 0.00 in0.0 mm 0.87 in22.1 mm
06:13 AM 35.9°F2.2°C 35.4°F1.9°C 98% 5.0 mph E8.0 kmh E 5.0 mph8.0 kmh 29.56 in1001.0 mb 0.03 in0.8 mm 0.00 in0.0 mm 0.87 in22.1 mm
06:14 AM 35.9°F2.2°C 35.4°F1.9°C 98% 2.0 mph NNE3.2 kmh NNE 5.0 mph8.0 kmh 29.56 in1001.0 mb 0.04 in1.0 mm 0.60 in15.2 mm 0.88 in22.4 mm
06:15 AM 35.9°F2.2°C 35.4°F1.9°C 98% 2.0 mph NE3.2 kmh NE 5.0 mph8.0 kmh 29.56 in1001.0 mb 0.05 in1.3 mm 0.60 in15.2 mm 0.89 in22.6 mm
06:16 AM 35.9°F2.2°C 35.4°F1.9°C 98% 2.0 mph NW3.2 kmh NW 5.0 mph8.0 kmh 29.56 in1001.0 mb 0.06 in1.5 mm 0.60 in15.2 mm 0.90 in22.9 mm
06:17 AM 35.9°F2.2°C 35.4°F1.9°C 98% Calm Calm 5.0 mph8.0 kmh 29.56 in1001.0 mb 0.06 in1.5 mm 0.00 in0.0 mm 0.90 in22.9 mm
06:18 AM 35.9°F2.2°C 35.4°F1.9°C 98% 3.0 mph WNW4.8 kmh WNW 5.0 mph8.0 kmh 29.56 in1001.0 mb 0.07 in1.8 mm 0.60 in15.2 mm 0.91 in23.1 mm
06:19 AM 35.9°F2.2°C 35.4°F1.9°C 98% 2.0 mph WNW3.2 kmh WNW 5.0 mph8.0 kmh 29.56 in1001.0 mb 0.07 in1.8 mm 0.00 in0.0 mm 0.91 in23.1 mm
06:20 AM 35.7°F2.1°C 35.2°F1.8°C 98% 3.0 mph NNW4.8 kmh NNW 5.0 mph8.0 kmh 29.56 in1001.0 mb 0.08 in2.0 mm 0.60 in15.2 mm 0.92 in23.4 mm
06:21 AM 35.7°F2.1°C 35.2°F1.8°C 98% 2.0 mph NW3.2 kmh NW 5.0 mph8.0 kmh 29.56 in1001.0 mb 0.09 in2.3 mm 0.60 in15.2 mm 0.93 in23.6 mm
06:22 AM 35.7°F2.1°C 35.2°F1.8°C 98% 1.0 mph 1.6 kmh 5.0 mph8.0 kmh 29.55 in1000.7 mb 0.09 in2.3 mm 0.00 in0.0 mm 0.93 in23.6 mm
06:23 AM 35.7°F2.1°C 35.2°F1.8°C 98% 2.0 mph NNW3.2 kmh NNW 5.0 mph8.0 kmh 29.55 in1000.7 mb 0.10 in2.5 mm 0.60 in15.2 mm 0.94 in23.9 mm
06:24 AM 35.7°F2.1°C 35.2°F1.8°C 98% 2.0 mph NNW3.2 kmh NNW 5.0 mph8.0 kmh 29.55 in1000.7 mb 0.10 in2.5 mm 0.00 in0.0 mm 0.94 in23.9 mm
06:25 AM 35.7°F2.1°C 35.2°F1.8°C 98% 5.0 mph NNE8.0 kmh NNE 5.0 mph8.0 kmh 29.55 in1000.7 mb 0.11 in2.8 mm 0.60 in15.2 mm 0.95 in24.1 mm
06:26 AM 35.7°F2.1°C 35.2°F1.8°C 98% 2.0 mph NNE3.2 kmh NNE 5.0 mph8.0 kmh 29.55 in1000.7 mb 0.11 in2.8 mm 0.00 in0.0 mm 0.95 in24.1 mm
06:27 AM 35.7°F2.1°C 35.2°F1.8°C 98% Calm Calm 5.0 mph8.0 kmh 29.55 in1000.7 mb 0.12 in3.0 mm 0.60 in15.2 mm 0.96 in24.4 mm
06:28 AM 35.7°F2.1°C 35.2°F1.8°C 98% 2.0 mph NNE3.2 kmh NNE 5.0 mph8.0 kmh 29.55 in1000.7 mb 0.13 in3.3 mm 0.60 in15.2 mm 0.97 in24.6 mm
06:29 AM 35.7°F2.1°C 35.2°F1.8°C 98% 4.0 mph NNW6.4 kmh NNW 5.0 mph8.0 kmh 29.55 in1000.7 mb 0.13 in3.3 mm 0.00 in0.0 mm 0.97 in24.6 mm
06:30 AM 35.7°F2.1°C 35.2°F1.8°C 98% 4.0 mph NNE6.4 kmh NNE 5.0 mph8.0 kmh 29.55 in1000.7 mb 0.14 in3.6 mm 0.60 in15.2 mm 0.98 in24.9 mm
06:31 AM 35.5°F1.9°C 35.0°F1.7°C 98% 2.0 mph NW3.2 kmh NW 5.0 mph8.0 kmh 29.55 in1000.7 mb 0.14 in3.6 mm 0.00 in0.0 mm 0.98 in24.9 mm
06:32 AM 35.5°F1.9°C 35.0°F1.7°C 98% 3.0 mph NNE4.8 kmh NNE 5.0 mph8.0 kmh 29.55 in1000.7 mb 0.15 in3.8 mm 0.60 in15.2 mm 0.99 in25.1 mm
06:33 AM 35.5°F1.9°C 35.0°F1.7°C 98% 2.0 mph NNE3.2 kmh NNE 5.0 mph8.0 kmh 29.55 in1000.7 mb 0.15 in3.8 mm 0.00 in0.0 mm 0.99 in25.1 mm
06:34 AM 35.5°F1.9°C 35.0°F1.7°C 98% 3.0 mph NNE4.8 kmh NNE 5.0 mph8.0 kmh 29.55 in1000.7 mb 0.15 in3.8 mm 0.00 in0.0 mm 0.99 in25.1 mm
06:35 AM 35.5°F1.9°C 35.0°F1.7°C 98% 4.0 mph 6.4 kmh 5.0 mph8.0 kmh 29.55 in1000.7 mb 0.16 in4.1 mm 0.60 in15.2 mm 1.00 in25.4 mm
06:36 AM 35.5°F1.9°C 35.0°F1.7°C 98% 3.0 mph NNE4.8 kmh NNE 5.0 mph8.0 kmh 29.55 in1000.7 mb 0.16 in4.1 mm 0.00 in0.0 mm 1.00 in25.4 mm
06:37 AM 35.5°F1.9°C 35.0°F1.7°C 98% 4.0 mph NNE6.4 kmh NNE 5.0 mph8.0 kmh 29.55 in1000.7 mb 0.16 in4.1 mm 0.00 in0.0 mm 1.00 in25.4 mm
06:38 AM 35.5°F1.9°C 35.0°F1.7°C 98% 2.0 mph NW3.2 kmh NW 5.0 mph8.0 kmh 29.54 in1000.3 mb 0.17 in4.3 mm 0.60 in15.2 mm 1.01 in25.7 mm
06:39 AM 35.4°F1.9°C 34.9°F1.6°C 98% 3.0 mph 4.8 kmh 5.0 mph8.0 kmh 29.54 in1000.3 mb 0.17 in4.3 mm 0.00 in0.0 mm 1.01 in25.7 mm
06:40 AM 35.4°F1.9°C 34.9°F1.6°C 98% 5.0 mph 8.0 kmh 5.0 mph8.0 kmh 29.54 in1000.3 mb 0.17 in4.3 mm 0.00 in0.0 mm 1.01 in25.7 mm
06:41 AM 35.4°F1.9°C 34.9°F1.6°C 98% 3.0 mph NNE4.8 kmh NNE 5.0 mph8.0 kmh 29.54 in1000.3 mb 0.18 in4.6 mm 0.60 in15.2 mm 1.02 in25.9 mm
06:42 AM 35.4°F1.9°C 34.9°F1.6°C 98% 3.0 mph NNE4.8 kmh NNE 5.0 mph8.0 kmh 29.54 in1000.3 mb 0.18 in4.6 mm 0.00 in0.0 mm 1.02 in25.9 mm
06:43 AM 35.4°F1.9°C 34.9°F1.6°C 98% Calm Calm 5.0 mph8.0 kmh 29.54 in1000.3 mb 0.18 in4.6 mm 0.00 in0.0 mm 1.02 in25.9 mm
06:44 AM 35.4°F1.9°C 34.9°F1.6°C 98% Calm Calm 5.0 mph8.0 kmh 29.54 in1000.3 mb 0.18 in4.6 mm 0.00 in0.0 mm 1.02 in25.9 mm
06:45 AM 35.4°F1.9°C 34.9°F1.6°C 98% 3.0 mph NNW4.8 kmh NNW 5.0 mph8.0 kmh 29.54 in1000.3 mb 0.19 in4.8 mm 0.60 in15.2 mm 1.03 in26.2 mm
06:46 AM 35.4°F1.9°C 34.9°F1.6°C 98% 2.0 mph NNE3.2 kmh NNE 5.0 mph8.0 kmh 29.54 in1000.3 mb 0.19 in4.8 mm 0.00 in0.0 mm 1.03 in26.2 mm
06:47 AM 35.4°F1.9°C 34.9°F1.6°C 98% 2.0 mph 3.2 kmh 5.0 mph8.0 kmh 29.54 in1000.3 mb 0.19 in4.8 mm 0.00 in0.0 mm 1.03 in26.2 mm
06:48 AM 35.4°F1.9°C 34.9°F1.6°C 98% 2.0 mph W3.2 kmh W 5.0 mph8.0 kmh 29.54 in1000.3 mb 0.19 in4.8 mm 0.00 in0.0 mm 1.03 in26.2 mm
06:49 AM 35.4°F1.9°C 34.9°F1.6°C 98% 4.0 mph 6.4 kmh 5.0 mph8.0 kmh 29.54 in1000.3 mb 0.20 in5.1 mm 0.60 in15.2 mm 1.04 in26.4 mm
06:50 AM 35.1°F1.7°C 34.6°F1.4°C 98% 4.0 mph NNE6.4 kmh NNE 5.0 mph8.0 kmh 29.54 in1000.3 mb 0.20 in5.1 mm 0.00 in0.0 mm 1.04 in26.4 mm
06:51 AM 35.1°F1.7°C 34.6°F1.4°C 98% 3.0 mph NNE4.8 kmh NNE 5.0 mph8.0 kmh 29.54 in1000.3 mb 0.21 in5.3 mm 0.60 in15.2 mm 1.05 in26.7 mm
06:52 AM 35.1°F1.7°C 34.6°F1.4°C 98% 4.0 mph 6.4 kmh 5.0 mph8.0 kmh 29.54 in1000.3 mb 0.21 in5.3 mm 0.00 in0.0 mm 1.05 in26.7 mm
06:53 AM 35.1°F1.7°C 34.6°F1.4°C 98% 7.0 mph NNE11.3 kmh NNE 7.0 mph11.3 kmh 29.54 in1000.3 mb 0.22 in5.6 mm 0.60 in15.2 mm 1.06 in26.9 mm
06:54 AM 35.1°F1.7°C 34.6°F1.4°C 98% 6.0 mph 9.7 kmh 7.0 mph11.3 kmh 29.53 in1000.0 mb 0.22 in5.6 mm 0.00 in0.0 mm 1.06 in26.9 mm
06:55 AM 35.1°F1.7°C 34.6°F1.4°C 98% 4.0 mph 6.4 kmh 7.0 mph11.3 kmh 29.53 in1000.0 mb 0.23 in5.8 mm 0.60 in15.2 mm 1.07 in27.2 mm
06:56 AM 35.1°F1.7°C 34.6°F1.4°C 98% 4.0 mph NE6.4 kmh NE 7.0 mph11.3 kmh 29.53 in1000.0 mb 0.23 in5.8 mm 0.00 in0.0 mm 1.07 in27.2 mm
06:57 AM 35.1°F1.7°C 34.6°F1.4°C 98% 2.0 mph NNE3.2 kmh NNE 7.0 mph11.3 kmh 29.53 in1000.0 mb 0.23 in5.8 mm 0.00 in0.0 mm 1.07 in27.2 mm
06:58 AM 35.0°F1.7°C 34.5°F1.4°C 98% 2.0 mph 3.2 kmh 7.0 mph11.3 kmh 29.53 in1000.0 mb 0.23 in5.8 mm 0.00 in0.0 mm 1.07 in27.2 mm
06:59 AM 35.0°F1.7°C 34.5°F1.4°C 98% 1.0 mph NNW1.6 kmh NNW 7.0 mph11.3 kmh 29.53 in1000.0 mb 0.24 in6.1 mm 0.60 in15.2 mm 1.08 in27.4 mm
07:00 AM 35.0°F1.7°C 34.5°F1.4°C 98% 5.0 mph NNW8.0 kmh NNW 7.0 mph11.3 kmh 29.52 in999.7 mb 0.24 in6.1 mm 0.00 in0.0 mm 1.08 in27.4 mm
07:01 AM 35.0°F1.7°C 34.5°F1.4°C 98% 3.0 mph NNW4.8 kmh NNW 7.0 mph11.3 kmh 29.52 in999.7 mb 0.25 in6.4 mm 0.60 in15.2 mm 1.09 in27.7 mm
07:02 AM 35.0°F1.7°C 34.5°F1.4°C 98% 4.0 mph NNW6.4 kmh NNW 7.0 mph11.3 kmh 29.53 in1000.0 mb 0.25 in6.4 mm 0.00 in0.0 mm 1.09 in27.7 mm
07:03 AM 35.0°F1.7°C 34.5°F1.4°C 98% 4.0 mph 6.4 kmh 7.0 mph11.3 kmh 29.52 in999.7 mb 0.25 in6.4 mm 0.00 in0.0 mm 1.09 in27.7 mm
07:04 AM 35.0°F1.7°C 34.5°F1.4°C 98% 5.0 mph WNW8.0 kmh WNW 6.0 mph9.7 kmh 29.52 in999.7 mb 0.25 in6.4 mm 0.00 in0.0 mm 1.09 in27.7 mm
07:05 AM 35.0°F1.7°C 34.5°F1.4°C 98% 4.0 mph 6.4 kmh 6.0 mph9.7 kmh 29.53 in1000.0 mb 0.26 in6.6 mm 0.60 in15.2 mm 1.10 in27.9 mm
07:06 AM 35.0°F1.7°C 34.5°F1.4°C 98% 5.0 mph NNE8.0 kmh NNE 6.0 mph9.7 kmh 29.53 in1000.0 mb 0.00 in0.0 mm 0.00 in0.0 mm 1.10 in27.9 mm
07:07 AM 35.0°F1.7°C 34.5°F1.4°C 98% 6.0 mph NNW9.7 kmh NNW 6.0 mph9.7 kmh 29.52 in999.7 mb 0.00 in0.0 mm 0.00 in0.0 mm 1.10 in27.9 mm
07:08 AM 35.0°F1.7°C 34.5°F1.4°C 98% 6.0 mph NNE9.7 kmh NNE 6.0 mph9.7 kmh 29.52 in999.7 mb 0.00 in0.0 mm 0.00 in0.0 mm 1.10 in27.9 mm
07:09 AM 35.0°F1.7°C 34.5°F1.4°C 98% 5.0 mph 8.0 kmh 6.0 mph9.7 kmh 29.52 in999.7 mb 0.01 in0.3 mm 0.60 in15.2 mm 1.11 in28.2 mm
07:10 AM 35.0°F1.7°C 34.5°F1.4°C 98% 3.0 mph NNE4.8 kmh NNE 6.0 mph9.7 kmh 29.52 in999.7 mb 0.01 in0.3 mm 0.00 in0.0 mm 1.11 in28.2 mm
07:11 AM 35.0°F1.7°C 34.5°F1.4°C 98% 5.0 mph NE8.0 kmh NE 6.0 mph9.7 kmh 29.52 in999.7 mb 0.01 in0.3 mm 0.00 in0.0 mm 1.11 in28.2 mm
07:12 AM 35.0°F1.7°C 34.5°F1.4°C 98% 5.0 mph NNW8.0 kmh NNW 6.0 mph9.7 kmh 29.51 in999.3 mb 0.02 in0.5 mm 0.60 in15.2 mm 1.12 in28.4 mm
07:13 AM 34.9°F1.6°C 34.4°F1.3°C 98% 4.0 mph NNW6.4 kmh NNW 10.0 mph16.1 kmh 29.51 in999.3 mb 0.02 in0.5 mm 0.00 in0.0 mm 1.12 in28.4 mm
07:14 AM 34.9°F1.6°C 34.4°F1.3°C 98% 8.0 mph NE12.9 kmh NE 10.0 mph16.1 kmh 29.51 in999.3 mb 0.03 in0.8 mm 0.60 in15.2 mm 1.13 in28.7 mm
07:15 AM 34.9°F1.6°C 34.4°F1.3°C 98% 4.0 mph NNW6.4 kmh NNW 10.0 mph16.1 kmh 29.51 in999.3 mb 0.03 in0.8 mm 0.00 in0.0 mm 1.13 in28.7 mm
07:16 AM 34.9°F1.6°C 34.4°F1.3°C 98% 3.0 mph 4.8 kmh 10.0 mph16.1 kmh 29.50 in999.0 mb 0.03 in0.8 mm 0.00 in0.0 mm 1.13 in28.7 mm
07:17 AM 34.9°F1.6°C 34.4°F1.3°C 98% 4.0 mph NE6.4 kmh NE 10.0 mph16.1 kmh 29.50 in999.0 mb 0.04 in1.0 mm 0.60 in15.2 mm 1.14 in29.0 mm
07:18 AM 34.9°F1.6°C 34.4°F1.3°C 98% 4.0 mph NE6.4 kmh NE 10.0 mph16.1 kmh 29.50 in999.0 mb 0.04 in1.0 mm 0.00 in0.0 mm 1.14 in29.0 mm
07:19 AM 34.9°F1.6°C 34.4°F1.3°C 98% 4.0 mph NNW6.4 kmh NNW 10.0 mph16.1 kmh 29.50 in999.0 mb 0.05 in1.3 mm 0.60 in15.2 mm 1.15 in29.2 mm
07:20 AM 34.9°F1.6°C 34.4°F1.3°C 98% 2.0 mph NNW3.2 kmh NNW 10.0 mph16.1 kmh 29.50 in999.0 mb 0.05 in1.3 mm 0.00 in0.0 mm 1.15 in29.2 mm
07:21 AM 34.9°F1.6°C 34.4°F1.3°C 98% 2.0 mph NNE3.2 kmh NNE 10.0 mph16.1 kmh 29.50 in999.0 mb 0.06 in1.5 mm 0.60 in15.2 mm 1.16 in29.5 mm
07:22 AM 34.9°F1.6°C 34.4°F1.3°C 98% 3.0 mph NW4.8 kmh NW 10.0 mph16.1 kmh 29.49 in998.6 mb 0.06 in1.5 mm 0.00 in0.0 mm 1.16 in29.5 mm
07:23 AM 34.9°F1.6°C 34.4°F1.3°C 98% 8.0 mph WNW12.9 kmh WNW 8.0 mph12.9 kmh 29.49 in998.6 mb 0.06 in1.5 mm 0.00 in0.0 mm 1.16 in29.5 mm
07:24 AM 34.9°F1.6°C 34.4°F1.3°C 98% 5.0 mph NNE8.0 kmh NNE 8.0 mph12.9 kmh 29.49 in998.6 mb 0.07 in1.8 mm 0.60 in15.2 mm 1.17 in29.7 mm
07:25 AM 34.9°F1.6°C 34.4°F1.3°C 98% 4.0 mph NNE6.4 kmh NNE 8.0 mph12.9 kmh 29.49 in998.6 mb 0.07 in1.8 mm 0.00 in0.0 mm 1.17 in29.7 mm
07:26 AM 34.9°F1.6°C 34.4°F1.3°C 98% 3.0 mph NE4.8 kmh NE 8.0 mph12.9 kmh 29.49 in998.6 mb 0.07 in1.8 mm 0.00 in0.0 mm 1.17 in29.7 mm
07:27 AM 34.9°F1.6°C 34.4°F1.3°C 98% 4.0 mph 6.4 kmh 8.0 mph12.9 kmh 29.49 in998.6 mb 0.07 in1.8 mm 0.00 in0.0 mm 1.17 in29.7 mm
07:28 AM 34.9°F1.6°C 34.4°F1.3°C 98% 2.0 mph 3.2 kmh 8.0 mph12.9 kmh 29.49 in998.6 mb 0.08 in2.0 mm 0.60 in15.2 mm 1.18 in30.0 mm
07:29 AM 34.9°F1.6°C 34.4°F1.3°C 98% 2.0 mph NW3.2 kmh NW 8.0 mph12.9 kmh 29.49 in998.6 mb 0.08 in2.0 mm 0.00 in0.0 mm 1.18 in30.0 mm
07:30 AM 34.9°F1.6°C 34.4°F1.3°C 98% 4.0 mph NE6.4 kmh NE 8.0 mph12.9 kmh 29.48 in998.3 mb 0.08 in2.0 mm 0.00 in0.0 mm 1.18 in30.0 mm
07:31 AM 34.9°F1.6°C 34.4°F1.3°C 98% 6.0 mph NE9.7 kmh NE 8.0 mph12.9 kmh 29.48 in998.3 mb 0.08 in2.0 mm 0.00 in0.0 mm 1.18 in30.0 mm
07:32 AM 34.9°F1.6°C 34.4°F1.3°C 98% 3.0 mph NNE4.8 kmh NNE 8.0 mph12.9 kmh 29.46 in997.6 mb 0.08 in2.0 mm 0.00 in0.0 mm 1.18 in30.0 mm
07:33 AM 34.9°F1.6°C 34.4°F1.3°C 98% 2.0 mph W3.2 kmh W 6.0 mph9.7 kmh 29.47 in998.0 mb 0.08 in2.0 mm 0.00 in0.0 mm 1.18 in30.0 mm
07:34 AM 34.9°F1.6°C 34.4°F1.3°C 98% 3.0 mph NNE4.8 kmh NNE 6.0 mph9.7 kmh 29.48 in998.3 mb 0.09 in2.3 mm 0.60 in15.2 mm 1.19 in30.2 mm
07:35 AM 34.9°F1.6°C 34.4°F1.3°C 98% 2.0 mph NNE3.2 kmh NNE 6.0 mph9.7 kmh 29.48 in998.3 mb 0.09 in2.3 mm 0.00 in0.0 mm 1.19 in30.2 mm
07:36 AM 34.9°F1.6°C 34.4°F1.3°C 98% 3.0 mph NNE4.8 kmh NNE 6.0 mph9.7 kmh 29.49 in998.6 mb 0.09 in2.3 mm 0.00 in0.0 mm 1.19 in30.2 mm
07:37 AM 34.9°F1.6°C 34.4°F1.3°C 98% 3.0 mph NNE4.8 kmh NNE 6.0 mph9.7 kmh 29.49 in998.6 mb 0.09 in2.3 mm 0.00 in0.0 mm 1.19 in30.2 mm
07:38 AM 34.9°F1.6°C 34.4°F1.3°C 98% 1.0 mph ENE1.6 kmh ENE 6.0 mph9.7 kmh 29.48 in998.3 mb 0.09 in2.3 mm 0.00 in0.0 mm 1.19 in30.2 mm
07:39 AM 34.9°F1.6°C 34.4°F1.3°C 98% 2.0 mph NNE3.2 kmh NNE 6.0 mph9.7 kmh 29.48 in998.3 mb 0.09 in2.3 mm 0.00 in0.0 mm 1.19 in30.2 mm
07:40 AM 34.9°F1.6°C 34.4°F1.3°C 98% 5.0 mph NE8.0 kmh NE 6.0 mph9.7 kmh 29.49 in998.6 mb 0.09 in2.3 mm 0.00 in0.0 mm 1.19 in30.2 mm
07:41 AM 34.9°F1.6°C 34.4°F1.3°C 98% 2.0 mph NNE3.2 kmh NNE 6.0 mph9.7 kmh 29.49 in998.6 mb 0.09 in2.3 mm 0.00 in0.0 mm 1.19 in30.2 mm
07:42 AM 34.9°F1.6°C 34.4°F1.3°C 98% 2.0 mph 3.2 kmh 6.0 mph9.7 kmh 29.48 in998.3 mb 0.09 in2.3 mm 0.00 in0.0 mm 1.19 in30.2 mm
07:43 AM 34.9°F1.6°C 34.4°F1.3°C 98% 2.0 mph NNE3.2 kmh NNE 6.0 mph9.7 kmh 29.48 in998.3 mb 0.09 in2.3 mm 0.00 in0.0 mm 1.19 in30.2 mm
07:44 AM 34.9°F1.6°C 34.4°F1.3°C 98% 2.0 mph NE3.2 kmh NE 6.0 mph9.7 kmh 29.48 in998.3 mb 0.09 in2.3 mm 0.00 in0.0 mm 1.19 in30.2 mm
07:45 AM 34.9°F1.6°C 34.4°F1.3°C 98% 4.0 mph NNE6.4 kmh NNE 5.0 mph8.0 kmh 29.48 in998.3 mb 0.09 in2.3 mm 0.00 in0.0 mm 1.19 in30.2 mm
07:46 AM 34.9°F1.6°C 34.4°F1.3°C 98% 6.0 mph 9.7 kmh 6.0 mph9.7 kmh 29.48 in998.3 mb 0.09 in2.3 mm 0.00 in0.0 mm 1.19 in30.2 mm
07:47 AM 34.9°F1.6°C 34.4°F1.3°C 98% 3.0 mph WNW4.8 kmh WNW 6.0 mph9.7 kmh 29.48 in998.3 mb 0.09 in2.3 mm 0.00 in0.0 mm 1.19 in30.2 mm
07:48 AM 34.9°F1.6°C 34.4°F1.3°C 98% 4.0 mph NNE6.4 kmh NNE 6.0 mph9.7 kmh 29.48 in998.3 mb 0.09 in2.3 mm 0.00 in0.0 mm 1.19 in30.2 mm
07:49 AM 34.9°F1.6°C 34.4°F1.3°C 98% 4.0 mph 6.4 kmh 6.0 mph9.7 kmh 29.48 in998.3 mb 0.09 in2.3 mm 0.00 in0.0 mm 1.19 in30.2 mm
07:50 AM 34.9°F1.6°C 34.4°F1.3°C 98% 8.0 mph NNW12.9 kmh NNW 8.0 mph12.9 kmh 29.47 in998.0 mb 0.10 in2.5 mm 0.60 in15.2 mm 1.20 in30.5 mm
07:51 AM 34.9°F1.6°C 34.4°F1.3°C 98% 5.0 mph NE8.0 kmh NE 8.0 mph12.9 kmh 29.48 in998.3 mb 0.10 in2.5 mm 0.00 in0.0 mm 1.20 in30.5 mm
07:52 AM 34.9°F1.6°C 34.4°F1.3°C 98% 4.0 mph 6.4 kmh 8.0 mph12.9 kmh 29.47 in998.0 mb 0.10 in2.5 mm 0.00 in0.0 mm 1.20 in30.5 mm
07:53 AM 34.9°F1.6°C 34.4°F1.3°C 98% 5.0 mph 8.0 kmh 8.0 mph12.9 kmh 29.47 in998.0 mb 0.10 in2.5 mm 0.00 in0.0 mm 1.20 in30.5 mm
07:54 AM 34.9°F1.6°C 34.4°F1.3°C 98% 6.0 mph 9.7 kmh 8.0 mph12.9 kmh 29.47 in998.0 mb 0.10 in2.5 mm 0.00 in0.0 mm 1.20 in30.5 mm
07:55 AM 35.0°F1.7°C 34.5°F1.4°C 98% 1.0 mph NNE1.6 kmh NNE 8.0 mph12.9 kmh 29.47 in998.0 mb 0.11 in2.8 mm 0.60 in15.2 mm 1.21 in30.7 mm
07:56 AM 35.0°F1.7°C 34.5°F1.4°C 98% 2.0 mph NE3.2 kmh NE 8.0 mph12.9 kmh 29.47 in998.0 mb 0.11 in2.8 mm 0.00 in0.0 mm 1.21 in30.7 mm
07:57 AM 35.0°F1.7°C 34.5°F1.4°C 98% 5.0 mph NW8.0 kmh NW 8.0 mph12.9 kmh 29.47 in998.0 mb 0.12 in3.0 mm 0.60 in15.2 mm 1.22 in31.0 mm
07:58 AM 35.0°F1.7°C 34.5°F1.4°C 98% 3.0 mph NNW4.8 kmh NNW 8.0 mph12.9 kmh 29.48 in998.3 mb 0.13 in3.3 mm 0.60 in15.2 mm 1.23 in31.2 mm
07:59 AM 35.0°F1.7°C 34.5°F1.4°C 98% 2.0 mph 3.2 kmh 8.0 mph12.9 kmh 29.47 in998.0 mb 0.14 in3.6 mm 0.60 in15.2 mm 1.24 in31.5 mm
08:00 AM 35.0°F1.7°C 34.5°F1.4°C 98% 1.0 mph E1.6 kmh E 6.0 mph9.7 kmh 29.48 in998.3 mb 0.15 in3.8 mm 0.01 in0.3 mm 1.25 in31.8 mm
08:01 AM 35.0°F1.7°C 34.5°F1.4°C 98% Calm Calm 6.0 mph9.7 kmh 29.48 in998.3 mb 0.17 in4.3 mm 1.20 in30.5 mm 1.27 in32.3 mm
08:02 AM 35.0°F1.7°C 34.5°F1.4°C 98% Calm Calm 6.0 mph9.7 kmh 29.47 in998.0 mb 0.18 in4.6 mm 0.60 in15.2 mm 1.28 in32.5 mm
08:03 AM 35.0°F1.7°C 34.5°F1.4°C 98% 2.0 mph NNE3.2 kmh NNE 6.0 mph9.7 kmh 29.47 in998.0 mb 0.19 in4.8 mm 0.60 in15.2 mm 1.29 in32.8 mm
08:04 AM 35.0°F1.7°C 34.5°F1.4°C 98% 2.0 mph NNE3.2 kmh NNE 6.0 mph9.7 kmh 29.47 in998.0 mb 0.19 in4.8 mm 0.00 in0.0 mm 1.29 in32.8 mm
08:05 AM 35.0°F1.7°C 34.5°F1.4°C 98% 2.0 mph NNE3.2 kmh NNE 5.0 mph8.0 kmh 29.47 in998.0 mb 0.20 in5.1 mm 0.60 in15.2 mm 1.30 in33.0 mm
08:06 AM 35.0°F1.7°C 34.5°F1.4°C 98% Calm Calm 5.0 mph8.0 kmh 29.47 in998.0 mb 0.00 in0.0 mm 0.00 in0.0 mm 1.31 in33.3 mm
08:07 AM 35.0°F1.7°C 34.5°F1.4°C 98% 2.0 mph NNE3.2 kmh NNE 5.0 mph8.0 kmh 29.47 in998.0 mb 0.01 in0.3 mm 0.60 in15.2 mm 1.32 in33.5 mm
08:08 AM 35.0°F1.7°C 34.5°F1.4°C 98% 1.0 mph ESE1.6 kmh ESE 5.0 mph8.0 kmh 29.46 in997.6 mb 0.01 in0.3 mm 0.00 in0.0 mm 1.32 in33.5 mm
08:09 AM 35.0°F1.7°C 34.5°F1.4°C 98% 1.0 mph ESE1.6 kmh ESE 5.0 mph8.0 kmh 29.46 in997.6 mb 0.02 in0.5 mm 0.60 in15.2 mm 1.33 in33.8 mm
08:10 AM 35.0°F1.7°C 34.5°F1.4°C 98% 2.0 mph NNE3.2 kmh NNE 4.0 mph6.4 kmh 29.46 in997.6 mb 0.02 in0.5 mm 0.00 in0.0 mm 1.33 in33.8 mm
08:11 AM 35.0°F1.7°C 34.5°F1.4°C 98% Calm Calm 4.0 mph6.4 kmh 29.46 in997.6 mb 0.02 in0.5 mm 0.00 in0.0 mm 1.33 in33.8 mm
08:12 AM 35.0°F1.7°C 34.5°F1.4°C 98% 3.0 mph NNE4.8 kmh NNE 4.0 mph6.4 kmh 29.46 in997.6 mb 0.04 in1.0 mm 1.20 in30.5 mm 1.35 in34.3 mm
08:13 AM 35.0°F1.7°C 34.5°F1.4°C 98% 2.0 mph NNE3.2 kmh NNE 4.0 mph6.4 kmh 29.46 in997.6 mb 0.04 in1.0 mm 0.00 in0.0 mm 1.35 in34.3 mm
08:14 AM 35.0°F1.7°C 34.5°F1.4°C 98% 2.0 mph NNE3.2 kmh NNE 4.0 mph6.4 kmh 29.47 in998.0 mb 0.05 in1.3 mm 0.60 in15.2 mm 1.36 in34.5 mm
08:15 AM 35.0°F1.7°C 34.5°F1.4°C 98% 1.0 mph NNE1.6 kmh NNE 4.0 mph6.4 kmh 29.47 in998.0 mb 0.07 in1.8 mm 1.20 in30.5 mm 1.38 in35.1 mm
08:16 AM 35.0°F1.7°C 34.5°F1.4°C 98% 2.0 mph ENE3.2 kmh ENE 4.0 mph6.4 kmh 29.46 in997.6 mb 0.08 in2.0 mm 0.60 in15.2 mm 1.39 in35.3 mm
08:17 AM 35.0°F1.7°C 34.5°F1.4°C 98% 3.0 mph 4.8 kmh 4.0 mph6.4 kmh 29.46 in997.6 mb 0.09 in2.3 mm 0.60 in15.2 mm 1.40 in35.6 mm
08:18 AM 35.0°F1.7°C 34.5°F1.4°C 98% Calm Calm 4.0 mph6.4 kmh 29.47 in998.0 mb 0.09 in2.3 mm 0.00 in0.0 mm 1.40 in35.6 mm
08:19 AM 35.0°F1.7°C 34.5°F1.4°C 98% 3.0 mph NNE4.8 kmh NNE 4.0 mph6.4 kmh 29.47 in998.0 mb 0.10 in2.5 mm 0.60 in15.2 mm 1.41 in35.8 mm
08:20 AM 35.0°F1.7°C 34.5°F1.4°C 98% 2.0 mph 3.2 kmh 4.0 mph6.4 kmh 29.47 in998.0 mb 0.11 in2.8 mm 0.60 in15.2 mm 1.42 in36.1 mm
08:21 AM 35.0°F1.7°C 34.5°F1.4°C 98% 3.0 mph NNE4.8 kmh NNE 4.0 mph6.4 kmh 29.47 in998.0 mb 0.12 in3.0 mm 0.60 in15.2 mm 1.43 in36.3 mm
08:22 AM 35.0°F1.7°C 34.5°F1.4°C 98% 3.0 mph NNW4.8 kmh NNW 4.0 mph6.4 kmh 29.46 in997.6 mb 0.14 in3.6 mm 1.20 in30.5 mm 1.45 in36.8 mm
08:23 AM 35.0°F1.7°C 34.5°F1.4°C 98% 2.0 mph 3.2 kmh 4.0 mph6.4 kmh 29.46 in997.6 mb 0.15 in3.8 mm 0.60 in15.2 mm 1.46 in37.1 mm
08:24 AM 35.0°F1.7°C 34.5°F1.4°C 98% 3.0 mph ESE4.8 kmh ESE 4.0 mph6.4 kmh 29.46 in997.6 mb 0.16 in4.1 mm 0.60 in15.2 mm 1.47 in37.3 mm
08:25 AM 35.0°F1.7°C 34.5°F1.4°C 98% 4.0 mph 6.4 kmh 4.0 mph6.4 kmh 29.46 in997.6 mb 0.17 in4.3 mm 0.60 in15.2 mm 1.48 in37.6 mm
08:26 AM 35.0°F1.7°C 34.5°F1.4°C 98% 2.0 mph NW3.2 kmh NW 5.0 mph8.0 kmh 29.46 in997.6 mb 0.17 in4.3 mm 0.00 in0.0 mm 1.48 in37.6 mm
08:27 AM 35.0°F1.7°C 34.5°F1.4°C 98% 4.0 mph 6.4 kmh 5.0 mph8.0 kmh 29.45 in997.3 mb 0.18 in4.6 mm 0.60 in15.2 mm 1.49 in37.8 mm
08:28 AM 35.0°F1.7°C 34.5°F1.4°C 98% 4.0 mph NE6.4 kmh NE 5.0 mph8.0 kmh 29.45 in997.3 mb 0.19 in4.8 mm 0.60 in15.2 mm 1.50 in38.1 mm
08:29 AM 35.0°F1.7°C 34.5°F1.4°C 98% 4.0 mph NNE6.4 kmh NNE 5.0 mph8.0 kmh 29.45 in997.3 mb 0.19 in4.8 mm 0.00 in0.0 mm 1.50 in38.1 mm
08:30 AM 35.0°F1.7°C 34.5°F1.4°C 98% 2.0 mph NNE3.2 kmh NNE 5.0 mph8.0 kmh 29.44 in997.0 mb 0.20 in5.1 mm 0.60 in15.2 mm 1.51 in38.4 mm
08:31 AM 35.0°F1.7°C 34.5°F1.4°C 98% 4.0 mph 6.4 kmh 5.0 mph8.0 kmh 29.44 in997.0 mb 0.20 in5.1 mm 0.00 in0.0 mm 1.51 in38.4 mm
08:32 AM 35.0°F1.7°C 34.5°F1.4°C 98% 3.0 mph 4.8 kmh 5.0 mph8.0 kmh 29.45 in997.3 mb 0.21 in5.3 mm 0.60 in15.2 mm 1.52 in38.6 mm
08:33 AM 35.0°F1.7°C 34.5°F1.4°C 98% 5.0 mph 8.0 kmh 6.0 mph9.7 kmh 29.45 in997.3 mb 0.21 in5.3 mm 0.00 in0.0 mm 1.52 in38.6 mm
08:34 AM 35.0°F1.7°C 34.5°F1.4°C 98% 3.0 mph NW4.8 kmh NW 6.0 mph9.7 kmh 29.45 in997.3 mb 0.22 in5.6 mm 0.60 in15.2 mm 1.53 in38.9 mm
08:35 AM 35.0°F1.7°C 34.5°F1.4°C 98% 4.0 mph E6.4 kmh E 6.0 mph9.7 kmh 29.45 in997.3 mb 0.22 in5.6 mm 0.00 in0.0 mm 1.53 in38.9 mm
08:36 AM 35.0°F1.7°C 34.5°F1.4°C 98% 3.0 mph NNE4.8 kmh NNE 6.0 mph9.7 kmh 29.45 in997.3 mb 0.22 in5.6 mm 0.00 in0.0 mm 1.53 in38.9 mm
08:37 AM 35.0°F1.7°C 34.5°F1.4°C 98% 2.0 mph E3.2 kmh E 6.0 mph9.7 kmh 29.45 in997.3 mb 0.23 in5.8 mm 0.60 in15.2 mm 1.54 in39.1 mm
08:38 AM 35.0°F1.7°C 34.5°F1.4°C 98% Calm Calm 6.0 mph9.7 kmh 29.44 in997.0 mb 0.23 in5.8 mm 0.00 in0.0 mm 1.54 in39.1 mm
08:39 AM 35.0°F1.7°C 34.5°F1.4°C 98% 2.0 mph ENE3.2 kmh ENE 6.0 mph9.7 kmh 29.44 in997.0 mb 0.23 in5.8 mm 0.00 in0.0 mm 1.54 in39.1 mm
08:40 AM 35.0°F1.7°C 34.5°F1.4°C 98% 6.0 mph NNE9.7 kmh NNE 6.0 mph9.7 kmh 29.44 in997.0 mb 0.24 in6.1 mm 0.60 in15.2 mm 1.55 in39.4 mm
08:41 AM 35.0°F1.7°C 34.5°F1.4°C 98% 2.0 mph 3.2 kmh 6.0 mph9.7 kmh 29.44 in997.0 mb 0.24 in6.1 mm 0.00 in0.0 mm 1.55 in39.4 mm
08:42 AM 35.0°F1.7°C 34.5°F1.4°C 98% 3.0 mph NNW4.8 kmh NNW 6.0 mph9.7 kmh 29.44 in997.0 mb 0.24 in6.1 mm 0.00 in0.0 mm 1.55 in39.4 mm
08:43 AM 35.0°F1.7°C 34.5°F1.4°C 98% 1.0 mph NNE1.6 kmh NNE 6.0 mph9.7 kmh 29.44 in997.0 mb 0.24 in6.1 mm 0.00 in0.0 mm 1.55 in39.4 mm
08:44 AM 35.0°F1.7°C 34.5°F1.4°C 98% 2.0 mph NNE3.2 kmh NNE 6.0 mph9.7 kmh 29.44 in997.0 mb 0.24 in6.1 mm 0.00 in0.0 mm 1.55 in39.4 mm
08:45 AM 35.0°F1.7°C 34.5°F1.4°C 98% 2.0 mph NNW3.2 kmh NNW 6.0 mph9.7 kmh 29.44 in997.0 mb 0.25 in6.4 mm 0.60 in15.2 mm 1.56 in39.6 mm
08:46 AM 35.0°F1.7°C 34.5°F1.4°C 98% 3.0 mph NNW4.8 kmh NNW 6.0 mph9.7 kmh 29.44 in997.0 mb 0.25 in6.4 mm 0.00 in0.0 mm 1.56 in39.6 mm
08:47 AM 35.0°F1.7°C 34.5°F1.4°C 98% 3.0 mph NNE4.8 kmh NNE 6.0 mph9.7 kmh 29.44 in997.0 mb 0.25 in6.4 mm 0.00 in0.0 mm 1.56 in39.6 mm
08:48 AM 35.0°F1.7°C 34.5°F1.4°C 98% 4.0 mph 6.4 kmh 6.0 mph9.7 kmh 29.43 in996.6 mb 0.26 in6.6 mm 0.60 in15.2 mm 1.57 in39.9 mm
08:49 AM 35.0°F1.7°C 34.5°F1.4°C 98% 2.0 mph NNE3.2 kmh NNE 6.0 mph9.7 kmh 29.43 in996.6 mb 0.26 in6.6 mm 0.00 in0.0 mm 1.57 in39.9 mm
08:50 AM 35.1°F1.7°C 34.6°F1.4°C 98% Calm Calm 5.0 mph8.0 kmh 29.43 in996.6 mb 0.26 in6.6 mm 0.00 in0.0 mm 1.57 in39.9 mm
08:51 AM 35.1°F1.7°C 34.6°F1.4°C 98% 4.0 mph NW6.4 kmh NW 5.0 mph8.0 kmh 29.43 in996.6 mb 0.27 in6.9 mm 0.60 in15.2 mm 1.58 in40.1 mm
08:52 AM 35.1°F1.7°C 34.6°F1.4°C 98% 4.0 mph NNW6.4 kmh NNW 5.0 mph8.0 kmh 29.43 in996.6 mb 0.27 in6.9 mm 0.00 in0.0 mm 1.58 in40.1 mm
08:53 AM 35.1°F1.7°C 34.6°F1.4°C 98% 4.0 mph NNE6.4 kmh NNE 7.0 mph11.3 kmh 29.43 in996.6 mb 0.27 in6.9 mm 0.00 in0.0 mm 1.58 in40.1 mm
08:54 AM 35.1°F1.7°C 34.6°F1.4°C 98% 4.0 mph NNW6.4 kmh NNW 7.0 mph11.3 kmh 29.44 in997.0 mb 0.28 in7.1 mm 0.60 in15.2 mm 1.59 in40.4 mm
08:55 AM 35.1°F1.7°C 34.6°F1.4°C 98% 2.0 mph NNE3.2 kmh NNE 7.0 mph11.3 kmh 29.43 in996.6 mb 0.28 in7.1 mm 0.00 in0.0 mm 1.59 in40.4 mm
08:56 AM 35.1°F1.7°C 34.6°F1.4°C 98% 2.0 mph 3.2 kmh 7.0 mph11.3 kmh 29.43 in996.6 mb 0.28 in7.1 mm 0.00 in0.0 mm 1.59 in40.4 mm
08:57 AM 35.1°F1.7°C 34.6°F1.4°C 98% 4.0 mph NNE6.4 kmh NNE 7.0 mph11.3 kmh 29.43 in996.6 mb 0.29 in7.4 mm 0.60 in15.2 mm 1.60 in40.6 mm
08:58 AM 35.1°F1.7°C 34.6°F1.4°C 98% 2.0 mph NW3.2 kmh NW 7.0 mph11.3 kmh 29.43 in996.6 mb 0.29 in7.4 mm 0.00 in0.0 mm 1.60 in40.6 mm
08:59 AM 35.1°F1.7°C 34.6°F1.4°C 98% 2.0 mph NNW3.2 kmh NNW 7.0 mph11.3 kmh 29.43 in996.6 mb 0.30 in7.6 mm 0.60 in15.2 mm 1.61 in40.9 mm
09:00 AM 35.1°F1.7°C 34.6°F1.4°C 98% 1.0 mph NNW1.6 kmh NNW 7.0 mph11.3 kmh 29.43 in996.6 mb 0.31 in7.9 mm 0.01 in0.3 mm 1.62 in41.1 mm
09:01 AM 35.1°F1.7°C 34.6°F1.4°C 98% 2.0 mph NNE3.2 kmh NNE 7.0 mph11.3 kmh 29.43 in996.6 mb 0.31 in7.9 mm 0.00 in0.0 mm 1.62 in41.1 mm
09:02 AM 35.1°F1.7°C 34.6°F1.4°C 98% 5.0 mph NNE8.0 kmh NNE 7.0 mph11.3 kmh 29.44 in997.0 mb 0.32 in8.1 mm 0.60 in15.2 mm 1.63 in41.4 mm
09:03 AM 35.1°F1.7°C 34.6°F1.4°C 98% 3.0 mph NNW4.8 kmh NNW 6.0 mph9.7 kmh 29.44 in997.0 mb 0.32 in8.1 mm 0.00 in0.0 mm 1.63 in41.4 mm
09:04 AM 35.1°F1.7°C 34.6°F1.4°C 98% 1.0 mph ENE1.6 kmh ENE 6.0 mph9.7 kmh 29.44 in997.0 mb 0.32 in8.1 mm 0.00 in0.0 mm 1.63 in41.4 mm
09:05 AM 35.1°F1.7°C 34.6°F1.4°C 98% 2.0 mph NE3.2 kmh NE 5.0 mph8.0 kmh 29.44 in997.0 mb 0.33 in8.4 mm 0.60 in15.2 mm 1.64 in41.7 mm
09:06 AM 35.1°F1.7°C 34.6°F1.4°C 98% 1.0 mph ENE1.6 kmh ENE 5.0 mph8.0 kmh 29.43 in996.6 mb 0.00 in0.0 mm 0.00 in0.0 mm 1.64 in41.7 mm
09:07 AM 35.1°F1.7°C 34.6°F1.4°C 98% 1.0 mph NNW1.6 kmh NNW 5.0 mph8.0 kmh 29.43 in996.6 mb 0.01 in0.3 mm 0.60 in15.2 mm 1.65 in41.9 mm
09:08 AM 35.1°F1.7°C 34.6°F1.4°C 98% 3.0 mph 4.8 kmh 5.0 mph8.0 kmh 29.43 in996.6 mb 0.01 in0.3 mm 0.00 in0.0 mm 1.65 in41.9 mm
09:09 AM 35.1°F1.7°C 34.6°F1.4°C 98% 3.0 mph NNE4.8 kmh NNE 5.0 mph8.0 kmh 29.43 in996.6 mb 0.02 in0.5 mm 0.60 in15.2 mm 1.66 in42.2 mm
09:10 AM 35.1°F1.7°C 34.6°F1.4°C 98% 4.0 mph NNE6.4 kmh NNE 5.0 mph8.0 kmh 29.43 in996.6 mb 0.03 in0.8 mm 0.60 in15.2 mm 1.67 in42.4 mm
09:11 AM 35.1°F1.7°C 34.6°F1.4°C 98% Calm Calm 5.0 mph8.0 kmh 29.43 in996.6 mb 0.03 in0.8 mm 0.00 in0.0 mm 1.67 in42.4 mm
09:12 AM 35.1°F1.7°C 34.6°F1.4°C 98% Calm Calm 4.0 mph6.4 kmh 29.43 in996.6 mb 0.04 in1.0 mm 0.60 in15.2 mm 1.68 in42.7 mm
09:13 AM 35.1°F1.7°C 34.6°F1.4°C 98% Calm Calm 4.0 mph6.4 kmh 29.43 in996.6 mb 0.04 in1.0 mm 0.00 in0.0 mm 1.68 in42.7 mm
09:14 AM 35.1°F1.7°C 34.6°F1.4°C 98% Calm Calm 4.0 mph6.4 kmh 29.42 in996.3 mb 0.04 in1.0 mm 0.00 in0.0 mm 1.68 in42.7 mm
09:15 AM 35.1°F1.7°C 34.6°F1.4°C 98% 1.0 mph NNE1.6 kmh NNE 4.0 mph6.4 kmh 29.42 in996.3 mb 0.05 in1.3 mm 0.60 in15.2 mm 1.69 in42.9 mm
09:16 AM 35.1°F1.7°C 34.6°F1.4°C 98% 2.0 mph 3.2 kmh 4.0 mph6.4 kmh 29.43 in996.6 mb 0.05 in1.3 mm 0.00 in0.0 mm 1.69 in42.9 mm
09:17 AM 35.1°F1.7°C 34.6°F1.4°C 98% Calm Calm 4.0 mph6.4 kmh 29.43 in996.6 mb 0.06 in1.5 mm 0.60 in15.2 mm 1.70 in43.2 mm
09:18 AM 35.4°F1.9°C 34.9°F1.6°C 98% Calm Calm 4.0 mph6.4 kmh 29.42 in996.3 mb 0.06 in1.5 mm 0.00 in0.0 mm 1.70 in43.2 mm
09:19 AM 35.4°F1.9°C 34.9°F1.6°C 98% 2.0 mph 3.2 kmh 4.0 mph6.4 kmh 29.42 in996.3 mb 0.07 in1.8 mm 0.60 in15.2 mm 1.71 in43.4 mm
09:20 AM 35.4°F1.9°C 34.9°F1.6°C 98% 2.0 mph NNE3.2 kmh NNE 4.0 mph6.4 kmh 29.42 in996.3 mb 0.07 in1.8 mm 0.00 in0.0 mm 1.71 in43.4 mm
09:21 AM 35.4°F1.9°C 34.9°F1.6°C 98% Calm Calm 2.0 mph3.2 kmh 29.42 in996.3 mb 0.07 in1.8 mm 0.00 in0.0 mm 1.71 in43.4 mm
09:22 AM 35.4°F1.9°C 34.9°F1.6°C 98% Calm Calm 2.0 mph3.2 kmh 29.42 in996.3 mb 0.08 in2.0 mm 0.60 in15.2 mm 1.72 in43.7 mm
09:23 AM 35.4°F1.9°C 34.9°F1.6°C 98% Calm Calm 2.0 mph3.2 kmh 29.42 in996.3 mb 0.08 in2.0 mm 0.00 in0.0 mm 1.72 in43.7 mm
09:24 AM 35.4°F1.9°C 34.9°F1.6°C 98% 4.0 mph NW6.4 kmh NW 4.0 mph6.4 kmh 29.43 in996.6 mb 0.09 in2.3 mm 0.60 in15.2 mm 1.73 in43.9 mm
09:25 AM 35.4°F1.9°C 34.9°F1.6°C 98% 5.0 mph NNE8.0 kmh NNE 5.0 mph8.0 kmh 29.43 in996.6 mb 0.09 in2.3 mm 0.00 in0.0 mm 1.73 in43.9 mm
09:26 AM 35.4°F1.9°C 34.9°F1.6°C 98% 2.0 mph ESE3.2 kmh ESE 5.0 mph8.0 kmh 29.43 in996.6 mb 0.10 in2.5 mm 0.60 in15.2 mm 1.74 in44.2 mm
09:27 AM 35.4°F1.9°C 34.9°F1.6°C 98% 2.0 mph NNE3.2 kmh NNE 5.0 mph8.0 kmh 29.43 in996.6 mb 0.11 in2.8 mm 0.60 in15.2 mm 1.75 in44.5 mm
09:28 AM 35.4°F1.9°C 34.9°F1.6°C 98% 2.0 mph NNE3.2 kmh NNE 5.0 mph8.0 kmh 29.42 in996.3 mb 0.11 in2.8 mm 0.00 in0.0 mm 1.75 in44.5 mm
09:29 AM 35.4°F1.9°C 34.9°F1.6°C 98% 3.0 mph 4.8 kmh 5.0 mph8.0 kmh 29.42 in996.3 mb 0.12 in3.0 mm 0.60 in15.2 mm 1.76 in44.7 mm
09:30 AM 35.4°F1.9°C 34.9°F1.6°C 98% 2.0 mph WNW3.2 kmh WNW 5.0 mph8.0 kmh 29.42 in996.3 mb 0.13 in3.3 mm 0.60 in15.2 mm 1.77 in45.0 mm
09:31 AM 35.5°F1.9°C 35.0°F1.7°C 98% 5.0 mph NW8.0 kmh NW 5.0 mph8.0 kmh 29.43 in996.6 mb 0.13 in3.3 mm 0.00 in0.0 mm 1.77 in45.0 mm
09:32 AM 35.5°F1.9°C 35.0°F1.7°C 98% 8.0 mph NW12.9 kmh NW 8.0 mph12.9 kmh 29.43 in996.6 mb 0.14 in3.6 mm 0.60 in15.2 mm 1.78 in45.2 mm
09:33 AM 35.7°F2.1°C 35.2°F1.8°C 98% 6.0 mph NW9.7 kmh NW 8.0 mph12.9 kmh 29.43 in996.6 mb 0.15 in3.8 mm 0.60 in15.2 mm 1.79 in45.5 mm
09:34 AM 35.7°F2.1°C 35.2°F1.8°C 98% 5.0 mph NNE8.0 kmh NNE 8.0 mph12.9 kmh 29.43 in996.6 mb 0.15 in3.8 mm 0.00 in0.0 mm 1.79 in45.5 mm
09:35 AM 35.7°F2.1°C 35.2°F1.8°C 98% 3.0 mph ENE4.8 kmh ENE 8.0 mph12.9 kmh 29.43 in996.6 mb 0.16 in4.1 mm 0.60 in15.2 mm 1.80 in45.7 mm
09:36 AM 35.7°F2.1°C 35.2°F1.8°C 98% 1.0 mph 1.6 kmh 8.0 mph12.9 kmh 29.42 in996.3 mb 0.16 in4.1 mm 0.00 in0.0 mm 1.80 in45.7 mm
09:37 AM 35.7°F2.1°C 35.2°F1.8°C 98% 3.0 mph ENE4.8 kmh ENE 8.0 mph12.9 kmh 29.42 in996.3 mb 0.17 in4.3 mm 0.60 in15.2 mm 1.81 in46.0 mm
09:38 AM 35.7°F2.1°C 35.2°F1.8°C 98% 1.0 mph NNE1.6 kmh NNE 8.0 mph12.9 kmh 29.42 in996.3 mb 0.17 in4.3 mm 0.00 in0.0 mm 1.81 in46.0 mm
09:39 AM 35.7°F2.1°C 35.2°F1.8°C 98% 2.0 mph NNW3.2 kmh NNW 8.0 mph12.9 kmh 29.42 in996.3 mb 0.18 in4.6 mm 0.60 in15.2 mm 1.82 in46.2 mm
09:40 AM 35.7°F2.1°C 35.2°F1.8°C 98% 3.0 mph 4.8 kmh 8.0 mph12.9 kmh 29.42 in996.3 mb 0.18 in4.6 mm 0.00 in0.0 mm 1.82 in46.2 mm
09:41 AM 35.7°F2.1°C 35.2°F1.8°C 98% 4.0 mph 6.4 kmh 8.0 mph12.9 kmh 29.42 in996.3 mb 0.19 in4.8 mm 0.60 in15.2 mm 1.83 in46.5 mm
09:42 AM 35.7°F2.1°C 35.2°F1.8°C 98% 4.0 mph NNE6.4 kmh NNE 8.0 mph12.9 kmh 29.40 in995.6 mb 0.19 in4.8 mm 0.00 in0.0 mm 1.83 in46.5 mm
09:43 AM 35.7°F2.1°C 35.2°F1.8°C 98% Calm Calm 7.0 mph11.3 kmh 29.40 in995.6 mb 0.19 in4.8 mm 0.00 in0.0 mm 1.83 in46.5 mm
09:44 AM 35.7°F2.1°C 35.2°F1.8°C 98% 2.0 mph W3.2 kmh W 5.0 mph8.0 kmh 29.40 in995.6 mb 0.19 in4.8 mm 0.00 in0.0 mm 1.83 in46.5 mm
09:45 AM 35.7°F2.1°C 35.2°F1.8°C 98% 6.0 mph W9.7 kmh W 6.0 mph9.7 kmh 29.40 in995.6 mb 0.19 in4.8 mm 0.00 in0.0 mm 1.83 in46.5 mm
09:46 AM 35.7°F2.1°C 35.2°F1.8°C 98% 6.0 mph WSW9.7 kmh WSW 8.0 mph12.9 kmh 29.42 in996.3 mb 0.19 in4.8 mm 0.00 in0.0 mm 1.83 in46.5 mm
09:47 AM 35.7°F2.1°C 35.2°F1.8°C 98% 3.0 mph WNW4.8 kmh WNW 8.0 mph12.9 kmh 29.42 in996.3 mb 0.20 in5.1 mm 0.60 in15.2 mm 1.84 in46.7 mm
09:48 AM 35.7°F2.1°C 35.2°F1.8°C 98% 4.0 mph 6.4 kmh 8.0 mph12.9 kmh 29.42 in996.3 mb 0.20 in5.1 mm 0.00 in0.0 mm 1.84 in46.7 mm
09:49 AM 35.7°F2.1°C 35.2°F1.8°C 98% 3.0 mph 4.8 kmh 8.0 mph12.9 kmh 29.41 in995.9 mb 0.20 in5.1 mm 0.00 in0.0 mm 1.84 in46.7 mm
09:50 AM 35.7°F2.1°C 35.2°F1.8°C 98% 3.0 mph NE4.8 kmh NE 8.0 mph12.9 kmh 29.41 in995.9 mb 0.20 in5.1 mm 0.00 in0.0 mm 1.84 in46.7 mm
09:51 AM 35.7°F2.1°C 35.2°F1.8°C 98% 4.0 mph NNW6.4 kmh NNW 8.0 mph12.9 kmh 29.40 in995.6 mb 0.21 in5.3 mm 0.60 in15.2 mm 1.85 in47.0 mm
09:52 AM 35.7°F2.1°C 35.2°F1.8°C 98% 7.0 mph NW11.3 kmh NW 8.0 mph12.9 kmh 29.41 in995.9 mb 0.21 in5.3 mm 0.00 in0.0 mm 1.85 in47.0 mm
09:53 AM 35.7°F2.1°C 35.2°F1.8°C 98% 6.0 mph NW9.7 kmh NW 8.0 mph12.9 kmh 29.40 in995.6 mb 0.21 in5.3 mm 0.00 in0.0 mm 1.85 in47.0 mm
09:54 AM 35.7°F2.1°C 35.2°F1.8°C 98% 6.0 mph WNW9.7 kmh WNW 8.0 mph12.9 kmh 29.42 in996.3 mb 0.21 in5.3 mm 0.00 in0.0 mm 1.85 in47.0 mm
09:55 AM 35.9°F2.2°C 35.4°F1.9°C 98% 4.0 mph WNW6.4 kmh WNW 8.0 mph12.9 kmh 29.42 in996.3 mb 0.21 in5.3 mm 0.00 in0.0 mm 1.85 in47.0 mm
09:56 AM 35.9°F2.2°C 35.4°F1.9°C 98% 2.0 mph NNE3.2 kmh NNE 8.0 mph12.9 kmh 29.42 in996.3 mb 0.21 in5.3 mm 0.00 in0.0 mm 1.85 in47.0 mm
09:57 AM 35.9°F2.2°C 35.4°F1.9°C 98% 5.0 mph NNW8.0 kmh NNW 8.0 mph12.9 kmh 29.42 in996.3 mb 0.21 in5.3 mm 0.00 in0.0 mm 1.85 in47.0 mm
09:58 AM 35.9°F2.2°C 35.4°F1.9°C 98% 5.0 mph NNW8.0 kmh NNW 8.0 mph12.9 kmh 29.42 in996.3 mb 0.22 in5.6 mm 0.60 in15.2 mm 1.86 in47.2 mm
09:59 AM 35.9°F2.2°C 35.4°F1.9°C 98% 6.0 mph NW9.7 kmh NW 8.0 mph12.9 kmh 29.42 in996.3 mb 0.22 in5.6 mm 0.00 in0.0 mm 1.86 in47.2 mm
10:00 AM 35.9°F2.2°C 35.4°F1.9°C 98% 3.0 mph NNE4.8 kmh NNE 8.0 mph12.9 kmh 29.41 in995.9 mb 0.22 in5.6 mm 0.00 in0.0 mm 1.86 in47.2 mm
10:01 AM 35.9°F2.2°C 35.4°F1.9°C 98% 2.0 mph NNE3.2 kmh NNE 8.0 mph12.9 kmh 29.41 in995.9 mb 0.22 in5.6 mm 0.00 in0.0 mm 1.86 in47.2 mm
10:02 AM 35.9°F2.2°C 35.4°F1.9°C 98% 2.0 mph NNE3.2 kmh NNE 8.0 mph12.9 kmh 29.41 in995.9 mb 0.22 in5.6 mm 0.00 in0.0 mm 1.86 in47.2 mm
10:03 AM 35.9°F2.2°C 35.4°F1.9°C 98% 4.0 mph 6.4 kmh 7.0 mph11.3 kmh 29.41 in995.9 mb 0.22 in5.6 mm 0.00 in0.0 mm 1.86 in47.2 mm
10:04 AM 35.9°F2.2°C 35.4°F1.9°C 98% 4.0 mph 6.4 kmh 6.0 mph9.7 kmh 29.41 in995.9 mb 0.22 in5.6 mm 0.00 in0.0 mm 1.86 in47.2 mm
10:05 AM 35.9°F2.2°C 35.4°F1.9°C 98% 4.0 mph NW6.4 kmh NW 6.0 mph9.7 kmh 29.41 in995.9 mb 0.22 in5.6 mm 0.00 in0.0 mm 1.86 in47.2 mm
10:06 AM 35.9°F2.2°C 35.4°F1.9°C 98% 3.0 mph NNE4.8 kmh NNE 6.0 mph9.7 kmh 29.40 in995.6 mb 0.00 in0.0 mm 0.00 in0.0 mm 1.87 in47.5 mm
10:07 AM 35.9°F2.2°C 35.4°F1.9°C 98% 2.0 mph NNW3.2 kmh NNW 6.0 mph9.7 kmh 29.40 in995.6 mb 0.00 in0.0 mm 0.00 in0.0 mm 1.87 in47.5 mm
10:08 AM 35.9°F2.2°C 35.4°F1.9°C 98% 4.0 mph NNW6.4 kmh NNW 6.0 mph9.7 kmh 29.39 in995.3 mb 0.00 in0.0 mm 0.00 in0.0 mm 1.87 in47.5 mm
10:09 AM 35.9°F2.2°C 35.4°F1.9°C 98% 5.0 mph NNW8.0 kmh NNW 5.0 mph8.0 kmh 29.39 in995.3 mb 0.00 in0.0 mm 0.00 in0.0 mm 1.87 in47.5 mm
10:10 AM 35.9°F2.2°C 35.4°F1.9°C 98% 3.0 mph NNE4.8 kmh NNE 5.0 mph8.0 kmh 29.39 in995.3 mb 0.00 in0.0 mm 0.00 in0.0 mm 1.87 in47.5 mm
10:11 AM 35.9°F2.2°C 35.4°F1.9°C 98% Calm Calm 5.0 mph8.0 kmh 29.39 in995.3 mb 0.01 in0.3 mm 0.60 in15.2 mm 1.88 in47.8 mm
10:12 AM 35.9°F2.2°C 35.4°F1.9°C 98% Calm Calm 5.0 mph8.0 kmh 29.39 in995.3 mb 0.01 in0.3 mm 0.00 in0.0 mm 1.88 in47.8 mm
10:13 AM 35.9°F2.2°C 35.4°F1.9°C 98% Calm Calm 5.0 mph8.0 kmh 29.39 in995.3 mb 0.01 in0.3 mm 0.00 in0.0 mm 1.88 in47.8 mm
10:14 AM 35.9°F2.2°C 35.4°F1.9°C 98% Calm Calm 5.0 mph8.0 kmh 29.39 in995.3 mb 0.02 in0.5 mm 0.60 in15.2 mm 1.89 in48.0 mm
10:15 AM 35.9°F2.2°C 35.4°F1.9°C 98% Calm Calm 5.0 mph8.0 kmh 29.39 in995.3 mb 0.02 in0.5 mm 0.00 in0.0 mm 1.89 in48.0 mm
10:16 AM 35.9°F2.2°C 35.4°F1.9°C 98% Calm Calm 5.0 mph8.0 kmh 29.39 in995.3 mb 0.02 in0.5 mm 0.00 in0.0 mm 1.89 in48.0 mm
10:17 AM 35.9°F2.2°C 35.4°F1.9°C 98% Calm Calm 5.0 mph8.0 kmh 29.39 in995.3 mb 0.03 in0.8 mm 0.60 in15.2 mm 1.90 in48.3 mm
10:18 AM 35.9°F2.2°C 35.4°F1.9°C 98% Calm Calm 5.0 mph8.0 kmh 29.38 in994.9 mb 0.03 in0.8 mm 0.00 in0.0 mm 1.90 in48.3 mm
10:19 AM 35.9°F2.2°C 35.4°F1.9°C 98% 2.0 mph NNE3.2 kmh NNE 5.0 mph8.0 kmh 29.38 in994.9 mb 0.03 in0.8 mm 0.00 in0.0 mm 1.90 in48.3 mm
10:20 AM 35.9°F2.2°C 35.4°F1.9°C 98% 2.0 mph 3.2 kmh 2.0 mph3.2 kmh 29.38 in994.9 mb 0.04 in1.0 mm 0.60 in15.2 mm 1.91 in48.5 mm
10:21 AM 35.9°F2.2°C 35.4°F1.9°C 98% 2.0 mph NNW3.2 kmh NNW 2.0 mph3.2 kmh 29.38 in994.9 mb 0.04 in1.0 mm 0.00 in0.0 mm 1.91 in48.5 mm
10:22 AM 35.9°F2.2°C 35.4°F1.9°C 98% 1.0 mph 1.6 kmh 2.0 mph3.2 kmh 29.37 in994.6 mb 0.04 in1.0 mm 0.00 in0.0 mm 1.91 in48.5 mm
10:23 AM 35.9°F2.2°C 35.4°F1.9°C 98% 1.0 mph NNE1.6 kmh NNE 2.0 mph3.2 kmh 29.38 in994.9 mb 0.04 in1.0 mm 0.00 in0.0 mm 1.91 in48.5 mm
10:24 AM 35.9°F2.2°C 35.4°F1.9°C 98% Calm Calm 2.0 mph3.2 kmh 29.37 in994.6 mb 0.04 in1.0 mm 0.00 in0.0 mm 1.91 in48.5 mm
10:25 AM 35.9°F2.2°C 35.4°F1.9°C 98% Calm Calm 2.0 mph3.2 kmh 29.37 in994.6 mb 0.05 in1.3 mm 0.60 in15.2 mm 1.92 in48.8 mm
10:26 AM 35.9°F2.2°C 35.4°F1.9°C 98% Calm Calm 2.0 mph3.2 kmh 29.37 in994.6 mb 0.05 in1.3 mm 0.00 in0.0 mm 1.92 in48.8 mm
10:27 AM 35.9°F2.2°C 35.4°F1.9°C 98% 3.0 mph NW4.8 kmh NW 3.0 mph4.8 kmh 29.37 in994.6 mb 0.05 in1.3 mm 0.00 in0.0 mm 1.92 in48.8 mm
10:28 AM 35.9°F2.2°C 35.4°F1.9°C 98% 3.0 mph 4.8 kmh 3.0 mph4.8 kmh 29.37 in994.6 mb 0.05 in1.3 mm 0.00 in0.0 mm 1.92 in48.8 mm
10:29 AM 35.9°F2.2°C 35.4°F1.9°C 98% 3.0 mph NNW4.8 kmh NNW 3.0 mph4.8 kmh 29.37 in994.6 mb 0.06 in1.5 mm 0.60 in15.2 mm 1.93 in49.0 mm
10:30 AM 35.9°F2.2°C 35.4°F1.9°C 98% 1.0 mph NW1.6 kmh NW 4.0 mph6.4 kmh 29.37 in994.6 mb 0.06 in1.5 mm 0.00 in0.0 mm 1.93 in49.0 mm
10:31 AM 36.1°F2.3°C 35.6°F2.0°C 98% 1.0 mph NNE1.6 kmh NNE 4.0 mph6.4 kmh 29.37 in994.6 mb 0.06 in1.5 mm 0.00 in0.0 mm 1.93 in49.0 mm
10:32 AM 36.1°F2.3°C 35.6°F2.0°C 98% 1.0 mph NNE1.6 kmh NNE 4.0 mph6.4 kmh 29.37 in994.6 mb 0.06 in1.5 mm 0.00 in0.0 mm 1.93 in49.0 mm
10:33 AM 36.1°F2.3°C 35.6°F2.0°C 98% 2.0 mph 3.2 kmh 4.0 mph6.4 kmh 29.37 in994.6 mb 0.06 in1.5 mm 0.00 in0.0 mm 1.93 in49.0 mm
10:34 AM 36.1°F2.3°C 35.6°F2.0°C 98% 2.0 mph NNE3.2 kmh NNE 4.0 mph6.4 kmh 29.37 in994.6 mb 0.07 in1.8 mm 0.60 in15.2 mm 1.94 in49.3 mm
10:35 AM 36.1°F2.3°C 35.6°F2.0°C 98% 1.0 mph NNE1.6 kmh NNE 4.0 mph6.4 kmh 29.36 in994.2 mb 0.07 in1.8 mm 0.00 in0.0 mm 1.94 in49.3 mm
10:36 AM 36.1°F2.3°C 35.6°F2.0°C 98% 1.0 mph NNW1.6 kmh NNW 4.0 mph6.4 kmh 29.36 in994.2 mb 0.07 in1.8 mm 0.00 in0.0 mm 1.94 in49.3 mm
10:37 AM 36.1°F2.3°C 35.6°F2.0°C 98% Calm Calm 4.0 mph6.4 kmh 29.36 in994.2 mb 0.08 in2.0 mm 0.60 in15.2 mm 1.95 in49.5 mm
10:38 AM 36.1°F2.3°C 35.6°F2.0°C 98% Calm Calm 4.0 mph6.4 kmh 29.36 in994.2 mb 0.08 in2.0 mm 0.00 in0.0 mm 1.95 in49.5 mm
10:39 AM 36.2°F2.3°C 35.7°F2.1°C 98% 2.0 mph 3.2 kmh 4.0 mph6.4 kmh 29.36 in994.2 mb 0.08 in2.0 mm 0.00 in0.0 mm 1.95 in49.5 mm
10:40 AM 36.2°F2.3°C 35.7°F2.1°C 98% 4.0 mph NNW6.4 kmh NNW 4.0 mph6.4 kmh 29.36 in994.2 mb 0.08 in2.0 mm 0.00 in0.0 mm 1.95 in49.5 mm
10:41 AM 36.2°F2.3°C 35.7°F2.1°C 98% 3.0 mph NNW4.8 kmh NNW 4.0 mph6.4 kmh 29.36 in994.2 mb 0.08 in2.0 mm 0.00 in0.0 mm 1.95 in49.5 mm
10:42 AM 36.2°F2.3°C 35.7°F2.1°C 98% 2.0 mph NNE3.2 kmh NNE 4.0 mph6.4 kmh 29.36 in994.2 mb 0.09 in2.3 mm 0.60 in15.2 mm 1.96 in49.8 mm
10:43 AM 36.2°F2.3°C 35.7°F2.1°C 98% 1.0 mph NNE1.6 kmh NNE 4.0 mph6.4 kmh 29.36 in994.2 mb 0.09 in2.3 mm 0.00 in0.0 mm 1.96 in49.8 mm
10:44 AM 36.2°F2.3°C 35.7°F2.1°C 98% 3.0 mph NNE4.8 kmh NNE 4.0 mph6.4 kmh 29.35 in993.9 mb 0.09 in2.3 mm 0.00 in0.0 mm 1.96 in49.8 mm
10:45 AM 36.2°F2.3°C 35.7°F2.1°C 98% 1.0 mph NNE1.6 kmh NNE 4.0 mph6.4 kmh 29.35 in993.9 mb 0.09 in2.3 mm 0.00 in0.0 mm 1.96 in49.8 mm
10:46 AM 36.2°F2.3°C 35.7°F2.1°C 98% 4.0 mph NNE6.4 kmh NNE 5.0 mph8.0 kmh 29.35 in993.9 mb 0.09 in2.3 mm 0.00 in0.0 mm 1.96 in49.8 mm
10:47 AM 36.2°F2.3°C 35.7°F2.1°C 98% 4.0 mph NNE6.4 kmh NNE 5.0 mph8.0 kmh 29.35 in993.9 mb 0.09 in2.3 mm 0.00 in0.0 mm 1.96 in49.8 mm
10:48 AM 36.2°F2.3°C 35.7°F2.1°C 98% 3.0 mph 4.8 kmh 5.0 mph8.0 kmh 29.34 in993.6 mb 0.09 in2.3 mm 0.00 in0.0 mm 1.96 in49.8 mm
10:49 AM 36.2°F2.3°C 35.7°F2.1°C 98% 2.0 mph NE3.2 kmh NE 5.0 mph8.0 kmh 29.34 in993.6 mb 0.10 in2.5 mm 0.60 in15.2 mm 1.97 in50.0 mm
10:50 AM 36.2°F2.3°C 35.7°F2.1°C 98% 1.0 mph NE1.6 kmh NE 5.0 mph8.0 kmh 29.34 in993.6 mb 0.10 in2.5 mm 0.00 in0.0 mm 1.97 in50.0 mm
10:51 AM 36.2°F2.3°C 35.7°F2.1°C 98% Calm Calm 5.0 mph8.0 kmh 29.34 in993.6 mb 0.10 in2.5 mm 0.00 in0.0 mm 1.97 in50.0 mm
10:52 AM 36.2°F2.3°C 35.7°F2.1°C 98% Calm Calm 5.0 mph8.0 kmh 29.34 in993.6 mb 0.10 in2.5 mm 0.00 in0.0 mm 1.97 in50.0 mm
10:53 AM 36.2°F2.3°C 35.7°F2.1°C 98% Calm Calm 5.0 mph8.0 kmh 29.34 in993.6 mb 0.10 in2.5 mm 0.00 in0.0 mm 1.97 in50.0 mm
10:54 AM 36.2°F2.3°C 35.7°F2.1°C 98% 3.0 mph NNW4.8 kmh NNW 5.0 mph8.0 kmh 29.35 in993.9 mb 0.10 in2.5 mm 0.00 in0.0 mm 1.97 in50.0 mm
10:55 AM 36.2°F2.3°C 35.7°F2.1°C 98% 2.0 mph NNE3.2 kmh NNE 5.0 mph8.0 kmh 29.34 in993.6 mb 0.10 in2.5 mm 0.00 in0.0 mm 1.97 in50.0 mm
10:56 AM 36.2°F2.3°C 35.7°F2.1°C 98% 3.0 mph NW4.8 kmh NW 4.0 mph6.4 kmh 29.35 in993.9 mb 0.10 in2.5 mm 0.00 in0.0 mm 1.97 in50.0 mm
10:57 AM 36.2°F2.3°C 35.7°F2.1°C 98% 2.0 mph NNE3.2 kmh NNE 4.0 mph6.4 kmh 29.35 in993.9 mb 0.11 in2.8 mm 0.60 in15.2 mm 1.98 in50.3 mm
10:58 AM 36.2°F2.3°C 35.7°F2.1°C 98% 2.0 mph NE3.2 kmh NE 4.0 mph6.4 kmh 29.35 in993.9 mb 0.11 in2.8 mm 0.00 in0.0 mm 1.98 in50.3 mm
10:59 AM 36.2°F2.3°C 35.7°F2.1°C 98% 2.0 mph WNW3.2 kmh WNW 4.0 mph6.4 kmh 29.35 in993.9 mb 0.11 in2.8 mm 0.00 in0.0 mm 1.98 in50.3 mm
11:00 AM 36.2°F2.3°C 35.7°F2.1°C 98% Calm Calm 4.0 mph6.4 kmh 29.35 in993.9 mb 0.11 in2.8 mm 0.00 in0.0 mm 1.98 in50.3 mm
11:01 AM 36.2°F2.3°C 35.7°F2.1°C 98% Calm Calm 4.0 mph6.4 kmh 29.35 in993.9 mb 0.11 in2.8 mm 0.00 in0.0 mm 1.98 in50.3 mm
11:02 AM 36.2°F2.3°C 35.7°F2.1°C 98% Calm Calm 4.0 mph6.4 kmh 29.35 in993.9 mb 0.11 in2.8 mm 0.00 in0.0 mm 1.98 in50.3 mm
11:03 AM 36.2°F2.3°C 35.7°F2.1°C 98% Calm Calm 4.0 mph6.4 kmh 29.35 in993.9 mb 0.11 in2.8 mm 0.00 in0.0 mm 1.98 in50.3 mm
11:04 AM 36.2°F2.3°C 35.7°F2.1°C 98% Calm Calm 4.0 mph6.4 kmh 29.34 in993.6 mb 0.12 in3.0 mm 0.60 in15.2 mm 1.99 in50.5 mm
11:05 AM 36.2°F2.3°C 35.7°F2.1°C 98% Calm Calm 3.0 mph4.8 kmh 29.34 in993.6 mb 0.12 in3.0 mm 0.00 in0.0 mm 1.99 in50.5 mm
11:06 AM 36.5°F2.5°C 36.0°F2.2°C 98% Calm Calm 3.0 mph4.8 kmh 29.33 in993.2 mb 0.00 in0.0 mm 0.00 in0.0 mm 1.99 in50.5 mm
11:07 AM 36.5°F2.5°C 36.0°F2.2°C 98% Calm Calm 2.0 mph3.2 kmh 29.33 in993.2 mb 0.01 in0.3 mm 0.60 in15.2 mm 2.00 in50.8 mm
11:08 AM 36.7°F2.6°C 36.2°F2.3°C 98% Calm Calm 2.0 mph3.2 kmh 29.33 in993.2 mb 0.01 in0.3 mm 0.00 in0.0 mm 2.00 in50.8 mm
11:09 AM 36.7°F2.6°C 36.2°F2.3°C 98% Calm Calm 1.0 mph1.6 kmh 29.33 in993.2 mb 0.01 in0.3 mm 0.00 in0.0 mm 2.00 in50.8 mm
11:10 AM 36.7°F2.6°C 36.2°F2.3°C 98% 1.0 mph NW1.6 kmh NW 3.0 mph4.8 kmh 29.33 in993.2 mb 0.01 in0.3 mm 0.00 in0.0 mm 2.00 in50.8 mm
11:11 AM 36.9°F2.7°C 36.4°F2.4°C 98% 3.0 mph NW4.8 kmh NW 3.0 mph4.8 kmh 29.33 in993.2 mb 0.01 in0.3 mm 0.00 in0.0 mm 2.00 in50.8 mm
11:12 AM 36.9°F2.7°C 36.4°F2.4°C 98% 2.0 mph NW3.2 kmh NW 3.0 mph4.8 kmh 29.34 in993.6 mb 0.02 in0.5 mm 0.60 in15.2 mm 2.01 in51.1 mm
11:13 AM 36.9°F2.7°C 36.4°F2.4°C 98% 2.0 mph WNW3.2 kmh WNW 3.0 mph4.8 kmh 29.34 in993.6 mb 0.02 in0.5 mm 0.00 in0.0 mm 2.01 in51.1 mm
11:14 AM 36.9°F2.7°C 36.4°F2.4°C 98% Calm Calm 3.0 mph4.8 kmh 29.34 in993.6 mb 0.02 in0.5 mm 0.00 in0.0 mm 2.01 in51.1 mm
11:15 AM 36.9°F2.7°C 36.4°F2.4°C 98% Calm Calm 3.0 mph4.8 kmh 29.34 in993.6 mb 0.03 in0.8 mm 0.60 in15.2 mm 2.02 in51.3 mm
11:16 AM 36.9°F2.7°C 36.4°F2.4°C 98% Calm Calm 3.0 mph4.8 kmh 29.34 in993.6 mb 0.03 in0.8 mm 0.00 in0.0 mm 2.02 in51.3 mm
11:17 AM 36.9°F2.7°C 36.4°F2.4°C 98% Calm Calm 3.0 mph4.8 kmh 29.33 in993.2 mb 0.04 in1.0 mm 0.60 in15.2 mm 2.03 in51.6 mm
11:18 AM 36.9°F2.7°C 36.4°F2.4°C 98% Calm Calm 3.0 mph4.8 kmh 29.33 in993.2 mb 0.04 in1.0 mm 0.00 in0.0 mm 2.03 in51.6 mm
11:19 AM 36.9°F2.7°C 36.4°F2.4°C 98% 1.0 mph SE1.6 kmh SE 3.0 mph4.8 kmh 29.33 in993.2 mb 0.04 in1.0 mm 0.00 in0.0 mm 2.03 in51.6 mm
11:20 AM 37.0°F2.8°C 36.5°F2.5°C 98% Calm Calm 3.0 mph4.8 kmh 29.33 in993.2 mb 0.05 in1.3 mm 0.60 in15.2 mm 2.04 in51.8 mm
11:21 AM 37.0°F2.8°C 36.5°F2.5°C 98% Calm Calm 3.0 mph4.8 kmh 29.33 in993.2 mb 0.05 in1.3 mm 0.00 in0.0 mm 2.04 in51.8 mm
11:22 AM 37.0°F2.8°C 36.5°F2.5°C 98% Calm Calm 2.0 mph3.2 kmh 29.33 in993.2 mb 0.06 in1.5 mm 0.60 in15.2 mm 2.05 in52.1 mm
11:23 AM 37.0°F2.8°C 36.5°F2.5°C 98% Calm Calm 1.0 mph1.6 kmh 29.33 in993.2 mb 0.06 in1.5 mm 0.00 in0.0 mm 2.05 in52.1 mm
11:24 AM 37.0°F2.8°C 36.5°F2.5°C 98% Calm Calm 1.0 mph1.6 kmh 29.32 in992.9 mb 0.07 in1.8 mm 0.60 in15.2 mm 2.06 in52.3 mm
11:25 AM 37.2°F2.9°C 36.7°F2.6°C 98% Calm Calm 1.0 mph1.6 kmh 29.32 in992.9 mb 0.07 in1.8 mm 0.00 in0.0 mm 2.06 in52.3 mm
11:26 AM 37.4°F3.0°C 36.9°F2.7°C 98% Calm Calm 1.0 mph1.6 kmh 29.31 in992.6 mb 0.07 in1.8 mm 0.00 in0.0 mm 2.06 in52.3 mm
11:27 AM 37.4°F3.0°C 36.9°F2.7°C 98% Calm Calm 1.0 mph1.6 kmh 29.31 in992.6 mb 0.08 in2.0 mm 0.60 in15.2 mm 2.07 in52.6 mm
11:28 AM 37.4°F3.0°C 36.9°F2.7°C 98% Calm Calm 1.0 mph1.6 kmh 29.31 in992.6 mb 0.08 in2.0 mm 0.00 in0.0 mm 2.07 in52.6 mm
11:29 AM 37.5°F3.1°C 37.0°F2.8°C 98% 2.0 mph NNE3.2 kmh NNE 2.0 mph3.2 kmh 29.31 in992.6 mb 0.08 in2.0 mm 0.00 in0.0 mm 2.07 in52.6 mm
11:30 AM 37.7°F3.2°C 37.2°F2.9°C 98% 1.0 mph NNE1.6 kmh NNE 2.0 mph3.2 kmh 29.30 in992.2 mb 0.09 in2.3 mm 0.60 in15.2 mm 2.08 in52.8 mm
11:31 AM 37.7°F3.2°C 37.2°F2.9°C 98% Calm Calm 2.0 mph3.2 kmh 29.30 in992.2 mb 0.09 in2.3 mm 0.00 in0.0 mm 2.08 in52.8 mm
11:32 AM 37.7°F3.2°C 37.2°F2.9°C 98% Calm Calm 2.0 mph3.2 kmh 29.30 in992.2 mb 0.10 in2.5 mm 0.60 in15.2 mm 2.09 in53.1 mm
11:33 AM 38.0°F3.3°C 37.5°F3.1°C 98% 3.0 mph 4.8 kmh 4.0 mph6.4 kmh 29.30 in992.2 mb 0.10 in2.5 mm 0.00 in0.0 mm 2.09 in53.1 mm
11:34 AM 38.0°F3.3°C 37.5°F3.1°C 98% Calm Calm 4.0 mph6.4 kmh 29.29 in991.9 mb 0.10 in2.5 mm 0.00 in0.0 mm 2.09 in53.1 mm
11:35 AM 38.0°F3.3°C 37.5°F3.1°C 98% 1.0 mph NNW1.6 kmh NNW 4.0 mph6.4 kmh 29.29 in991.9 mb 0.11 in2.8 mm 0.60 in15.2 mm 2.10 in53.3 mm
11:36 AM 38.2°F3.4°C 37.7°F3.2°C 98% 1.0 mph WNW1.6 kmh WNW 4.0 mph6.4 kmh 29.29 in991.9 mb 0.11 in2.8 mm 0.00 in0.0 mm 2.10 in53.3 mm
11:37 AM 38.4°F3.6°C 37.9°F3.3°C 98% Calm Calm 4.0 mph6.4 kmh 29.29 in991.9 mb 0.11 in2.8 mm 0.00 in0.0 mm 2.10 in53.3 mm
11:38 AM 38.4°F3.6°C 37.9°F3.3°C 98% 1.0 mph NNE1.6 kmh NNE 4.0 mph6.4 kmh 29.29 in991.9 mb 0.12 in3.0 mm 0.60 in15.2 mm 2.11 in53.6 mm
11:39 AM 38.4°F3.6°C 37.9°F3.3°C 98% 2.0 mph NNE3.2 kmh NNE 4.0 mph6.4 kmh 29.29 in991.9 mb 0.12 in3.0 mm 0.00 in0.0 mm 2.11 in53.6 mm
11:40 AM 38.7°F3.7°C 38.2°F3.4°C 98% 1.0 mph W1.6 kmh W 4.0 mph6.4 kmh 29.27 in991.2 mb 0.12 in3.0 mm 0.00 in0.0 mm 2.11 in53.6 mm
11:41 AM 38.7°F3.7°C 38.2°F3.4°C 98% 2.0 mph WNW3.2 kmh WNW 4.0 mph6.4 kmh 29.27 in991.2 mb 0.12 in3.0 mm 0.00 in0.0 mm 2.11 in53.6 mm
11:42 AM 38.7°F3.7°C 38.2°F3.4°C 98% 1.0 mph W1.6 kmh W 4.0 mph6.4 kmh 29.26 in990.9 mb 0.13 in3.3 mm 0.60 in15.2 mm 2.12 in53.8 mm
11:43 AM 38.7°F3.7°C 38.2°F3.4°C 98% 2.0 mph WSW3.2 kmh WSW 4.0 mph6.4 kmh 29.26 in990.9 mb 0.13 in3.3 mm 0.00 in0.0 mm 2.12 in53.8 mm
11:44 AM 38.7°F3.7°C 38.2°F3.4°C 98% 2.0 mph W3.2 kmh W 3.0 mph4.8 kmh 29.26 in990.9 mb 0.13 in3.3 mm 0.00 in0.0 mm 2.12 in53.8 mm
11:45 AM 39.0°F3.9°C 38.5°F3.6°C 98% 3.0 mph 4.8 kmh 4.0 mph6.4 kmh 29.26 in990.9 mb 0.13 in3.3 mm 0.00 in0.0 mm 2.12 in53.8 mm
11:46 AM 39.2°F4.0°C 38.7°F3.7°C 98% 3.0 mph NNW4.8 kmh NNW 4.0 mph6.4 kmh 29.24 in990.2 mb 0.13 in3.3 mm 0.00 in0.0 mm 2.12 in53.8 mm
11:47 AM 39.4°F4.1°C 38.9°F3.8°C 98% 3.0 mph ESE4.8 kmh ESE 4.0 mph6.4 kmh 29.25 in990.5 mb 0.13 in3.3 mm 0.00 in0.0 mm 2.12 in53.8 mm
11:48 AM 39.5°F4.2°C 39.0°F3.9°C 98% 4.0 mph W6.4 kmh W 8.0 mph12.9 kmh 29.25 in990.5 mb 0.13 in3.3 mm 0.00 in0.0 mm 2.12 in53.8 mm
11:49 AM 39.5°F4.2°C 39.0°F3.9°C 98% 7.0 mph NNE11.3 kmh NNE 8.0 mph12.9 kmh 29.25 in990.5 mb 0.14 in3.6 mm 0.60 in15.2 mm 2.13 in54.1 mm
11:50 AM 39.7°F4.3°C 39.2°F4.0°C 98% 2.0 mph W3.2 kmh W 8.0 mph12.9 kmh 29.24 in990.2 mb 0.14 in3.6 mm 0.00 in0.0 mm 2.13 in54.1 mm
11:51 AM 39.9°F4.4°C 39.4°F4.1°C 98% 4.0 mph NNE6.4 kmh NNE 8.0 mph12.9 kmh 29.24 in990.2 mb 0.14 in3.6 mm 0.00 in0.0 mm 2.13 in54.1 mm
11:52 AM 39.9°F4.4°C 39.4°F4.1°C 98% 3.0 mph W4.8 kmh W 8.0 mph12.9 kmh 29.23 in989.8 mb 0.14 in3.6 mm 0.00 in0.0 mm 2.13 in54.1 mm
11:53 AM 39.9°F4.4°C 39.4°F4.1°C 98% 4.0 mph 6.4 kmh 8.0 mph12.9 kmh 29.23 in989.8 mb 0.14 in3.6 mm 0.00 in0.0 mm 2.13 in54.1 mm
11:54 AM 40.0°F4.4°C 39.5°F4.2°C 98% 4.0 mph WNW6.4 kmh WNW 8.0 mph12.9 kmh 29.24 in990.2 mb 0.14 in3.6 mm 0.00 in0.0 mm 2.13 in54.1 mm
11:55 AM 40.5°F4.7°C 40.0°F4.4°C 98% 4.0 mph S6.4 kmh S 8.0 mph12.9 kmh 29.24 in990.2 mb 0.14 in3.6 mm 0.00 in0.0 mm 2.13 in54.1 mm
11:56 AM 40.5°F4.7°C 40.0°F4.4°C 98% 3.0 mph SW4.8 kmh SW 8.0 mph12.9 kmh 29.24 in990.2 mb 0.14 in3.6 mm 0.00 in0.0 mm 2.13 in54.1 mm
11:57 AM 40.5°F4.7°C 40.0°F4.4°C 98% 4.0 mph SSW6.4 kmh SSW 8.0 mph12.9 kmh 29.24 in990.2 mb 0.14 in3.6 mm 0.00 in0.0 mm 2.13 in54.1 mm
11:58 AM 40.7°F4.8°C 40.2°F4.6°C 98% 3.0 mph SSW4.8 kmh SSW 7.0 mph11.3 kmh 29.23 in989.8 mb 0.14 in3.6 mm 0.00 in0.0 mm 2.13 in54.1 mm
11:59 AM 40.7°F4.8°C 40.2°F4.6°C 98% 5.0 mph SSW8.0 kmh SSW 7.0 mph11.3 kmh 29.23 in989.8 mb 0.14 in3.6 mm 0.00 in0.0 mm 2.13 in54.1 mm
12:00 PM 40.9°F4.9°C 40.4°F4.7°C 98% 5.0 mph 8.0 kmh 6.0 mph9.7 kmh 29.23 in989.8 mb 0.14 in3.6 mm 0.00 in0.0 mm 2.13 in54.1 mm
12:01 PM 41.1°F5.1°C 40.6°F4.8°C 98% 4.0 mph E6.4 kmh E 6.0 mph9.7 kmh 29.23 in989.8 mb 0.14 in3.6 mm 0.00 in0.0 mm 2.13 in54.1 mm
12:02 PM 41.1°F5.1°C 40.6°F4.8°C 98% 5.0 mph NW8.0 kmh NW 7.0 mph11.3 kmh 29.23 in989.8 mb 0.14 in3.6 mm 0.00 in0.0 mm 2.13 in54.1 mm
12:03 PM 41.4°F5.2°C 40.9°F4.9°C 98% 3.0 mph SW4.8 kmh SW 7.0 mph11.3 kmh 29.23 in989.8 mb 0.14 in3.6 mm 0.00 in0.0 mm 2.13 in54.1 mm
12:04 PM 41.4°F5.2°C 40.9°F4.9°C 98% 5.0 mph NNE8.0 kmh NNE 7.0 mph11.3 kmh 29.23 in989.8 mb 0.14 in3.6 mm 0.00 in0.0 mm 2.13 in54.1 mm
12:05 PM 41.5°F5.3°C 41.0°F5.0°C 98% 3.0 mph S4.8 kmh S 7.0 mph11.3 kmh 29.23 in989.8 mb 0.14 in3.6 mm 0.00 in0.0 mm 2.13 in54.1 mm
12:06 PM 41.7°F5.4°C 41.2°F5.1°C 98% 2.0 mph S3.2 kmh S 7.0 mph11.3 kmh 29.23 in989.8 mb 0.00 in0.0 mm 0.00 in0.0 mm 2.13 in54.1 mm
12:07 PM 41.7°F5.4°C 41.2°F5.1°C 98% 1.0 mph SW1.6 kmh SW 7.0 mph11.3 kmh 29.23 in989.8 mb 0.00 in0.0 mm 0.00 in0.0 mm 2.13 in54.1 mm
12:08 PM 41.7°F5.4°C 41.2°F5.1°C 98% 2.0 mph SSW3.2 kmh SSW 7.0 mph11.3 kmh 29.23 in989.8 mb 0.00 in0.0 mm 0.00 in0.0 mm 2.13 in54.1 mm
12:09 PM 41.7°F5.4°C 41.2°F5.1°C 98% 3.0 mph S4.8 kmh S 7.0 mph11.3 kmh 29.23 in989.8 mb 0.00 in0.0 mm 0.00 in0.0 mm 2.13 in54.1 mm
12:10 PM 41.9°F5.5°C 41.4°F5.2°C 98% 3.0 mph SSW4.8 kmh SSW 7.0 mph11.3 kmh 29.22 in989.5 mb 0.00 in0.0 mm 0.00 in0.0 mm 2.13 in54.1 mm
12:11 PM 41.9°F5.5°C 41.4°F5.2°C 98% 4.0 mph 6.4 kmh 7.0 mph11.3 kmh 29.22 in989.5 mb 0.00 in0.0 mm 0.00 in0.0 mm 2.13 in54.1 mm
12:12 PM 41.9°F5.5°C 41.4°F5.2°C 98% 4.0 mph 6.4 kmh 7.0 mph11.3 kmh 29.21 in989.2 mb 0.00 in0.0 mm 0.00 in0.0 mm 2.13 in54.1 mm
12:13 PM 42.1°F5.6°C 41.6°F5.3°C 98% 3.0 mph W4.8 kmh W 7.0 mph11.3 kmh 29.21 in989.2 mb 0.00 in0.0 mm 0.00 in0.0 mm 2.13 in54.1 mm
12:14 PM 42.1°F5.6°C 41.6°F5.3°C 98% 2.0 mph SSW3.2 kmh SSW 7.0 mph11.3 kmh 29.20 in988.8 mb 0.00 in0.0 mm 0.00 in0.0 mm 2.13 in54.1 mm
12:15 PM 42.1°F5.6°C 41.6°F5.3°C 98% 4.0 mph 6.4 kmh 4.0 mph6.4 kmh 29.20 in988.8 mb 0.00 in0.0 mm 0.00 in0.0 mm 2.13 in54.1 mm
12:16 PM 42.3°F5.7°C 41.8°F5.4°C 98% 3.0 mph WNW4.8 kmh WNW 4.0 mph6.4 kmh 29.20 in988.8 mb 0.00 in0.0 mm 0.00 in0.0 mm 2.13 in54.1 mm
12:17 PM 42.4°F5.8°C 41.9°F5.5°C 98% 3.0 mph W4.8 kmh W 6.0 mph9.7 kmh 29.20 in988.8 mb 0.00 in0.0 mm 0.00 in0.0 mm 2.13 in54.1 mm
12:18 PM 42.4°F5.8°C 41.9°F5.5°C 98% 2.0 mph W3.2 kmh W 6.0 mph9.7 kmh 29.21 in989.2 mb 0.00 in0.0 mm 0.00 in0.0 mm 2.13 in54.1 mm
12:19 PM 42.5°F5.8°C 42.0°F5.6°C 98% 2.0 mph W3.2 kmh W 6.0 mph9.7 kmh 29.21 in989.2 mb 0.00 in0.0 mm 0.00 in0.0 mm 2.13 in54.1 mm
12:20 PM 42.7°F5.9°C 42.2°F5.7°C 98% 4.0 mph WSW6.4 kmh WSW 6.0 mph9.7 kmh 29.22 in989.5 mb 0.00 in0.0 mm 0.00 in0.0 mm 2.13 in54.1 mm
12:21 PM 43.0°F6.1°C 42.5°F5.8°C 98% 2.0 mph SSE3.2 kmh SSE 6.0 mph9.7 kmh 29.22 in989.5 mb 0.00 in0.0 mm 0.00 in0.0 mm 2.13 in54.1 mm
12:22 PM 43.0°F6.1°C 42.5°F5.8°C 98% 4.0 mph S6.4 kmh S 6.0 mph9.7 kmh 29.21 in989.2 mb 0.00 in0.0 mm 0.00 in0.0 mm 2.13 in54.1 mm
12:23 PM 43.0°F6.1°C 42.5°F5.8°C 98% 3.0 mph S4.8 kmh S 6.0 mph9.7 kmh 29.21 in989.2 mb 0.00 in0.0 mm 0.00 in0.0 mm 2.13 in54.1 mm
12:24 PM 43.2°F6.2°C 42.7°F5.9°C 98% 2.0 mph S3.2 kmh S 6.0 mph9.7 kmh 29.21 in989.2 mb 0.00 in0.0 mm 0.00 in0.0 mm 2.13 in54.1 mm
12:25 PM 43.2°F6.2°C 42.7°F5.9°C 98% 4.0 mph S6.4 kmh S 6.0 mph9.7 kmh 29.21 in989.2 mb 0.00 in0.0 mm 0.00 in0.0 mm 2.13 in54.1 mm
12:26 PM 43.2°F6.2°C 42.7°F5.9°C 98% 5.0 mph SSW8.0 kmh SSW 6.0 mph9.7 kmh 29.21 in989.2 mb 0.00 in0.0 mm 0.00 in0.0 mm 2.13 in54.1 mm
12:27 PM 43.2°F6.2°C 42.7°F5.9°C 98% 2.0 mph NE3.2 kmh NE 5.0 mph8.0 kmh 29.21 in989.2 mb 0.00 in0.0 mm 0.00 in0.0 mm 2.13 in54.1 mm
12:28 PM 43.2°F6.2°C 42.7°F5.9°C 98% 6.0 mph 9.7 kmh 6.0 mph9.7 kmh 29.21 in989.2 mb 0.00 in0.0 mm 0.00 in0.0 mm 2.13 in54.1 mm
12:29 PM 43.4°F6.3°C 42.8°F6.0°C 98% 3.0 mph SW4.8 kmh SW 6.0 mph9.7 kmh 29.21 in989.2 mb 0.00 in0.0 mm 0.00 in0.0 mm 2.13 in54.1 mm
12:30 PM 43.6°F6.4°C 43.0°F6.1°C 98% 3.0 mph NW4.8 kmh NW 6.0 mph9.7 kmh 29.21 in989.2 mb 0.00 in0.0 mm 0.00 in0.0 mm 2.13 in54.1 mm
12:31 PM 43.6°F6.4°C 43.0°F6.1°C 98% 2.0 mph W3.2 kmh W 6.0 mph9.7 kmh 29.21 in989.2 mb 0.00 in0.0 mm 0.00 in0.0 mm 2.13 in54.1 mm
12:32 PM 43.6°F6.4°C 43.0°F6.1°C 98% 3.0 mph SSW4.8 kmh SSW 6.0 mph9.7 kmh 29.20 in988.8 mb 0.00 in0.0 mm 0.00 in0.0 mm 2.13 in54.1 mm
12:33 PM 43.6°F6.4°C 43.0°F6.1°C 98% 5.0 mph ESE8.0 kmh ESE 6.0 mph9.7 kmh 29.20 in988.8 mb 0.00 in0.0 mm 0.00 in0.0 mm 2.13 in54.1 mm
12:34 PM 43.6°F6.4°C 43.0°F6.1°C 98% 3.0 mph SW4.8 kmh SW 6.0 mph9.7 kmh 29.20 in988.8 mb 0.00 in0.0 mm 0.00 in0.0 mm 2.13 in54.1 mm
12:35 PM 43.6°F6.4°C 43.0°F6.1°C 98% 3.0 mph SSW4.8 kmh SSW 6.0 mph9.7 kmh 29.20 in988.8 mb 0.00 in0.0 mm 0.00 in0.0 mm 2.13 in54.1 mm
12:36 PM 43.6°F6.4°C 43.0°F6.1°C 98% 5.0 mph SW8.0 kmh SW 6.0 mph9.7 kmh 29.20 in988.8 mb 0.00 in0.0 mm 0.00 in0.0 mm 2.13 in54.1 mm
12:37 PM 43.9°F6.6°C 43.3°F6.3°C 98% 3.0 mph 4.8 kmh 6.0 mph9.7 kmh 29.20 in988.8 mb 0.00 in0.0 mm 0.00 in0.0 mm 2.13 in54.1 mm
12:38 PM 43.9°F6.6°C 43.3°F6.3°C 98% 4.0 mph W6.4 kmh W 6.0 mph9.7 kmh 29.20 in988.8 mb 0.00 in0.0 mm 0.00 in0.0 mm 2.13 in54.1 mm
12:39 PM 43.9°F6.6°C 43.3°F6.3°C 98% 4.0 mph W6.4 kmh W 5.0 mph8.0 kmh 29.20 in988.8 mb 0.00 in0.0 mm 0.00 in0.0 mm 2.13 in54.1 mm
12:40 PM 43.9°F6.6°C 43.3°F6.3°C 98% 3.0 mph W4.8 kmh W 5.0 mph8.0 kmh 29.20 in988.8 mb 0.00 in0.0 mm 0.00 in0.0 mm 2.13 in54.1 mm
12:41 PM 43.9°F6.6°C 43.3°F6.3°C 98% 6.0 mph SSW9.7 kmh SSW 6.0 mph9.7 kmh 29.20 in988.8 mb 0.00 in0.0 mm 0.00 in0.0 mm 2.13 in54.1 mm
12:42 PM 43.9°F6.6°C 43.3°F6.3°C 98% 5.0 mph SSW8.0 kmh SSW 6.0 mph9.7 kmh 29.21 in989.2 mb 0.00 in0.0 mm 0.00 in0.0 mm 2.13 in54.1 mm
12:43 PM 43.9°F6.6°C 43.3°F6.3°C 98% 4.0 mph SW6.4 kmh SW 6.0 mph9.7 kmh 29.21 in989.2 mb 0.00 in0.0 mm 0.00 in0.0 mm 2.13 in54.1 mm
12:44 PM 43.9°F6.6°C 43.3°F6.3°C 98% 3.0 mph S4.8 kmh S 6.0 mph9.7 kmh 29.20 in988.8 mb 0.00 in0.0 mm 0.00 in0.0 mm 2.13 in54.1 mm
12:45 PM 43.9°F6.6°C 43.3°F6.3°C 98% 5.0 mph SSW8.0 kmh SSW 6.0 mph9.7 kmh 29.20 in988.8 mb 0.01 in0.3 mm 0.60 in15.2 mm 2.14 in54.4 mm
12:46 PM 43.9°F6.6°C 43.3°F6.3°C 98% 5.0 mph SSW8.0 kmh SSW 6.0 mph9.7 kmh 29.19 in988.5 mb 0.02 in0.5 mm 0.60 in15.2 mm 2.15 in54.6 mm
12:47 PM 43.9°F6.6°C 43.3°F6.3°C 98% 3.0 mph S4.8 kmh S 6.0 mph9.7 kmh 29.19 in988.5 mb 0.02 in0.5 mm 0.00 in0.0 mm 2.15 in54.6 mm
12:48 PM 43.9°F6.6°C 43.3°F6.3°C 98% 3.0 mph SSW4.8 kmh SSW 6.0 mph9.7 kmh 29.19 in988.5 mb 0.02 in0.5 mm 0.00 in0.0 mm 2.15 in54.6 mm
12:49 PM 43.9°F6.6°C 43.3°F6.3°C 98% 4.0 mph ESE6.4 kmh ESE 6.0 mph9.7 kmh 29.19 in988.5 mb 0.02 in0.5 mm 0.00 in0.0 mm 2.15 in54.6 mm
12:50 PM 43.9°F6.6°C 43.3°F6.3°C 98% 3.0 mph S4.8 kmh S 6.0 mph9.7 kmh 29.19 in988.5 mb 0.02 in0.5 mm 0.00 in0.0 mm 2.15 in54.6 mm
12:51 PM 44.0°F6.7°C 43.4°F6.3°C 98% 3.0 mph S4.8 kmh S 6.0 mph9.7 kmh 29.19 in988.5 mb 0.03 in0.8 mm 0.60 in15.2 mm 2.16 in54.9 mm
12:52 PM 44.2°F6.8°C 43.6°F6.4°C 98% 2.0 mph S3.2 kmh S 6.0 mph9.7 kmh 29.18 in988.1 mb 0.03 in0.8 mm 0.00 in0.0 mm 2.16 in54.9 mm
12:53 PM 44.2°F6.8°C 43.6°F6.4°C 98% 2.0 mph W3.2 kmh W 6.0 mph9.7 kmh 29.18 in988.1 mb 0.03 in0.8 mm 0.00 in0.0 mm 2.16 in54.9 mm
12:54 PM 44.2°F6.8°C 43.6°F6.4°C 98% 3.0 mph WSW4.8 kmh WSW 6.0 mph9.7 kmh 29.19 in988.5 mb 0.03 in0.8 mm 0.00 in0.0 mm 2.16 in54.9 mm
12:55 PM 44.2°F6.8°C 43.6°F6.4°C 98% 1.0 mph W1.6 kmh W 6.0 mph9.7 kmh 29.18 in988.1 mb 0.04 in1.0 mm 0.60 in15.2 mm 2.17 in55.1 mm
12:56 PM 44.2°F6.8°C 43.6°F6.4°C 98% 1.0 mph SW1.6 kmh SW 6.0 mph9.7 kmh 29.18 in988.1 mb 0.04 in1.0 mm 0.00 in0.0 mm 2.17 in55.1 mm
12:57 PM 44.4°F6.9°C 43.8°F6.6°C 98% 3.0 mph S4.8 kmh S 4.0 mph6.4 kmh 29.18 in988.1 mb 0.04 in1.0 mm 0.00 in0.0 mm 2.17 in55.1 mm
12:58 PM 44.4°F6.9°C 43.8°F6.6°C 98% 2.0 mph WSW3.2 kmh WSW 4.0 mph6.4 kmh 29.18 in988.1 mb 0.04 in1.0 mm 0.00 in0.0 mm 2.17 in55.1 mm
12:59 PM 44.6°F7.0°C 44.0°F6.7°C 98% 4.0 mph SSW6.4 kmh SSW 5.0 mph8.0 kmh 29.18 in988.1 mb 0.04 in1.0 mm 0.00 in0.0 mm 2.17 in55.1 mm
01:00 PM 44.8°F7.1°C 44.2°F6.8°C 98% 3.0 mph SW4.8 kmh SW 5.0 mph8.0 kmh 29.18 in988.1 mb 0.05 in1.3 mm 0.01 in0.3 mm 2.18 in55.4 mm
01:01 PM 44.8°F7.1°C 44.2°F6.8°C 98% 3.0 mph SW4.8 kmh SW 5.0 mph8.0 kmh 29.18 in988.1 mb 0.05 in1.3 mm 0.00 in0.0 mm 2.18 in55.4 mm
01:02 PM 44.8°F7.1°C 44.2°F6.8°C 98% 2.0 mph SSW3.2 kmh SSW 5.0 mph8.0 kmh 29.18 in988.1 mb 0.05 in1.3 mm 0.00 in0.0 mm 2.18 in55.4 mm
01:03 PM 45.0°F7.2°C 44.4°F6.9°C 98% 2.0 mph E3.2 kmh E 5.0 mph8.0 kmh 29.18 in988.1 mb 0.05 in1.3 mm 0.00 in0.0 mm 2.18 in55.4 mm
01:04 PM 45.0°F7.2°C 44.4°F6.9°C 98% 1.0 mph NNW1.6 kmh NNW 5.0 mph8.0 kmh 29.18 in988.1 mb 0.05 in1.3 mm 0.00 in0.0 mm 2.18 in55.4 mm
01:05 PM 45.0°F7.2°C 44.4°F6.9°C 98% 2.0 mph S3.2 kmh S 5.0 mph8.0 kmh 29.18 in988.1 mb 0.06 in1.5 mm 0.60 in15.2 mm 2.19 in55.6 mm
01:06 PM 45.0°F7.2°C 44.4°F6.9°C 98% 3.0 mph SW4.8 kmh SW 5.0 mph8.0 kmh 29.17 in987.8 mb 0.00 in0.0 mm 0.00 in0.0 mm 2.20 in55.9 mm
01:07 PM 45.0°F7.2°C 44.4°F6.9°C 98% 5.0 mph SE8.0 kmh SE 5.0 mph8.0 kmh 29.17 in987.8 mb 0.01 in0.3 mm 0.60 in15.2 mm 2.21 in56.1 mm
01:08 PM 45.0°F7.2°C 44.4°F6.9°C 98% 2.0 mph ENE3.2 kmh ENE 5.0 mph8.0 kmh 29.16 in987.5 mb 0.02 in0.5 mm 0.60 in15.2 mm 2.22 in56.4 mm
01:09 PM 45.0°F7.2°C 44.4°F6.9°C 98% 5.0 mph ESE8.0 kmh ESE 5.0 mph8.0 kmh 29.16 in987.5 mb 0.02 in0.5 mm 0.00 in0.0 mm 2.22 in56.4 mm
01:10 PM 45.2°F7.3°C 44.6°F7.0°C 98% 5.0 mph SSW8.0 kmh SSW 5.0 mph8.0 kmh 29.16 in987.5 mb 0.03 in0.8 mm 0.60 in15.2 mm 2.23 in56.6 mm
01:11 PM 45.2°F7.3°C 44.6°F7.0°C 98% 3.0 mph W4.8 kmh W 5.0 mph8.0 kmh 29.16 in987.5 mb 0.03 in0.8 mm 0.00 in0.0 mm 2.23 in56.6 mm
01:12 PM 45.5°F7.5°C 44.9°F7.2°C 98% 6.0 mph S9.7 kmh S 6.0 mph9.7 kmh 29.16 in987.5 mb 0.03 in0.8 mm 0.00 in0.0 mm 2.23 in56.6 mm
01:13 PM 45.5°F7.5°C 44.9°F7.2°C 98% 4.0 mph SSE6.4 kmh SSE 8.0 mph12.9 kmh 29.15 in987.1 mb 0.03 in0.8 mm 0.00 in0.0 mm 2.23 in56.6 mm
01:14 PM 45.5°F7.5°C 44.9°F7.2°C 98% 4.0 mph W6.4 kmh W 8.0 mph12.9 kmh 29.15 in987.1 mb 0.03 in0.8 mm 0.00 in0.0 mm 2.23 in56.6 mm
01:15 PM 45.5°F7.5°C 44.9°F7.2°C 98% 3.0 mph SSW4.8 kmh SSW 8.0 mph12.9 kmh 29.16 in987.5 mb 0.03 in0.8 mm 0.00 in0.0 mm 2.23 in56.6 mm
01:16 PM 45.7°F7.6°C 45.1°F7.3°C 98% 4.0 mph SSW6.4 kmh SSW 8.0 mph12.9 kmh 29.16 in987.5 mb 0.04 in1.0 mm 0.60 in15.2 mm 2.24 in56.9 mm
01:17 PM 45.9°F7.7°C 45.3°F7.4°C 98% 3.0 mph SSE4.8 kmh SSE 8.0 mph12.9 kmh 29.16 in987.5 mb 0.04 in1.0 mm 0.00 in0.0 mm 2.24 in56.9 mm
01:18 PM 45.9°F7.7°C 45.3°F7.4°C 98% 5.0 mph SW8.0 kmh SW 8.0 mph12.9 kmh 29.16 in987.5 mb 0.04 in1.0 mm 0.00 in0.0 mm 2.24 in56.9 mm
01:19 PM 45.9°F7.7°C 45.3°F7.4°C 98% 9.0 mph S14.5 kmh S 9.0 mph14.5 kmh 29.16 in987.5 mb 0.04 in1.0 mm 0.00 in0.0 mm 2.24 in56.9 mm
01:20 PM 45.9°F7.7°C 45.3°F7.4°C 98% 5.0 mph E8.0 kmh E 9.0 mph14.5 kmh 29.16 in987.5 mb 0.04 in1.0 mm 0.00 in0.0 mm 2.24 in56.9 mm
01:21 PM 45.9°F7.7°C 45.3°F7.4°C 98% 7.0 mph SW11.3 kmh SW 9.0 mph14.5 kmh 29.16 in987.5 mb 0.04 in1.0 mm 0.00 in0.0 mm 2.24 in56.9 mm
01:22 PM 45.9°F7.7°C 45.3°F7.4°C 98% 7.0 mph S11.3 kmh S 9.0 mph14.5 kmh 29.16 in987.5 mb 0.05 in1.3 mm 0.60 in15.2 mm 2.25 in57.2 mm
01:23 PM 45.9°F7.7°C 45.3°F7.4°C 98% 4.0 mph S6.4 kmh S 9.0 mph14.5 kmh 29.16 in987.5 mb 0.05 in1.3 mm 0.00 in0.0 mm 2.25 in57.2 mm
01:24 PM 45.9°F7.7°C 45.3°F7.4°C 98% 6.0 mph SSW9.7 kmh SSW 9.0 mph14.5 kmh 29.17 in987.8 mb 0.05 in1.3 mm 0.00 in0.0 mm 2.25 in57.2 mm
01:25 PM 45.9°F7.7°C 45.3°F7.4°C 98% 7.0 mph SSW11.3 kmh SSW 9.0 mph14.5 kmh 29.17 in987.8 mb 0.05 in1.3 mm 0.00 in0.0 mm 2.25 in57.2 mm
01:26 PM 46.1°F7.8°C 45.5°F7.5°C 98% 7.0 mph S11.3 kmh S 9.0 mph14.5 kmh 29.17 in987.8 mb 0.05 in1.3 mm 0.00 in0.0 mm 2.25 in57.2 mm
01:27 PM 46.1°F7.8°C 45.5°F7.5°C 98% 6.0 mph SSE9.7 kmh SSE 9.0 mph14.5 kmh 29.17 in987.8 mb 0.06 in1.5 mm 0.60 in15.2 mm 2.26 in57.4 mm
01:28 PM 46.1°F7.8°C 45.5°F7.5°C 98% 4.0 mph S6.4 kmh S 9.0 mph14.5 kmh 29.17 in987.8 mb 0.06 in1.5 mm 0.00 in0.0 mm 2.26 in57.4 mm
01:29 PM 46.4°F8.0°C 45.8°F7.7°C 98% 5.0 mph S8.0 kmh S 9.0 mph14.5 kmh 29.17 in987.8 mb 0.06 in1.5 mm 0.00 in0.0 mm 2.26 in57.4 mm
01:30 PM 46.5°F8.1°C 45.9°F7.7°C 98% 6.0 mph S9.7 kmh S 8.0 mph12.9 kmh 29.16 in987.5 mb 0.06 in1.5 mm 0.00 in0.0 mm 2.26 in57.4 mm
01:31 PM 46.5°F8.1°C 45.9°F7.7°C 98% 5.0 mph SSW8.0 kmh SSW 8.0 mph12.9 kmh 29.16 in987.5 mb 0.06 in1.5 mm 0.00 in0.0 mm 2.26 in57.4 mm
01:32 PM 46.5°F8.1°C 45.9°F7.7°C 98% 7.0 mph SSE11.3 kmh SSE 8.0 mph12.9 kmh 29.16 in987.5 mb 0.06 in1.5 mm 0.00 in0.0 mm 2.26 in57.4 mm
01:33 PM 46.5°F8.1°C 45.9°F7.7°C 98% 4.0 mph SSW6.4 kmh SSW 8.0 mph12.9 kmh 29.16 in987.5 mb 0.06 in1.5 mm 0.00 in0.0 mm 2.26 in57.4 mm
01:34 PM 46.5°F8.1°C 45.9°F7.7°C 98% 5.0 mph ESE8.0 kmh ESE 8.0 mph12.9 kmh 29.16 in987.5 mb 0.06 in1.5 mm 0.00 in0.0 mm 2.26 in57.4 mm
01:35 PM 46.5°F8.1°C 45.9°F7.7°C 98% 3.0 mph SSE4.8 kmh SSE 8.0 mph12.9 kmh 29.16 in987.5 mb 0.06 in1.5 mm 0.00 in0.0 mm 2.26 in57.4 mm
01:36 PM 46.5°F8.1°C 45.9°F7.7°C 98% 5.0 mph W8.0 kmh W 8.0 mph12.9 kmh 29.16 in987.5 mb 0.06 in1.5 mm 0.00 in0.0 mm 2.26 in57.4 mm
01:37 PM 46.5°F8.1°C 45.9°F7.7°C 98% 6.0 mph S9.7 kmh S 8.0 mph12.9 kmh 29.16 in987.5 mb 0.06 in1.5 mm 0.00 in0.0 mm 2.26 in57.4 mm
01:38 PM 46.5°F8.1°C 45.9°F7.7°C 98% 4.0 mph SSW6.4 kmh SSW 8.0 mph12.9 kmh 29.16 in987.5 mb 0.06 in1.5 mm 0.00 in0.0 mm 2.26 in57.4 mm
01:39 PM 46.5°F8.1°C 45.9°F7.7°C 98% 3.0 mph S4.8 kmh S 8.0 mph12.9 kmh 29.16 in987.5 mb 0.06 in1.5 mm 0.00 in0.0 mm 2.26 in57.4 mm
01:40 PM 46.5°F8.1°C 45.9°F7.7°C 98% 7.0 mph NNE11.3 kmh NNE 8.0 mph12.9 kmh 29.17 in987.8 mb 0.06 in1.5 mm 0.00 in0.0 mm 2.26 in57.4 mm
01:41 PM 46.5°F8.1°C 45.9°F7.7°C 98% 5.0 mph S8.0 kmh S 8.0 mph12.9 kmh 29.17 in987.8 mb 0.06 in1.5 mm 0.00 in0.0 mm 2.26 in57.4 mm
01:42 PM 46.5°F8.1°C 45.9°F7.7°C 98% 3.0 mph NNE4.8 kmh NNE 8.0 mph12.9 kmh 29.18 in988.1 mb 0.06 in1.5 mm 0.00 in0.0 mm 2.26 in57.4 mm
01:43 PM 46.5°F8.1°C 45.9°F7.7°C 98% 5.0 mph 8.0 kmh 8.0 mph12.9 kmh 29.18 in988.1 mb 0.06 in1.5 mm 0.00 in0.0 mm 2.26 in57.4 mm
01:44 PM 46.5°F8.1°C 45.9°F7.7°C 98% 5.0 mph WNW8.0 kmh WNW 7.0 mph11.3 kmh 29.19 in988.5 mb 0.06 in1.5 mm 0.00 in0.0 mm 2.26 in57.4 mm
01:45 PM 46.4°F8.0°C 45.8°F7.7°C 98% 7.0 mph W11.3 kmh W 10.0 mph16.1 kmh 29.19 in988.5 mb 0.06 in1.5 mm 0.00 in0.0 mm 2.26 in57.4 mm
01:46 PM 45.9°F7.7°C 45.3°F7.4°C 98% 9.0 mph NW14.5 kmh NW 10.0 mph16.1 kmh 29.20 in988.8 mb 0.06 in1.5 mm 0.00 in0.0 mm 2.26 in57.4 mm
01:47 PM 45.5°F7.5°C 44.9°F7.2°C 98% 13.0 mph NW20.9 kmh NW 19.0 mph30.6 kmh 29.20 in988.8 mb 0.06 in1.5 mm 0.00 in0.0 mm 2.26 in57.4 mm
01:48 PM 44.8°F7.1°C 44.2°F6.8°C 98% 7.0 mph NNW11.3 kmh NNW 19.0 mph30.6 kmh 29.20 in988.8 mb 0.06 in1.5 mm 0.00 in0.0 mm 2.26 in57.4 mm
01:49 PM 44.6°F7.0°C 44.0°F6.7°C 98% 10.0 mph NW16.1 kmh NW 19.0 mph30.6 kmh 29.20 in988.8 mb 0.06 in1.5 mm 0.00 in0.0 mm 2.26 in57.4 mm
01:50 PM 44.6°F7.0°C 44.0°F6.7°C 98% 6.0 mph WNW9.7 kmh WNW 19.0 mph30.6 kmh 29.20 in988.8 mb 0.08 in2.0 mm 1.20 in30.5 mm 2.28 in57.9 mm
01:51 PM 44.6°F7.0°C 44.0°F6.7°C 98% 6.0 mph NW9.7 kmh NW 19.0 mph30.6 kmh 29.20 in988.8 mb 0.09 in2.3 mm 0.60 in15.2 mm 2.29 in58.2 mm
01:52 PM 44.4°F6.9°C 43.8°F6.6°C 98% 15.0 mph W24.1 kmh W 19.0 mph30.6 kmh 29.20 in988.8 mb 0.10 in2.5 mm 0.60 in15.2 mm 2.30 in58.4 mm
01:53 PM 43.0°F6.1°C 42.5°F5.8°C 98% 18.0 mph WNW29.0 kmh WNW 21.0 mph33.8 kmh 29.20 in988.8 mb 0.10 in2.5 mm 0.00 in0.0 mm 2.30 in58.4 mm
01:54 PM 42.1°F5.6°C 41.6°F5.3°C 98% 13.0 mph WNW20.9 kmh WNW 21.0 mph33.8 kmh 29.20 in988.8 mb 0.10 in2.5 mm 0.00 in0.0 mm 2.30 in58.4 mm
01:55 PM 41.1°F5.1°C 40.6°F4.8°C 98% 10.0 mph NW16.1 kmh NW 21.0 mph33.8 kmh 29.20 in988.8 mb 0.10 in2.5 mm 0.00 in0.0 mm 2.30 in58.4 mm
01:56 PM 40.9°F4.9°C 40.4°F4.7°C 98% 7.0 mph NW11.3 kmh NW 21.0 mph33.8 kmh 29.20 in988.8 mb 0.11 in2.8 mm 0.60 in15.2 mm 2.31 in58.7 mm
01:57 PM 40.7°F4.8°C 40.2°F4.6°C 98% 7.0 mph NW11.3 kmh NW 21.0 mph33.8 kmh 29.20 in988.8 mb 0.11 in2.8 mm 0.00 in0.0 mm 2.31 in58.7 mm
01:58 PM 39.9°F4.4°C 39.4°F4.1°C 98% 12.0 mph NW19.3 kmh NW 21.0 mph33.8 kmh 29.21 in989.2 mb 0.11 in2.8 mm 0.00 in0.0 mm 2.31 in58.7 mm
01:59 PM 39.4°F4.1°C 38.9°F3.8°C 98% 16.0 mph NW25.7 kmh NW 21.0 mph33.8 kmh 29.20 in988.8 mb 0.11 in2.8 mm 0.00 in0.0 mm 2.31 in58.7 mm
02:00 PM 38.7°F3.7°C 38.2°F3.4°C 98% 13.0 mph NW20.9 kmh NW 21.0 mph33.8 kmh 29.21 in989.2 mb 0.11 in2.8 mm 0.00 in0.0 mm 2.31 in58.7 mm
02:01 PM 38.0°F3.3°C 37.5°F3.1°C 98% 10.0 mph NW16.1 kmh NW 21.0 mph33.8 kmh 29.21 in989.2 mb 0.11 in2.8 mm 0.00 in0.0 mm 2.31 in58.7 mm
02:02 PM 37.7°F3.2°C 37.2°F2.9°C 98% 8.0 mph 12.9 kmh 21.0 mph33.8 kmh 29.21 in989.2 mb 0.11 in2.8 mm 0.00 in0.0 mm 2.31 in58.7 mm
02:03 PM 37.4°F3.0°C 36.9°F2.7°C 98% 12.0 mph WNW19.3 kmh WNW 16.0 mph25.7 kmh 29.21 in989.2 mb 0.12 in3.0 mm 0.60 in15.2 mm 2.32 in58.9 mm
02:04 PM 37.0°F2.8°C 36.5°F2.5°C 98% 13.0 mph NNW20.9 kmh NNW 16.0 mph25.7 kmh 29.21 in989.2 mb 0.12 in3.0 mm 0.00 in0.0 mm 2.32 in58.9 mm
02:05 PM 36.1°F2.3°C 35.6°F2.0°C 98% 13.0 mph NNW20.9 kmh NNW 16.0 mph25.7 kmh 29.21 in989.2 mb 0.12 in3.0 mm 0.00 in0.0 mm 2.32 in58.9 mm
02:06 PM 35.4°F1.9°C 34.9°F1.6°C 98% 12.0 mph 19.3 kmh 16.0 mph25.7 kmh 29.21 in989.2 mb 0.00 in0.0 mm 0.00 in0.0 mm 2.32 in58.9 mm
02:07 PM 34.7°F1.5°C 34.2°F1.2°C 98% 12.0 mph NW19.3 kmh NW 16.0 mph25.7 kmh 29.21 in989.2 mb 0.00 in0.0 mm 0.00 in0.0 mm 2.32 in58.9 mm
02:08 PM 34.5°F1.4°C 34.0°F1.1°C 98% 10.0 mph 16.1 kmh 16.0 mph25.7 kmh 29.21 in989.2 mb 0.00 in0.0 mm 0.00 in0.0 mm 2.32 in58.9 mm
02:09 PM 34.2°F1.2°C 33.7°F0.9°C 98% 8.0 mph NNW12.9 kmh NNW 13.0 mph20.9 kmh 29.21 in989.2 mb 0.00 in0.0 mm 0.00 in0.0 mm 2.32 in58.9 mm
02:10 PM 34.0°F1.1°C 33.5°F0.8°C 98% 8.0 mph NNW12.9 kmh NNW 13.0 mph20.9 kmh 29.21 in989.2 mb 0.00 in0.0 mm 0.00 in0.0 mm 2.32 in58.9 mm
02:11 PM 34.0°F1.1°C 33.5°F0.8°C 98% 10.0 mph 16.1 kmh 13.0 mph20.9 kmh 29.21 in989.2 mb 0.00 in0.0 mm 0.00 in0.0 mm 2.32 in58.9 mm
02:12 PM 33.8°F1.0°C 33.3°F0.7°C 98% 8.0 mph 12.9 kmh 13.0 mph20.9 kmh 29.21 in989.2 mb 0.00 in0.0 mm 0.00 in0.0 mm 2.32 in58.9 mm
02:13 PM 33.8°F1.0°C 33.3°F0.7°C 98% 8.0 mph NNW12.9 kmh NNW 13.0 mph20.9 kmh 29.21 in989.2 mb 0.00 in0.0 mm 0.00 in0.0 mm 2.32 in58.9 mm
02:14 PM 33.5°F0.8°C 33.0°F0.6°C 98% 6.0 mph 9.7 kmh 13.0 mph20.9 kmh 29.21 in989.2 mb 0.00 in0.0 mm 0.00 in0.0 mm 2.32 in58.9 mm
02:15 PM 33.5°F0.8°C 33.0°F0.6°C 98% 9.0 mph NW14.5 kmh NW 13.0 mph20.9 kmh 29.21 in989.2 mb 0.00 in0.0 mm 0.00 in0.0 mm 2.32 in58.9 mm
02:16 PM 33.4°F0.8°C 32.9°F0.5°C 98% 9.0 mph 14.5 kmh 13.0 mph20.9 kmh 29.21 in989.2 mb 0.00 in0.0 mm 0.00 in0.0 mm 2.32 in58.9 mm
02:17 PM 33.2°F0.7°C 32.7°F0.4°C 98% 9.0 mph NNE14.5 kmh NNE 13.0 mph20.9 kmh 29.21 in989.2 mb 0.00 in0.0 mm 0.00 in0.0 mm 2.32 in58.9 mm
02:18 PM 33.2°F0.7°C 32.7°F0.4°C 98% 10.0 mph NW16.1 kmh NW 13.0 mph20.9 kmh 29.22 in989.5 mb 0.00 in0.0 mm 0.00 in0.0 mm 2.32 in58.9 mm
02:19 PM 33.2°F0.7°C 32.7°F0.4°C 98% 11.0 mph NW17.7 kmh NW 13.0 mph20.9 kmh 29.22 in989.5 mb 0.00 in0.0 mm 0.00 in0.0 mm 2.32 in58.9 mm
02:20 PM 33.0°F0.6°C 32.5°F0.3°C 98% 7.0 mph NNE11.3 kmh NNE 13.0 mph20.9 kmh 29.22 in989.5 mb 0.00 in0.0 mm 0.00 in0.0 mm 2.32 in58.9 mm
02:21 PM 32.6°F0.3°C 32.1°F0.1°C 98% 5.0 mph NNW8.0 kmh NNW 13.0 mph20.9 kmh 29.22 in989.5 mb 0.00 in0.0 mm 0.00 in0.0 mm 2.32 in58.9 mm
02:22 PM 32.6°F0.3°C 32.1°F0.1°C 98% 9.0 mph NW14.5 kmh NW 13.0 mph20.9 kmh 29.22 in989.5 mb 0.00 in0.0 mm 0.00 in0.0 mm 2.32 in58.9 mm
02:23 PM 32.6°F0.3°C 32.1°F0.1°C 98% 8.0 mph WNW12.9 kmh WNW 13.0 mph20.9 kmh 29.22 in989.5 mb 0.00 in0.0 mm 0.00 in0.0 mm 2.32 in58.9 mm
02:24 PM 32.5°F0.3°C 32.0°F0.0°C 98% 9.0 mph NW14.5 kmh NW 13.0 mph20.9 kmh 29.22 in989.5 mb 0.00 in0.0 mm 0.00 in0.0 mm 2.32 in58.9 mm
02:25 PM 32.4°F0.2°C 31.9°F-0.1°C 98% 13.0 mph NW20.9 kmh NW 13.0 mph20.9 kmh 29.22 in989.5 mb 0.00 in0.0 mm 0.00 in0.0 mm 2.32 in58.9 mm
02:26 PM 32.2°F0.1°C 31.7°F-0.2°C 98% 8.0 mph ESE12.9 kmh ESE 13.0 mph20.9 kmh 29.22 in989.5 mb 0.00 in0.0 mm 0.00 in0.0 mm 2.32 in58.9 mm
02:27 PM 32.2°F0.1°C 31.7°F-0.2°C 98% 11.0 mph NW17.7 kmh NW 13.0 mph20.9 kmh 29.22 in989.5 mb 0.00 in0.0 mm 0.00 in0.0 mm 2.32 in58.9 mm
02:28 PM 32.2°F0.1°C 31.7°F-0.2°C 98% 11.0 mph NNE17.7 kmh NNE 13.0 mph20.9 kmh 29.22 in989.5 mb 0.00 in0.0 mm 0.00 in0.0 mm 2.32 in58.9 mm
02:29 PM 31.7°F-0.2°C 31.2°F-0.4°C 98% 13.0 mph NNE20.9 kmh NNE 13.0 mph20.9 kmh 29.22 in989.5 mb 0.00 in0.0 mm 0.00 in0.0 mm 2.32 in58.9 mm
02:30 PM 31.6°F-0.2°C 31.1°F-0.5°C 98% 12.0 mph WNW19.3 kmh WNW 13.0 mph20.9 kmh 29.22 in989.5 mb 0.00 in0.0 mm 0.00 in0.0 mm 2.32 in58.9 mm
02:31 PM 31.2°F-0.4°C 30.7°F-0.7°C 98% 12.0 mph NW19.3 kmh NW 13.0 mph20.9 kmh 29.22 in989.5 mb 0.00 in0.0 mm 0.00 in0.0 mm 2.32 in58.9 mm
02:32 PM 31.1°F-0.5°C 30.6°F-0.8°C 98% 10.0 mph NNW16.1 kmh NNW 13.0 mph20.9 kmh 29.22 in989.5 mb 0.00 in0.0 mm 0.00 in0.0 mm 2.32 in58.9 mm
02:33 PM 31.1°F-0.5°C 30.6°F-0.8°C 98% 10.0 mph NE16.1 kmh NE 13.0 mph20.9 kmh 29.22 in989.5 mb 0.00 in0.0 mm 0.00 in0.0 mm 2.32 in58.9 mm
02:34 PM 31.1°F-0.5°C 30.6°F-0.8°C 98% 9.0 mph WNW14.5 kmh WNW 13.0 mph20.9 kmh 29.23 in989.8 mb 0.00 in0.0 mm 0.00 in0.0 mm 2.32 in58.9 mm
02:35 PM 31.1°F-0.5°C 30.6°F-0.8°C 98% 10.0 mph NNE16.1 kmh NNE 13.0 mph20.9 kmh 29.23 in989.8 mb 0.00 in0.0 mm 0.00 in0.0 mm 2.32 in58.9 mm
02:36 PM 31.1°F-0.5°C 30.6°F-0.8°C 98% 9.0 mph NNW14.5 kmh NNW 13.0 mph20.9 kmh 29.23 in989.8 mb 0.00 in0.0 mm 0.00 in0.0 mm 2.32 in58.9 mm
02:37 PM 30.8°F-0.7°C 30.3°F-0.9°C 98% 10.0 mph NW16.1 kmh NW 13.0 mph20.9 kmh 29.23 in989.8 mb 0.00 in0.0 mm 0.00 in0.0 mm 2.32 in58.9 mm
02:38 PM 30.7°F-0.7°C 30.2°F-1.0°C 98% 9.0 mph NNW14.5 kmh NNW 13.0 mph20.9 kmh 29.23 in989.8 mb 0.00 in0.0 mm 0.00 in0.0 mm 2.32 in58.9 mm
02:39 PM 30.7°F-0.7°C 30.2°F-1.0°C 98% 7.0 mph NW11.3 kmh NW 13.0 mph20.9 kmh 29.23 in989.8 mb 0.00 in0.0 mm 0.00 in0.0 mm 2.32 in58.9 mm
02:40 PM 30.5°F-0.8°C 30.0°F-1.1°C 98% 4.0 mph NNE6.4 kmh NNE 13.0 mph20.9 kmh 29.23 in989.8 mb 0.00 in0.0 mm 0.00 in0.0 mm 2.32 in58.9 mm
02:41 PM 30.3°F-0.9°C 29.8°F-1.2°C 98% 7.0 mph NE11.3 kmh NE 12.0 mph19.3 kmh 29.23 in989.8 mb 0.00 in0.0 mm 0.00 in0.0 mm 2.32 in58.9 mm
02:42 PM 30.1°F-1.1°C 29.6°F-1.3°C 98% 8.0 mph NE12.9 kmh NE 10.0 mph16.1 kmh 29.23 in989.8 mb 0.00 in0.0 mm 0.00 in0.0 mm 2.32 in58.9 mm
02:43 PM 30.1°F-1.1°C 29.6°F-1.3°C 98% 9.0 mph NNE14.5 kmh NNE 10.0 mph16.1 kmh 29.23 in989.8 mb 0.00 in0.0 mm 0.00 in0.0 mm 2.32 in58.9 mm
02:44 PM 30.1°F-1.1°C 29.6°F-1.3°C 98% 10.0 mph WNW16.1 kmh WNW 12.0 mph19.3 kmh 29.23 in989.8 mb 0.00 in0.0 mm 0.00 in0.0 mm 2.32 in58.9 mm
02:45 PM 30.1°F-1.1°C 29.6°F-1.3°C 98% 11.0 mph WNW17.7 kmh WNW 12.0 mph19.3 kmh 29.23 in989.8 mb 0.00 in0.0 mm 0.00 in0.0 mm 2.32 in58.9 mm
02:46 PM 30.0°F-1.1°C 29.5°F-1.4°C 98% 14.0 mph NNW22.5 kmh NNW 20.0 mph32.2 kmh 29.23 in989.8 mb 0.00 in0.0 mm 0.00 in0.0 mm 2.32 in58.9 mm
02:47 PM 29.8°F-1.2°C 29.3°F-1.5°C 98% 9.0 mph NNW14.5 kmh NNW 20.0 mph32.2 kmh 29.23 in989.8 mb 0.00 in0.0 mm 0.00 in0.0 mm 2.32 in58.9 mm
02:48 PM 30.0°F-1.1°C 29.5°F-1.4°C 98% 7.0 mph NNW11.3 kmh NNW 20.0 mph32.2 kmh 29.24 in990.2 mb 0.00 in0.0 mm 0.00 in0.0 mm 2.32 in58.9 mm
02:49 PM 30.1°F-1.1°C 29.6°F-1.3°C 98% 11.0 mph NNE17.7 kmh NNE 20.0 mph32.2 kmh 29.23 in989.8 mb 0.00 in0.0 mm 0.00 in0.0 mm 2.32 in58.9 mm
02:50 PM 30.1°F-1.1°C 29.6°F-1.3°C 98% 14.0 mph W22.5 kmh W 20.0 mph32.2 kmh 29.24 in990.2 mb 0.00 in0.0 mm 0.00 in0.0 mm 2.32 in58.9 mm
02:51 PM 30.1°F-1.1°C 29.6°F-1.3°C 98% 6.0 mph NE9.7 kmh NE 20.0 mph32.2 kmh 29.24 in990.2 mb 0.00 in0.0 mm 0.00 in0.0 mm 2.32 in58.9 mm
02:52 PM 30.1°F-1.1°C 29.6°F-1.3°C 98% 7.0 mph NNW11.3 kmh NNW 20.0 mph32.2 kmh 29.24 in990.2 mb 0.00 in0.0 mm 0.00 in0.0 mm 2.32 in58.9 mm
02:53 PM 30.1°F-1.1°C 29.6°F-1.3°C 98% 8.0 mph NNW12.9 kmh NNW 20.0 mph32.2 kmh 29.24 in990.2 mb 0.00 in0.0 mm 0.00 in0.0 mm 2.32 in58.9 mm
02:54 PM 30.1°F-1.1°C 29.6°F-1.3°C 98% 10.0 mph 16.1 kmh 20.0 mph32.2 kmh 29.23 in989.8 mb 0.00 in0.0 mm 0.00 in0.0 mm 2.32 in58.9 mm
02:55 PM 30.3°F-0.9°C 29.8°F-1.2°C 98% 9.0 mph NNW14.5 kmh NNW 20.0 mph32.2 kmh 29.23 in989.8 mb 0.00 in0.0 mm 0.00 in0.0 mm 2.32 in58.9 mm
02:56 PM 30.3°F-0.9°C 29.8°F-1.2°C 98% 11.0 mph W17.7 kmh W 14.0 mph22.5 kmh 29.24 in990.2 mb 0.00 in0.0 mm 0.00 in0.0 mm 2.32 in58.9 mm
02:57 PM 30.3°F-0.9°C 29.8°F-1.2°C 98% 5.0 mph NE8.0 kmh NE 14.0 mph22.5 kmh 29.24 in990.2 mb 0.00 in0.0 mm 0.00 in0.0 mm 2.32 in58.9 mm
02:58 PM 30.3°F-0.9°C 29.8°F-1.2°C 98% 6.0 mph NNE9.7 kmh NNE 14.0 mph22.5 kmh 29.23 in989.8 mb 0.00 in0.0 mm 0.00 in0.0 mm 2.32 in58.9 mm
02:59 PM 30.1°F-1.1°C 29.6°F-1.3°C 98% 7.0 mph NNE11.3 kmh NNE 14.0 mph22.5 kmh 29.23 in989.8 mb 0.00 in0.0 mm 0.00 in0.0 mm 2.32 in58.9 mm
03:00 PM 30.1°F-1.1°C 29.6°F-1.3°C 98% 4.0 mph W6.4 kmh W 13.0 mph20.9 kmh 29.23 in989.8 mb 0.00 in0.0 mm 0.00 in0.0 mm 2.32 in58.9 mm
03:01 PM 30.1°F-1.1°C 29.6°F-1.3°C 98% 8.0 mph NNW12.9 kmh NNW 14.0 mph22.5 kmh 29.23 in989.8 mb 0.00 in0.0 mm 0.00 in0.0 mm 2.32 in58.9 mm
03:02 PM 30.0°F-1.1°C 29.5°F-1.4°C 98% 7.0 mph NNW11.3 kmh NNW 14.0 mph22.5 kmh 29.23 in989.8 mb 0.00 in0.0 mm 0.00 in0.0 mm 2.32 in58.9 mm
03:03 PM 30.0°F-1.1°C 29.5°F-1.4°C 98% 8.0 mph NNE12.9 kmh NNE 14.0 mph22.5 kmh 29.23 in989.8 mb 0.00 in0.0 mm 0.00 in0.0 mm 2.32 in58.9 mm
03:04 PM 29.8°F-1.2°C 29.3°F-1.5°C 98% 4.0 mph ESE6.4 kmh ESE 14.0 mph22.5 kmh 29.24 in990.2 mb 0.00 in0.0 mm 0.00 in0.0 mm 2.32 in58.9 mm
03:05 PM 29.8°F-1.2°C 29.3°F-1.5°C 98% 8.0 mph NE12.9 kmh NE 14.0 mph22.5 kmh 29.24 in990.2 mb 0.00 in0.0 mm 0.00 in0.0 mm 2.32 in58.9 mm
03:06 PM 29.8°F-1.2°C 29.3°F-1.5°C 98% 4.0 mph NE6.4 kmh NE 14.0 mph22.5 kmh 29.24 in990.2 mb 0.00 in0.0 mm 0.00 in0.0 mm 2.32 in58.9 mm
03:07 PM 29.8°F-1.2°C 29.3°F-1.5°C 98% 7.0 mph NNE11.3 kmh NNE 14.0 mph22.5 kmh 29.24 in990.2 mb 0.00 in0.0 mm 0.00 in0.0 mm 2.32 in58.9 mm
03:08 PM 29.8°F-1.2°C 29.3°F-1.5°C 98% 11.0 mph NNW17.7 kmh NNW 14.0 mph22.5 kmh 29.24 in990.2 mb 0.00 in0.0 mm 0.00 in0.0 mm 2.32 in58.9 mm
03:09 PM 29.8°F-1.2°C 29.3°F-1.5°C 98% 12.0 mph NW19.3 kmh NW 14.0 mph22.5 kmh 29.24 in990.2 mb 0.00 in0.0 mm 0.00 in0.0 mm 2.32 in58.9 mm
03:10 PM 29.8°F-1.2°C 29.3°F-1.5°C 98% 5.0 mph NNE8.0 kmh NNE 14.0 mph22.5 kmh 29.24 in990.2 mb 0.00 in0.0 mm 0.00 in0.0 mm 2.32 in58.9 mm
03:11 PM 29.8°F-1.2°C 29.3°F-1.5°C 98% 12.0 mph NW19.3 kmh NW 14.0 mph22.5 kmh 29.24 in990.2 mb 0.00 in0.0 mm 0.00 in0.0 mm 2.32 in58.9 mm
03:12 PM 29.8°F-1.2°C 29.3°F-1.5°C 98% 8.0 mph NNW12.9 kmh NNW 14.0 mph22.5 kmh 29.25 in990.5 mb 0.00 in0.0 mm 0.00 in0.0 mm 2.32 in58.9 mm
03:13 PM 29.8°F-1.2°C 29.3°F-1.5°C 98% 7.0 mph NE11.3 kmh NE 14.0 mph22.5 kmh 29.24 in990.2 mb 0.00 in0.0 mm 0.00 in0.0 mm 2.32 in58.9 mm
03:14 PM 29.8°F-1.2°C 29.3°F-1.5°C 98% 4.0 mph NE6.4 kmh NE 14.0 mph22.5 kmh 29.24 in990.2 mb 0.00 in0.0 mm 0.00 in0.0 mm 2.32 in58.9 mm
03:15 PM 30.0°F-1.1°C 29.5°F-1.4°C 98% 10.0 mph NNW16.1 kmh NNW 12.0 mph19.3 kmh 29.24 in990.2 mb 0.00 in0.0 mm 0.00 in0.0 mm 2.32 in58.9 mm
03:16 PM 30.0°F-1.1°C 29.5°F-1.4°C 98% 9.0 mph NNE14.5 kmh NNE 12.0 mph19.3 kmh 29.24 in990.2 mb 0.00 in0.0 mm 0.00 in0.0 mm 2.32 in58.9 mm
03:17 PM 30.0°F-1.1°C 29.5°F-1.4°C 98% 8.0 mph 12.9 kmh 12.0 mph19.3 kmh 29.24 in990.2 mb 0.00 in0.0 mm 0.00 in0.0 mm 2.32 in58.9 mm
03:18 PM 30.0°F-1.1°C 29.5°F-1.4°C 98% 7.0 mph NNE11.3 kmh NNE 12.0 mph19.3 kmh 29.25 in990.5 mb 0.00 in0.0 mm 0.00 in0.0 mm 2.32 in58.9 mm
03:19 PM 30.0°F-1.1°C 29.5°F-1.4°C 98% 8.0 mph NE12.9 kmh NE 12.0 mph19.3 kmh 29.25 in990.5 mb 0.00 in0.0 mm 0.00 in0.0 mm 2.32 in58.9 mm
03:20 PM 30.1°F-1.1°C 29.6°F-1.3°C 98% 7.0 mph NNE11.3 kmh NNE 12.0 mph19.3 kmh 29.25 in990.5 mb 0.00 in0.0 mm 0.00 in0.0 mm 2.32 in58.9 mm
03:21 PM 30.1°F-1.1°C 29.6°F-1.3°C 98% 6.0 mph 9.7 kmh 12.0 mph19.3 kmh 29.25 in990.5 mb 0.00 in0.0 mm 0.00 in0.0 mm 2.32 in58.9 mm
03:22 PM 30.1°F-1.1°C 29.6°F-1.3°C 98% 7.0 mph NNW11.3 kmh NNW 11.0 mph17.7 kmh 29.25 in990.5 mb 0.00 in0.0 mm 0.00 in0.0 mm 2.32 in58.9 mm
03:23 PM 30.1°F-1.1°C 29.6°F-1.3°C 98% 9.0 mph NW14.5 kmh NW 11.0 mph17.7 kmh 29.25 in990.5 mb 0.00 in0.0 mm 0.00 in0.0 mm 2.32 in58.9 mm
03:24 PM 30.0°F-1.1°C 29.5°F-1.4°C 98% 6.0 mph WNW9.7 kmh WNW 11.0 mph17.7 kmh 29.25 in990.5 mb 0.00 in0.0 mm 0.00 in0.0 mm 2.32 in58.9 mm
03:25 PM 30.0°F-1.1°C 29.5°F-1.4°C 98% 8.0 mph NNW12.9 kmh NNW 11.0 mph17.7 kmh 29.25 in990.5 mb 0.00 in0.0 mm 0.00 in0.0 mm 2.32 in58.9 mm
03:26 PM 30.1°F-1.1°C 29.6°F-1.3°C 98% 6.0 mph NNW9.7 kmh NNW 11.0 mph17.7 kmh 29.25 in990.5 mb 0.00 in0.0 mm 0.00 in0.0 mm 2.32 in58.9 mm
03:27 PM 30.1°F-1.1°C 29.6°F-1.3°C 98% 5.0 mph WNW8.0 kmh WNW 11.0 mph17.7 kmh 29.25 in990.5 mb 0.00 in0.0 mm 0.00 in0.0 mm 2.32 in58.9 mm
03:28 PM 30.1°F-1.1°C 29.6°F-1.3°C 98% 9.0 mph NNW14.5 kmh NNW 11.0 mph17.7 kmh 29.25 in990.5 mb 0.00 in0.0 mm 0.00 in0.0 mm 2.32 in58.9 mm
03:29 PM 30.1°F-1.1°C 29.6°F-1.3°C 98% 9.0 mph 14.5 kmh 11.0 mph17.7 kmh 29.25 in990.5 mb 0.00 in0.0 mm 0.00 in0.0 mm 2.32 in58.9 mm
03:30 PM 30.1°F-1.1°C 29.6°F-1.3°C 98% 6.0 mph NNE9.7 kmh NNE 11.0 mph17.7 kmh 29.25 in990.5 mb 0.00 in0.0 mm 0.00 in0.0 mm 2.32 in58.9 mm
03:31 PM 30.1°F-1.1°C 29.6°F-1.3°C 98% 7.0 mph NNE11.3 kmh NNE 11.0 mph17.7 kmh 29.25 in990.5 mb 0.00 in0.0 mm 0.00 in0.0 mm 2.32 in58.9 mm
03:32 PM 30.1°F-1.1°C 29.6°F-1.3°C 98% 10.0 mph NW16.1 kmh NW 11.0 mph17.7 kmh 29.25 in990.5 mb 0.00 in0.0 mm 0.00 in0.0 mm 2.32 in58.9 mm
03:33 PM 30.1°F-1.1°C 29.6°F-1.3°C 98% 9.0 mph NNW14.5 kmh NNW 12.0 mph19.3 kmh 29.25 in990.5 mb 0.00 in0.0 mm 0.00 in0.0 mm 2.32 in58.9 mm
03:34 PM 30.1°F-1.1°C 29.6°F-1.3°C 98% 9.0 mph NW14.5 kmh NW 12.0 mph19.3 kmh 29.25 in990.5 mb 0.00 in0.0 mm 0.00 in0.0 mm 2.32 in58.9 mm
03:35 PM 30.1°F-1.1°C 29.6°F-1.3°C 98% 9.0 mph WNW14.5 kmh WNW 12.0 mph19.3 kmh 29.25 in990.5 mb 0.00 in0.0 mm 0.00 in0.0 mm 2.32 in58.9 mm
03:36 PM 30.3°F-0.9°C 29.8°F-1.2°C 98% 10.0 mph NW16.1 kmh NW 12.0 mph19.3 kmh 29.25 in990.5 mb 0.00 in0.0 mm 0.00 in0.0 mm 2.32 in58.9 mm
03:37 PM 30.3°F-0.9°C 29.8°F-1.2°C 98% 11.0 mph WNW17.7 kmh WNW 12.0 mph19.3 kmh 29.25 in990.5 mb 0.00 in0.0 mm 0.00 in0.0 mm 2.32 in58.9 mm
03:38 PM 30.3°F-0.9°C 29.8°F-1.2°C 98% 7.0 mph WNW11.3 kmh WNW 12.0 mph19.3 kmh 29.25 in990.5 mb 0.00 in0.0 mm 0.00 in0.0 mm 2.32 in58.9 mm
03:39 PM 30.3°F-0.9°C 29.8°F-1.2°C 98% 12.0 mph NNW19.3 kmh NNW 12.0 mph19.3 kmh 29.25 in990.5 mb 0.00 in0.0 mm 0.00 in0.0 mm 2.32 in58.9 mm
03:40 PM 30.3°F-0.9°C 29.8°F-1.2°C 98% 10.0 mph WNW16.1 kmh WNW 15.0 mph24.1 kmh 29.26 in990.9 mb 0.00 in0.0 mm 0.00 in0.0 mm 2.32 in58.9 mm
03:41 PM 30.3°F-0.9°C 29.8°F-1.2°C 98% 10.0 mph NW16.1 kmh NW 15.0 mph24.1 kmh 29.26 in990.9 mb 0.00 in0.0 mm 0.00 in0.0 mm 2.32 in58.9 mm
03:42 PM 30.3°F-0.9°C 29.8°F-1.2°C 98% 8.0 mph NW12.9 kmh NW 15.0 mph24.1 kmh 29.26 in990.9 mb 0.00 in0.0 mm 0.00 in0.0 mm 2.32 in58.9 mm
03:43 PM 30.3°F-0.9°C 29.8°F-1.2°C 98% 8.0 mph NW12.9 kmh NW 15.0 mph24.1 kmh 29.26 in990.9 mb 0.00 in0.0 mm 0.00 in0.0 mm 2.32 in58.9 mm
03:44 PM 30.3°F-0.9°C 29.8°F-1.2°C 98% 9.0 mph 14.5 kmh 15.0 mph24.1 kmh 29.26 in990.9 mb 0.00 in0.0 mm 0.00 in0.0 mm 2.32 in58.9 mm
03:45 PM 30.3°F-0.9°C 29.8°F-1.2°C 98% 10.0 mph 16.1 kmh 15.0 mph24.1 kmh 29.26 in990.9 mb 0.00 in0.0 mm 0.00 in0.0 mm 2.32 in58.9 mm
03:46 PM 30.3°F-0.9°C 29.3°F-1.5°C 96% 10.0 mph NNW16.1 kmh NNW 15.0 mph24.1 kmh 29.26 in990.9 mb 0.00 in0.0 mm 0.00 in0.0 mm 2.32 in58.9 mm
03:47 PM 30.3°F-0.9°C 29.3°F-1.5°C 96% 11.0 mph NW17.7 kmh NW 15.0 mph24.1 kmh 29.26 in990.9 mb 0.00 in0.0 mm 0.00 in0.0 mm 2.32 in58.9 mm
03:48 PM 30.5°F-0.8°C 30.0°F-1.1°C 98% 6.0 mph 9.7 kmh 15.0 mph24.1 kmh 29.26 in990.9 mb 0.00 in0.0 mm 0.00 in0.0 mm 2.32 in58.9 mm
03:49 PM 30.5°F-0.8°C 30.0°F-1.1°C 98% 11.0 mph NW17.7 kmh NW 15.0 mph24.1 kmh 29.26 in990.9 mb 0.00 in0.0 mm 0.00 in0.0 mm 2.32 in58.9 mm
03:50 PM 30.3°F-0.9°C 29.3°F-1.5°C 96% 16.0 mph NW25.7 kmh NW 16.0 mph25.7 kmh 29.26 in990.9 mb 0.00 in0.0 mm 0.00 in0.0 mm 2.32 in58.9 mm
03:51 PM 30.3°F-0.9°C 29.3°F-1.5°C 96% 14.0 mph NW22.5 kmh NW 17.0 mph27.4 kmh 29.26 in990.9 mb 0.00 in0.0 mm 0.00 in0.0 mm 2.32 in58.9 mm
03:52 PM 30.3°F-0.9°C 29.3°F-1.5°C 96% 10.0 mph NE16.1 kmh NE 17.0 mph27.4 kmh 29.27 in991.2 mb 0.00 in0.0 mm 0.00 in0.0 mm 2.32 in58.9 mm
03:53 PM 30.1°F-1.1°C 29.1°F-1.6°C 96% 11.0 mph NW17.7 kmh NW 17.0 mph27.4 kmh 29.26 in990.9 mb 0.00 in0.0 mm 0.00 in0.0 mm 2.32 in58.9 mm
03:54 PM 30.1°F-1.1°C 29.1°F-1.6°C 96% 14.0 mph NNW22.5 kmh NNW 17.0 mph27.4 kmh 29.26 in990.9 mb 0.00 in0.0 mm 0.00 in0.0 mm 2.32 in58.9 mm
03:55 PM 30.1°F-1.1°C 29.1°F-1.6°C 96% 8.0 mph NE12.9 kmh NE 17.0 mph27.4 kmh 29.26 in990.9 mb 0.00 in0.0 mm 0.00 in0.0 mm 2.32 in58.9 mm
03:56 PM 30.1°F-1.1°C 29.1°F-1.6°C 96% 7.0 mph NNW11.3 kmh NNW 17.0 mph27.4 kmh 29.27 in991.2 mb 0.00 in0.0 mm 0.00 in0.0 mm 2.32 in58.9 mm
03:57 PM 30.1°F-1.1°C 29.1°F-1.6°C 96% 6.0 mph NW9.7 kmh NW 17.0 mph27.4 kmh 29.27 in991.2 mb 0.00 in0.0 mm 0.00 in0.0 mm 2.32 in58.9 mm
03:58 PM 30.1°F-1.1°C 29.1°F-1.6°C 96% 8.0 mph NNE12.9 kmh NNE 17.0 mph27.4 kmh 29.27 in991.2 mb 0.00 in0.0 mm 0.00 in0.0 mm 2.32 in58.9 mm
03:59 PM 30.1°F-1.1°C 29.1°F-1.6°C 96% 9.0 mph 14.5 kmh 17.0 mph27.4 kmh 29.27 in991.2 mb 0.00 in0.0 mm 0.00 in0.0 mm 2.32 in58.9 mm
04:00 PM 30.1°F-1.1°C 29.1°F-1.6°C 96% 13.0 mph 20.9 kmh 14.0 mph22.5 kmh 29.27 in991.2 mb 0.00 in0.0 mm 0.00 in0.0 mm 2.32 in58.9 mm
04:01 PM 30.1°F-1.1°C 29.1°F-1.6°C 96% 7.0 mph NNW11.3 kmh NNW 14.0 mph22.5 kmh 29.27 in991.2 mb 0.00 in0.0 mm 0.00 in0.0 mm 2.32 in58.9 mm
04:02 PM 30.1°F-1.1°C 29.1°F-1.6°C 96% 9.0 mph NNW14.5 kmh NNW 14.0 mph22.5 kmh 29.27 in991.2 mb 0.00 in0.0 mm 0.00 in0.0 mm 2.32 in58.9 mm
04:03 PM 30.1°F-1.1°C 29.1°F-1.6°C 96% 7.0 mph NW11.3 kmh NW 14.0 mph22.5 kmh 29.27 in991.2 mb 0.00 in0.0 mm 0.00 in0.0 mm 2.32 in58.9 mm
04:04 PM 30.3°F-0.9°C 29.3°F-1.5°C 96% 9.0 mph NW14.5 kmh NW 13.0 mph20.9 kmh 29.28 in991.5 mb 0.00 in0.0 mm 0.00 in0.0 mm 2.32 in58.9 mm
04:05 PM 30.3°F-0.9°C 29.3°F-1.5°C 96% 8.0 mph NNW12.9 kmh NNW 13.0 mph20.9 kmh 29.27 in991.2 mb 0.00 in0.0 mm 0.00 in0.0 mm 2.32 in58.9 mm
04:06 PM 30.3°F-0.9°C 29.3°F-1.5°C 96% 9.0 mph NW14.5 kmh NW 13.0 mph20.9 kmh 29.27 in991.2 mb 0.00 in0.0 mm 0.00 in0.0 mm 2.32 in58.9 mm
04:07 PM 30.3°F-0.9°C 29.3°F-1.5°C 96% 6.0 mph NNW9.7 kmh NNW 13.0 mph20.9 kmh 29.27 in991.2 mb 0.00 in0.0 mm 0.00 in0.0 mm 2.32 in58.9 mm
04:08 PM 30.3°F-0.9°C 29.3°F-1.5°C 96% 8.0 mph NNE12.9 kmh NNE 13.0 mph20.9 kmh 29.28 in991.5 mb 0.00 in0.0 mm 0.00 in0.0 mm 2.32 in58.9 mm
04:09 PM 30.3°F-0.9°C 29.3°F-1.5°C 96% 7.0 mph NNW11.3 kmh NNW 13.0 mph20.9 kmh 29.28 in991.5 mb 0.00 in0.0 mm 0.00 in0.0 mm 2.32 in58.9 mm
04:10 PM 30.3°F-0.9°C 29.3°F-1.5°C 96% 7.0 mph NW11.3 kmh NW 13.0 mph20.9 kmh 29.27 in991.2 mb 0.00 in0.0 mm 0.00 in0.0 mm 2.32 in58.9 mm
04:11 PM 30.3°F-0.9°C 29.3°F-1.5°C 96% 6.0 mph NNW9.7 kmh NNW 12.0 mph19.3 kmh 29.27 in991.2 mb 0.00 in0.0 mm 0.00 in0.0 mm 2.32 in58.9 mm
04:12 PM 30.3°F-0.9°C 29.3°F-1.5°C 96% 10.0 mph NNW16.1 kmh NNW 12.0 mph19.3 kmh 29.28 in991.5 mb 0.00 in0.0 mm 0.00 in0.0 mm 2.32 in58.9 mm
04:13 PM 30.3°F-0.9°C 29.3°F-1.5°C 96% 6.0 mph NNW9.7 kmh NNW 11.0 mph17.7 kmh 29.28 in991.5 mb 0.00 in0.0 mm 0.00 in0.0 mm 2.32 in58.9 mm
04:14 PM 30.1°F-1.1°C 29.1°F-1.6°C 96% 12.0 mph NE19.3 kmh NE 12.0 mph19.3 kmh 29.28 in991.5 mb 0.00 in0.0 mm 0.00 in0.0 mm 2.32 in58.9 mm
04:15 PM 30.1°F-1.1°C 29.1°F-1.6°C 96% 7.0 mph 11.3 kmh 12.0 mph19.3 kmh 29.28 in991.5 mb 0.00 in0.0 mm 0.00 in0.0 mm 2.32 in58.9 mm
04:16 PM 30.1°F-1.1°C 29.1°F-1.6°C 96% 6.0 mph NNW9.7 kmh NNW 12.0 mph19.3 kmh 29.28 in991.5 mb 0.00 in0.0 mm 0.00 in0.0 mm 2.32 in58.9 mm
04:17 PM 30.1°F-1.1°C 28.8°F-1.8°C 95% 10.0 mph W16.1 kmh W 12.0 mph19.3 kmh 29.28 in991.5 mb 0.00 in0.0 mm 0.00 in0.0 mm 2.32 in58.9 mm
04:18 PM 30.1°F-1.1°C 28.8°F-1.8°C 95% 13.0 mph 20.9 kmh 14.0 mph22.5 kmh 29.29 in991.9 mb 0.00 in0.0 mm 0.00 in0.0 mm 2.32 in58.9 mm
04:19 PM 30.1°F-1.1°C 28.8°F-1.8°C 95% 11.0 mph NNW17.7 kmh NNW 14.0 mph22.5 kmh 29.28 in991.5 mb 0.00 in0.0 mm 0.00 in0.0 mm 2.32 in58.9 mm
04:20 PM 30.1°F-1.1°C 28.8°F-1.8°C 95% 8.0 mph NE12.9 kmh NE 14.0 mph22.5 kmh 29.28 in991.5 mb 0.00 in0.0 mm 0.00 in0.0 mm 2.32 in58.9 mm
04:21 PM 30.1°F-1.1°C 28.8°F-1.8°C 95% 6.0 mph NW9.7 kmh NW 14.0 mph22.5 kmh 29.28 in991.5 mb 0.00 in0.0 mm 0.00 in0.0 mm 2.32 in58.9 mm
04:22 PM 30.1°F-1.1°C 28.8°F-1.8°C 95% 15.0 mph 24.1 kmh 15.0 mph24.1 kmh 29.29 in991.9 mb 0.00 in0.0 mm 0.00 in0.0 mm 2.32 in58.9 mm
04:23 PM 30.1°F-1.1°C 28.8°F-1.8°C 95% 7.0 mph 11.3 kmh 15.0 mph24.1 kmh 29.29 in991.9 mb 0.00 in0.0 mm 0.00 in0.0 mm 2.32 in58.9 mm
04:24 PM 30.1°F-1.1°C 28.8°F-1.8°C 95% 8.0 mph NNE12.9 kmh NNE 15.0 mph24.1 kmh 29.28 in991.5 mb 0.00 in0.0 mm 0.00 in0.0 mm 2.32 in58.9 mm
04:25 PM 30.1°F-1.1°C 28.8°F-1.8°C 95% 6.0 mph E9.7 kmh E 15.0 mph24.1 kmh 29.28 in991.5 mb 0.00 in0.0 mm 0.00 in0.0 mm 2.32 in58.9 mm
04:26 PM 30.1°F-1.1°C 28.8°F-1.8°C 95% 8.0 mph NW12.9 kmh NW 15.0 mph24.1 kmh 29.28 in991.5 mb 0.00 in0.0 mm 0.00 in0.0 mm 2.32 in58.9 mm
04:27 PM 30.1°F-1.1°C 28.3°F-2.1°C 93% 6.0 mph NNE9.7 kmh NNE 15.0 mph24.1 kmh 29.28 in991.5 mb 0.00 in0.0 mm 0.00 in0.0 mm 2.32 in58.9 mm
04:28 PM 30.1°F-1.1°C 28.3°F-2.1°C 93% 8.0 mph NW12.9 kmh NW 15.0 mph24.1 kmh 29.28 in991.5 mb 0.00 in0.0 mm 0.00 in0.0 mm 2.32 in58.9 mm
04:29 PM 30.1°F-1.1°C 28.3°F-2.1°C 93% 8.0 mph NNW12.9 kmh NNW 15.0 mph24.1 kmh 29.28 in991.5 mb 0.00 in0.0 mm 0.00 in0.0 mm 2.32 in58.9 mm
04:30 PM 30.1°F-1.1°C 28.3°F-2.1°C 93% 8.0 mph NNW12.9 kmh NNW 15.0 mph24.1 kmh 29.28 in991.5 mb 0.00 in0.0 mm 0.00 in0.0 mm 2.32 in58.9 mm
04:31 PM 30.1°F-1.1°C 28.3°F-2.1°C 93% 6.0 mph WNW9.7 kmh WNW 15.0 mph24.1 kmh 29.28 in991.5 mb 0.00 in0.0 mm 0.00 in0.0 mm 2.32 in58.9 mm
04:32 PM 30.1°F-1.1°C 28.3°F-2.1°C 93% 9.0 mph NNW14.5 kmh NNW 15.0 mph24.1 kmh 29.29 in991.9 mb 0.00 in0.0 mm 0.00 in0.0 mm 2.32 in58.9 mm
04:33 PM 30.1°F-1.1°C 28.3°F-2.1°C 93% 10.0 mph NW16.1 kmh NW 15.0 mph24.1 kmh 29.28 in991.5 mb 0.00 in0.0 mm 0.00 in0.0 mm 2.32 in58.9 mm
04:34 PM 30.1°F-1.1°C 28.3°F-2.1°C 93% 12.0 mph NNE19.3 kmh NNE 15.0 mph24.1 kmh 29.29 in991.9 mb 0.00 in0.0 mm 0.00 in0.0 mm 2.32 in58.9 mm
04:35 PM 30.1°F-1.1°C 27.7°F-2.4°C 91% 15.0 mph NW24.1 kmh NW 15.0 mph24.1 kmh 29.29 in991.9 mb 0.00 in0.0 mm 0.00 in0.0 mm 2.32 in58.9 mm
04:36 PM 30.1°F-1.1°C 27.7°F-2.4°C 91% 13.0 mph NNW20.9 kmh NNW 15.0 mph24.1 kmh 29.30 in992.2 mb 0.00 in0.0 mm 0.00 in0.0 mm 2.32 in58.9 mm
04:37 PM 30.1°F-1.1°C 27.7°F-2.4°C 91% 20.0 mph WNW32.2 kmh WNW 20.0 mph32.2 kmh 29.30 in992.2 mb 0.00 in0.0 mm 0.00 in0.0 mm 2.32 in58.9 mm
04:38 PM 30.3°F-0.9°C 27.9°F-2.3°C 91% 18.0 mph W29.0 kmh W 20.0 mph32.2 kmh 29.31 in992.6 mb 0.00 in0.0 mm 0.00 in0.0 mm 2.32 in58.9 mm
04:39 PM 30.3°F-0.9°C 27.9°F-2.3°C 91% 11.0 mph NNW17.7 kmh NNW 20.0 mph32.2 kmh 29.31 in992.6 mb 0.00 in0.0 mm 0.00 in0.0 mm 2.32 in58.9 mm
04:40 PM 30.3°F-0.9°C 27.9°F-2.3°C 91% 11.0 mph NNW17.7 kmh NNW 20.0 mph32.2 kmh 29.31 in992.6 mb 0.00 in0.0 mm 0.00 in0.0 mm 2.32 in58.9 mm
04:41 PM 30.3°F-0.9°C 27.9°F-2.3°C 91% 6.0 mph NW9.7 kmh NW 20.0 mph32.2 kmh 29.31 in992.6 mb 0.00 in0.0 mm 0.00 in0.0 mm 2.32 in58.9 mm
04:42 PM 30.3°F-0.9°C 27.9°F-2.3°C 91% 5.0 mph NNW8.0 kmh NNW 20.0 mph32.2 kmh 29.30 in992.2 mb 0.00 in0.0 mm 0.00 in0.0 mm 2.32 in58.9 mm
04:43 PM 30.3°F-0.9°C 27.9°F-2.3°C 91% 16.0 mph NW25.7 kmh NW 20.0 mph32.2 kmh 29.30 in992.2 mb 0.00 in0.0 mm 0.00 in0.0 mm 2.32 in58.9 mm
04:44 PM 30.3°F-0.9°C 27.9°F-2.3°C 91% 8.0 mph 12.9 kmh 20.0 mph32.2 kmh 29.30 in992.2 mb 0.00 in0.0 mm 0.00 in0.0 mm 2.32 in58.9 mm
04:45 PM 30.3°F-0.9°C 27.9°F-2.3°C 91% 11.0 mph NNW17.7 kmh NNW 20.0 mph32.2 kmh 29.30 in992.2 mb 0.00 in0.0 mm 0.00 in0.0 mm 2.32 in58.9 mm
04:46 PM 30.1°F-1.1°C 27.7°F-2.4°C 91% 15.0 mph NW24.1 kmh NW 20.0 mph32.2 kmh 29.31 in992.6 mb 0.00 in0.0 mm 0.00 in0.0 mm 2.32 in58.9 mm
04:47 PM 30.1°F-1.1°C 27.7°F-2.4°C 91% 8.0 mph NW12.9 kmh NW 20.0 mph32.2 kmh 29.31 in992.6 mb 0.00 in0.0 mm 0.00 in0.0 mm 2.32 in58.9 mm
04:48 PM 30.1°F-1.1°C 27.5°F-2.5°C 90% 15.0 mph NW24.1 kmh NW 18.0 mph29.0 kmh 29.31 in992.6 mb 0.00 in0.0 mm 0.00 in0.0 mm 2.32 in58.9 mm
04:49 PM 30.1°F-1.1°C 27.7°F-2.4°C 91% 17.0 mph NNW27.4 kmh NNW 18.0 mph29.0 kmh 29.31 in992.6 mb 0.00 in0.0 mm 0.00 in0.0 mm 2.32 in58.9 mm
04:50 PM 30.1°F-1.1°C 27.7°F-2.4°C 91% 9.0 mph NW14.5 kmh NW 18.0 mph29.0 kmh 29.31 in992.6 mb 0.00 in0.0 mm 0.00 in0.0 mm 2.32 in58.9 mm
04:51 PM 30.1°F-1.1°C 27.7°F-2.4°C 91% 12.0 mph NW19.3 kmh NW 18.0 mph29.0 kmh 29.31 in992.6 mb 0.00 in0.0 mm 0.00 in0.0 mm 2.32 in58.9 mm
04:52 PM 30.1°F-1.1°C 27.7°F-2.4°C 91% 15.0 mph NW24.1 kmh NW 18.0 mph29.0 kmh 29.31 in992.6 mb 0.00 in0.0 mm 0.00 in0.0 mm 2.32 in58.9 mm
04:53 PM 30.1°F-1.1°C 27.7°F-2.4°C 91% 11.0 mph WNW17.7 kmh WNW 18.0 mph29.0 kmh 29.31 in992.6 mb 0.00 in0.0 mm 0.00 in0.0 mm 2.32 in58.9 mm
04:54 PM 30.1°F-1.1°C 27.7°F-2.4°C 91% 13.0 mph NW20.9 kmh NW 18.0 mph29.0 kmh 29.31 in992.6 mb 0.00 in0.0 mm 0.00 in0.0 mm 2.32 in58.9 mm
04:55 PM 30.1°F-1.1°C 27.7°F-2.4°C 91% 11.0 mph WNW17.7 kmh WNW 18.0 mph29.0 kmh 29.31 in992.6 mb 0.00 in0.0 mm 0.00 in0.0 mm 2.32 in58.9 mm
04:56 PM 30.1°F-1.1°C 27.7°F-2.4°C 91% 9.0 mph NNW14.5 kmh NNW 18.0 mph29.0 kmh 29.31 in992.6 mb 0.00 in0.0 mm 0.00 in0.0 mm 2.32 in58.9 mm
04:57 PM 30.1°F-1.1°C 27.7°F-2.4°C 91% 11.0 mph 17.7 kmh 17.0 mph27.4 kmh 29.31 in992.6 mb 0.00 in0.0 mm 0.00 in0.0 mm 2.32 in58.9 mm
04:58 PM 30.0°F-1.1°C 27.4°F-2.6°C 90% 13.0 mph WNW20.9 kmh WNW 17.0 mph27.4 kmh 29.32 in992.9 mb 0.00 in0.0 mm 0.00 in0.0 mm 2.32 in58.9 mm
04:59 PM 30.0°F-1.1°C 27.4°F-2.6°C 90% 11.0 mph NW17.7 kmh NW 17.0 mph27.4 kmh 29.31 in992.6 mb 0.00 in0.0 mm 0.00 in0.0 mm 2.32 in58.9 mm
05:00 PM 30.0°F-1.1°C 27.6°F-2.4°C 91% 12.0 mph WNW19.3 kmh WNW 17.0 mph27.4 kmh 29.31 in992.6 mb 0.00 in0.0 mm 0.00 in0.0 mm 2.32 in58.9 mm
05:01 PM 30.0°F-1.1°C 27.6°F-2.4°C 91% 12.0 mph NW19.3 kmh NW 17.0 mph27.4 kmh 29.31 in992.6 mb 0.00 in0.0 mm 0.00 in0.0 mm 2.32 in58.9 mm
05:02 PM 30.0°F-1.1°C 27.6°F-2.4°C 91% 10.0 mph NW16.1 kmh NW 16.0 mph25.7 kmh 29.32 in992.9 mb 0.00 in0.0 mm 0.00 in0.0 mm 2.32 in58.9 mm
05:03 PM 30.0°F-1.1°C 27.6°F-2.4°C 91% 11.0 mph NNW17.7 kmh NNW 16.0 mph25.7 kmh 29.32 in992.9 mb 0.00 in0.0 mm 0.00 in0.0 mm 2.32 in58.9 mm
05:04 PM 30.1°F-1.1°C 27.7°F-2.4°C 91% 8.0 mph NW12.9 kmh NW 16.0 mph25.7 kmh 29.32 in992.9 mb 0.00 in0.0 mm 0.00 in0.0 mm 2.32 in58.9 mm
05:05 PM 30.1°F-1.1°C 27.7°F-2.4°C 91% 16.0 mph NW25.7 kmh NW 16.0 mph25.7 kmh 29.32 in992.9 mb 0.00 in0.0 mm 0.00 in0.0 mm 2.32 in58.9 mm
05:06 PM 30.1°F-1.1°C 27.5°F-2.5°C 90% 12.0 mph NNW19.3 kmh NNW 16.0 mph25.7 kmh 29.32 in992.9 mb 0.00 in0.0 mm 0.00 in0.0 mm 2.32 in58.9 mm
05:07 PM 30.0°F-1.1°C 26.8°F-2.9°C 88% 13.0 mph NW20.9 kmh NW 17.0 mph27.4 kmh 29.32 in992.9 mb 0.00 in0.0 mm 0.00 in0.0 mm 2.32 in58.9 mm
05:08 PM 29.8°F-1.2°C 26.6°F-3.0°C 88% 9.0 mph NNW14.5 kmh NNW 17.0 mph27.4 kmh 29.33 in993.2 mb 0.00 in0.0 mm 0.00 in0.0 mm 2.32 in58.9 mm
05:09 PM 29.8°F-1.2°C 26.6°F-3.0°C 88% 13.0 mph WNW20.9 kmh WNW 17.0 mph27.4 kmh 29.33 in993.2 mb 0.00 in0.0 mm 0.00 in0.0 mm 2.32 in58.9 mm
05:10 PM 29.8°F-1.2°C 26.6°F-3.0°C 88% 11.0 mph WNW17.7 kmh WNW 17.0 mph27.4 kmh 29.33 in993.2 mb 0.00 in0.0 mm 0.00 in0.0 mm 2.32 in58.9 mm
05:11 PM 29.8°F-1.2°C 26.6°F-3.0°C 88% 13.0 mph NW20.9 kmh NW 17.0 mph27.4 kmh 29.33 in993.2 mb 0.00 in0.0 mm 0.00 in0.0 mm 2.32 in58.9 mm
05:12 PM 29.8°F-1.2°C 26.6°F-3.0°C 88% 16.0 mph NW25.7 kmh NW 17.0 mph27.4 kmh 29.34 in993.6 mb 0.00 in0.0 mm 0.00 in0.0 mm 2.32 in58.9 mm
05:13 PM 29.8°F-1.2°C 26.6°F-3.0°C 88% 11.0 mph NW17.7 kmh NW 17.0 mph27.4 kmh 29.33 in993.2 mb 0.00 in0.0 mm 0.00 in0.0 mm 2.32 in58.9 mm
05:14 PM 29.8°F-1.2°C 26.6°F-3.0°C 88% 9.0 mph WNW14.5 kmh WNW 17.0 mph27.4 kmh 29.34 in993.6 mb 0.00 in0.0 mm 0.00 in0.0 mm 2.32 in58.9 mm
05:15 PM 29.8°F-1.2°C 26.6°F-3.0°C 88% 14.0 mph NW22.5 kmh NW 17.0 mph27.4 kmh 29.34 in993.6 mb 0.00 in0.0 mm 0.00 in0.0 mm 2.32 in58.9 mm
05:16 PM 29.8°F-1.2°C 26.6°F-3.0°C 88% 13.0 mph WNW20.9 kmh WNW 17.0 mph27.4 kmh 29.34 in993.6 mb 0.00 in0.0 mm 0.00 in0.0 mm 2.32 in58.9 mm
05:17 PM 29.8°F-1.2°C 26.6°F-3.0°C 88% 13.0 mph NW20.9 kmh NW 16.0 mph25.7 kmh 29.34 in993.6 mb 0.00 in0.0 mm 0.00 in0.0 mm 2.32 in58.9 mm
05:18 PM 29.6°F-1.3°C 26.4°F-3.1°C 88% 15.0 mph NW24.1 kmh NW 18.0 mph29.0 kmh 29.34 in993.6 mb 0.00 in0.0 mm 0.00 in0.0 mm 2.32 in58.9 mm
05:19 PM 29.6°F-1.3°C 26.4°F-3.1°C 88% 12.0 mph NW19.3 kmh NW 18.0 mph29.0 kmh 29.34 in993.6 mb 0.00 in0.0 mm 0.00 in0.0 mm 2.32 in58.9 mm
05:20 PM 29.6°F-1.3°C 26.4°F-3.1°C 88% 16.0 mph NNW25.7 kmh NNW 18.0 mph29.0 kmh 29.34 in993.6 mb 0.00 in0.0 mm 0.00 in0.0 mm 2.32 in58.9 mm
05:21 PM 29.6°F-1.3°C 26.4°F-3.1°C 88% 10.0 mph 16.1 kmh 18.0 mph29.0 kmh 29.34 in993.6 mb 0.00 in0.0 mm 0.00 in0.0 mm 2.32 in58.9 mm
05:22 PM 29.6°F-1.3°C 26.4°F-3.1°C 88% 12.0 mph NNW19.3 kmh NNW 18.0 mph29.0 kmh 29.35 in993.9 mb 0.00 in0.0 mm 0.00 in0.0 mm 2.32 in58.9 mm
05:23 PM 29.6°F-1.3°C 26.4°F-3.1°C 88% 16.0 mph NW25.7 kmh NW 18.0 mph29.0 kmh 29.35 in993.9 mb 0.00 in0.0 mm 0.00 in0.0 mm 2.32 in58.9 mm
05:24 PM 29.5°F-1.4°C 25.8°F-3.4°C 86% 12.0 mph WNW19.3 kmh WNW 18.0 mph29.0 kmh 29.35 in993.9 mb 0.00 in0.0 mm 0.00 in0.0 mm 2.32 in58.9 mm
05:25 PM 29.5°F-1.4°C 26.3°F-3.2°C 88% 12.0 mph NNW19.3 kmh NNW 18.0 mph29.0 kmh 29.35 in993.9 mb 0.00 in0.0 mm 0.00 in0.0 mm 2.32 in58.9 mm
05:26 PM 29.5°F-1.4°C 26.3°F-3.2°C 88% 15.0 mph WNW24.1 kmh WNW 18.0 mph29.0 kmh 29.35 in993.9 mb 0.00 in0.0 mm 0.00 in0.0 mm 2.32 in58.9 mm
05:27 PM 29.5°F-1.4°C 26.3°F-3.2°C 88% 12.0 mph WNW19.3 kmh WNW 18.0 mph29.0 kmh 29.35 in993.9 mb 0.00 in0.0 mm 0.00 in0.0 mm 2.32 in58.9 mm
05:28 PM 29.5°F-1.4°C 26.3°F-3.2°C 88% 11.0 mph NNW17.7 kmh NNW 18.0 mph29.0 kmh 29.35 in993.9 mb 0.00 in0.0 mm 0.00 in0.0 mm 2.32 in58.9 mm
05:29 PM 29.2°F-1.6°C 26.0°F-3.3°C 88% 18.0 mph NNW29.0 kmh NNW 18.0 mph29.0 kmh 29.35 in993.9 mb 0.00 in0.0 mm 0.00 in0.0 mm 2.32 in58.9 mm
05:30 PM 29.2°F-1.6°C 25.5°F-3.6°C 86% 18.0 mph WNW29.0 kmh WNW 18.0 mph29.0 kmh 29.36 in994.2 mb 0.00 in0.0 mm 0.00 in0.0 mm 2.32 in58.9 mm
05:31 PM 29.1°F-1.6°C 25.4°F-3.7°C 86% 25.0 mph WNW40.2 kmh WNW 25.0 mph40.2 kmh 29.36 in994.2 mb 0.00 in0.0 mm 0.00 in0.0 mm 2.32 in58.9 mm
05:32 PM 28.8°F-1.8°C 25.1°F-3.8°C 86% 11.0 mph 17.7 kmh 25.0 mph40.2 kmh 29.37 in994.6 mb 0.00 in0.0 mm 0.00 in0.0 mm 2.32 in58.9 mm
05:33 PM 28.8°F-1.8°C 25.1°F-3.8°C 86% 15.0 mph NW24.1 kmh NW 25.0 mph40.2 kmh 29.36 in994.2 mb 0.00 in0.0 mm 0.00 in0.0 mm 2.32 in58.9 mm
05:34 PM 28.8°F-1.8°C 25.1°F-3.8°C 86% 13.0 mph NNW20.9 kmh NNW 25.0 mph40.2 kmh 29.37 in994.6 mb 0.00 in0.0 mm 0.00 in0.0 mm 2.32 in58.9 mm
05:35 PM 29.1°F-1.6°C 25.9°F-3.4°C 88% 22.0 mph NNW35.4 kmh NNW 25.0 mph40.2 kmh 29.36 in994.2 mb 0.00 in0.0 mm 0.00 in0.0 mm 2.32 in58.9 mm
05:36 PM 28.8°F-1.8°C 25.1°F-3.8°C 86% 18.0 mph WNW29.0 kmh WNW 25.0 mph40.2 kmh 29.37 in994.6 mb 0.00 in0.0 mm 0.00 in0.0 mm 2.32 in58.9 mm
05:37 PM 28.8°F-1.8°C 25.1°F-3.8°C 86% 12.0 mph NW19.3 kmh NW 25.0 mph40.2 kmh 29.37 in994.6 mb 0.00 in0.0 mm 0.00 in0.0 mm 2.32 in58.9 mm
05:38 PM 28.8°F-1.8°C 25.7°F-3.5°C 88% 17.0 mph WNW27.4 kmh WNW 25.0 mph40.2 kmh 29.37 in994.6 mb 0.00 in0.0 mm 0.00 in0.0 mm 2.32 in58.9 mm
05:39 PM 28.8°F-1.8°C 25.7°F-3.5°C 88% 8.0 mph NNE12.9 kmh NNE 25.0 mph40.2 kmh 29.36 in994.2 mb 0.00 in0.0 mm 0.00 in0.0 mm 2.32 in58.9 mm
05:40 PM 28.8°F-1.8°C 25.7°F-3.5°C 88% 15.0 mph NW24.1 kmh NW 25.0 mph40.2 kmh 29.37 in994.6 mb 0.00 in0.0 mm 0.00 in0.0 mm 2.32 in58.9 mm
05:41 PM 28.7°F-1.8°C 25.6°F-3.6°C 88% 15.0 mph WNW24.1 kmh WNW 22.0 mph35.4 kmh 29.36 in994.2 mb 0.00 in0.0 mm 0.00 in0.0 mm 2.32 in58.9 mm
05:42 PM 28.7°F-1.8°C 25.6°F-3.6°C 88% 16.0 mph NW25.7 kmh NW 22.0 mph35.4 kmh 29.37 in994.6 mb 0.00 in0.0 mm 0.00 in0.0 mm 2.32 in58.9 mm
05:43 PM 28.6°F-1.9°C 24.9°F-3.9°C 86% 16.0 mph NNW25.7 kmh NNW 22.0 mph35.4 kmh 29.37 in994.6 mb 0.00 in0.0 mm 0.00 in0.0 mm 2.32 in58.9 mm
05:44 PM 28.3°F-2.1°C 24.6°F-4.1°C 86% 12.0 mph NW19.3 kmh NW 22.0 mph35.4 kmh 29.37 in994.6 mb 0.00 in0.0 mm 0.00 in0.0 mm 2.32 in58.9 mm
05:45 PM 28.6°F-1.9°C 25.5°F-3.6°C 88% 21.0 mph WNW33.8 kmh WNW 21.0 mph33.8 kmh 29.37 in994.6 mb 0.00 in0.0 mm 0.00 in0.0 mm 2.32 in58.9 mm
05:46 PM 28.3°F-2.1°C 24.6°F-4.1°C 86% 23.0 mph NNW37.0 kmh NNW 23.0 mph37.0 kmh 29.38 in994.9 mb 0.00 in0.0 mm 0.00 in0.0 mm 2.32 in58.9 mm
05:47 PM 28.3°F-2.1°C 24.6°F-4.1°C 86% 10.0 mph NNW16.1 kmh NNW 23.0 mph37.0 kmh 29.37 in994.6 mb 0.00 in0.0 mm 0.00 in0.0 mm 2.32 in58.9 mm
05:48 PM 28.3°F-2.1°C 24.6°F-4.1°C 86% 17.0 mph NW27.4 kmh NW 23.0 mph37.0 kmh 29.38 in994.9 mb 0.00 in0.0 mm 0.00 in0.0 mm 2.32 in58.9 mm
05:49 PM 28.3°F-2.1°C 24.6°F-4.1°C 86% 13.0 mph NW20.9 kmh NW 23.0 mph37.0 kmh 29.37 in994.6 mb 0.00 in0.0 mm 0.00 in0.0 mm 2.32 in58.9 mm
05:50 PM 28.6°F-1.9°C 25.5°F-3.6°C 88% 19.0 mph NW30.6 kmh NW 23.0 mph37.0 kmh 29.37 in994.6 mb 0.00 in0.0 mm 0.00 in0.0 mm 2.32 in58.9 mm
05:51 PM 28.3°F-2.1°C 24.6°F-4.1°C 86% 10.0 mph NW16.1 kmh NW 23.0 mph37.0 kmh 29.37 in994.6 mb 0.00 in0.0 mm 0.00 in0.0 mm 2.32 in58.9 mm
05:52 PM 28.3°F-2.1°C 24.6°F-4.1°C 86% 14.0 mph NW22.5 kmh NW 23.0 mph37.0 kmh 29.38 in994.9 mb 0.00 in0.0 mm 0.00 in0.0 mm 2.32 in58.9 mm
05:53 PM 28.2°F-2.1°C 24.5°F-4.2°C 86% 16.0 mph NW25.7 kmh NW 23.0 mph37.0 kmh 29.38 in994.9 mb 0.00 in0.0 mm 0.00 in0.0 mm 2.32 in58.9 mm
05:54 PM 28.2°F-2.1°C 24.5°F-4.2°C 86% 18.0 mph WNW29.0 kmh WNW 23.0 mph37.0 kmh 29.38 in994.9 mb 0.00 in0.0 mm 0.00 in0.0 mm 2.32 in58.9 mm
05:55 PM 28.2°F-2.1°C 24.2°F-4.3°C 85% 20.0 mph NW32.2 kmh NW 23.0 mph37.0 kmh 29.37 in994.6 mb 0.00 in0.0 mm 0.00 in0.0 mm 2.32 in58.9 mm
05:56 PM 28.2°F-2.1°C 24.5°F-4.2°C 86% 19.0 mph NW30.6 kmh NW 20.0 mph32.2 kmh 29.38 in994.9 mb 0.00 in0.0 mm 0.00 in0.0 mm 2.32 in58.9 mm
05:57 PM 27.9°F-2.3°C 23.9°F-4.5°C 85% 16.0 mph NW25.7 kmh NW 20.0 mph32.2 kmh 29.37 in994.6 mb 0.00 in0.0 mm 0.00 in0.0 mm 2.32 in58.9 mm
05:58 PM 27.9°F-2.3°C 24.2°F-4.3°C 86% 16.0 mph NW25.7 kmh NW 20.0 mph32.2 kmh 29.38 in994.9 mb 0.00 in0.0 mm 0.00 in0.0 mm 2.32 in58.9 mm
05:59 PM 27.9°F-2.3°C 24.2°F-4.3°C 86% 13.0 mph NW20.9 kmh NW 20.0 mph32.2 kmh 29.38 in994.9 mb 0.00 in0.0 mm 0.00 in0.0 mm 2.32 in58.9 mm
06:00 PM 27.9°F-2.3°C 24.2°F-4.3°C 86% 18.0 mph NW29.0 kmh NW 20.0 mph32.2 kmh 29.38 in994.9 mb 0.00 in0.0 mm 0.00 in0.0 mm 2.32 in58.9 mm
06:01 PM 27.9°F-2.3°C 23.9°F-4.5°C 85% 15.0 mph NW24.1 kmh NW 20.0 mph32.2 kmh 29.37 in994.6 mb 0.00 in0.0 mm 0.00 in0.0 mm 2.32 in58.9 mm
06:02 PM 27.9°F-2.3°C 23.9°F-4.5°C 85% 21.0 mph NNW33.8 kmh NNW 21.0 mph33.8 kmh 29.38 in994.9 mb 0.00 in0.0 mm 0.00 in0.0 mm 2.32 in58.9 mm
06:03 PM 27.8°F-2.3°C 23.9°F-4.5°C 85% 15.0 mph WNW24.1 kmh WNW 24.0 mph38.6 kmh 29.38 in994.9 mb 0.00 in0.0 mm 0.00 in0.0 mm 2.32 in58.9 mm
06:04 PM 27.8°F-2.3°C 23.9°F-4.5°C 85% 16.0 mph WNW25.7 kmh WNW 24.0 mph38.6 kmh 29.38 in994.9 mb 0.00 in0.0 mm 0.00 in0.0 mm 2.32 in58.9 mm
06:05 PM 27.8°F-2.3°C 23.9°F-4.5°C 85% 12.0 mph WNW19.3 kmh WNW 24.0 mph38.6 kmh 29.38 in994.9 mb 0.00 in0.0 mm 0.00 in0.0 mm 2.32 in58.9 mm
06:06 PM 27.8°F-2.3°C 24.1°F-4.4°C 86% 13.0 mph NW20.9 kmh NW 24.0 mph38.6 kmh 29.39 in995.3 mb 0.00 in0.0 mm 0.00 in0.0 mm 2.32 in58.9 mm
06:07 PM 27.9°F-2.3°C 24.2°F-4.3°C 86% 19.0 mph 30.6 kmh 24.0 mph38.6 kmh 29.38 in994.9 mb 0.00 in0.0 mm 0.00 in0.0 mm 2.32 in58.9 mm
06:08 PM 27.8°F-2.3°C 23.9°F-4.5°C 85% 19.0 mph NNW30.6 kmh NNW 24.0 mph38.6 kmh 29.38 in994.9 mb 0.00 in0.0 mm 0.00 in0.0 mm 2.32 in58.9 mm
06:09 PM 27.6°F-2.4°C 23.1°F-4.9°C 83% 17.0 mph NW27.4 kmh NW 24.0 mph38.6 kmh 29.38 in994.9 mb 0.00 in0.0 mm 0.00 in0.0 mm 2.32 in58.9 mm
06:10 PM 27.6°F-2.4°C 23.1°F-4.9°C 83% 19.0 mph NW30.6 kmh NW 24.0 mph38.6 kmh 29.39 in995.3 mb 0.00 in0.0 mm 0.00 in0.0 mm 2.32 in58.9 mm
06:11 PM 27.6°F-2.4°C 23.7°F-4.6°C 85% 12.0 mph WNW19.3 kmh WNW 24.0 mph38.6 kmh 29.38 in994.9 mb 0.00 in0.0 mm 0.00 in0.0 mm 2.32 in58.9 mm
06:12 PM 27.6°F-2.4°C 23.7°F-4.6°C 85% 10.0 mph NW16.1 kmh NW 24.0 mph38.6 kmh 29.39 in995.3 mb 0.00 in0.0 mm 0.00 in0.0 mm 2.32 in58.9 mm
06:13 PM 27.6°F-2.4°C 23.7°F-4.6°C 85% 14.0 mph WNW22.5 kmh WNW 22.0 mph35.4 kmh 29.39 in995.3 mb 0.00 in0.0 mm 0.00 in0.0 mm 2.32 in58.9 mm
06:14 PM 27.6°F-2.4°C 23.7°F-4.6°C 85% 10.0 mph WNW16.1 kmh WNW 22.0 mph35.4 kmh 29.39 in995.3 mb 0.00 in0.0 mm 0.00 in0.0 mm 2.32 in58.9 mm
06:15 PM 27.5°F-2.5°C 23.6°F-4.7°C 85% 17.0 mph NW27.4 kmh NW 22.0 mph35.4 kmh 29.39 in995.3 mb 0.00 in0.0 mm 0.00 in0.0 mm 2.32 in58.9 mm
06:16 PM 27.3°F-2.6°C 22.8°F-5.1°C 83% 23.0 mph WNW37.0 kmh WNW 25.0 mph40.2 kmh 29.40 in995.6 mb 0.00 in0.0 mm 0.00 in0.0 mm 2.32 in58.9 mm
06:17 PM 27.1°F-2.7°C 22.6°F-5.2°C 83% 20.0 mph W32.2 kmh W 25.0 mph40.2 kmh 29.39 in995.3 mb 0.00 in0.0 mm 0.00 in0.0 mm 2.32 in58.9 mm
06:18 PM 27.1°F-2.7°C 22.6°F-5.2°C 83% 18.0 mph NW29.0 kmh NW 25.0 mph40.2 kmh 29.40 in995.6 mb 0.00 in0.0 mm 0.00 in0.0 mm 2.32 in58.9 mm
06:19 PM 26.7°F-2.9°C 21.7°F-5.7°C 81% 21.0 mph NW33.8 kmh NW 25.0 mph40.2 kmh 29.40 in995.6 mb 0.00 in0.0 mm 0.00 in0.0 mm 2.32 in58.9 mm
06:20 PM 26.7°F-2.9°C 21.7°F-5.7°C 81% 21.0 mph WNW33.8 kmh WNW 25.0 mph40.2 kmh 29.41 in995.9 mb 0.00 in0.0 mm 0.00 in0.0 mm 2.32 in58.9 mm
06:21 PM 26.7°F-2.9°C 21.7°F-5.7°C 81% 21.0 mph NNW33.8 kmh NNW 25.0 mph40.2 kmh 29.40 in995.6 mb 0.00 in0.0 mm 0.00 in0.0 mm 2.32 in58.9 mm
06:22 PM 26.3°F-3.2°C 21.0°F-6.1°C 80% 16.0 mph WNW25.7 kmh WNW 25.0 mph40.2 kmh 29.41 in995.9 mb 0.00 in0.0 mm 0.00 in0.0 mm 2.32 in58.9 mm
06:23 PM 26.2°F-3.2°C 20.9°F-6.2°C 80% 18.0 mph NNW29.0 kmh NNW 25.0 mph40.2 kmh 29.40 in995.6 mb 0.00 in0.0 mm 0.00 in0.0 mm 2.32 in58.9 mm
06:24 PM 26.2°F-3.2°C 20.9°F-6.2°C 80% 19.0 mph WNW30.6 kmh WNW 25.0 mph40.2 kmh 29.42 in996.3 mb 0.00 in0.0 mm 0.00 in0.0 mm 2.32 in58.9 mm
06:25 PM 26.2°F-3.2°C 20.9°F-6.2°C 80% 20.0 mph NW32.2 kmh NW 25.0 mph40.2 kmh 29.41 in995.9 mb 0.00 in0.0 mm 0.00 in0.0 mm 2.32 in58.9 mm
06:26 PM 26.2°F-3.2°C 20.9°F-6.2°C 80% 19.0 mph NNW30.6 kmh NNW 23.0 mph37.0 kmh 29.42 in996.3 mb 0.00 in0.0 mm 0.00 in0.0 mm 2.32 in58.9 mm
06:27 PM 26.2°F-3.2°C 20.9°F-6.2°C 80% 17.0 mph NNE27.4 kmh NNE 23.0 mph37.0 kmh 29.41 in995.9 mb 0.00 in0.0 mm 0.00 in0.0 mm 2.32 in58.9 mm
06:28 PM 26.1°F-3.3°C 20.8°F-6.2°C 80% 16.0 mph NW25.7 kmh NW 23.0 mph37.0 kmh 29.42 in996.3 mb 0.00 in0.0 mm 0.00 in0.0 mm 2.32 in58.9 mm
06:29 PM 26.1°F-3.3°C 20.8°F-6.2°C 80% 22.0 mph NW35.4 kmh NW 23.0 mph37.0 kmh 29.41 in995.9 mb 0.00 in0.0 mm 0.00 in0.0 mm 2.32 in58.9 mm
06:30 PM 26.1°F-3.3°C 20.8°F-6.2°C 80% 15.0 mph NW24.1 kmh NW 23.0 mph37.0 kmh 29.41 in995.9 mb 0.00 in0.0 mm 0.00 in0.0 mm 2.32 in58.9 mm
06:31 PM 26.1°F-3.3°C 20.8°F-6.2°C 80% 16.0 mph NW25.7 kmh NW 23.0 mph37.0 kmh 29.41 in995.9 mb 0.00 in0.0 mm 0.00 in0.0 mm 2.32 in58.9 mm
06:32 PM 25.9°F-3.4°C 20.6°F-6.3°C 80% 19.0 mph NW30.6 kmh NW 23.0 mph37.0 kmh 29.42 in996.3 mb 0.00 in0.0 mm 0.00 in0.0 mm 2.32 in58.9 mm
06:33 PM 25.9°F-3.4°C 20.9°F-6.2°C 81% 24.0 mph NW38.6 kmh NW 24.0 mph38.6 kmh 29.41 in995.9 mb 0.00 in0.0 mm 0.00 in0.0 mm 2.32 in58.9 mm
06:34 PM 25.7°F-3.5°C 20.7°F-6.3°C 81% 18.0 mph NW29.0 kmh NW 24.0 mph38.6 kmh 29.42 in996.3 mb 0.00 in0.0 mm 0.00 in0.0 mm 2.32 in58.9 mm
06:35 PM 25.7°F-3.5°C 20.7°F-6.3°C 81% 17.0 mph NW27.4 kmh NW 24.0 mph38.6 kmh 29.40 in995.6 mb 0.00 in0.0 mm 0.00 in0.0 mm 2.32 in58.9 mm
06:36 PM 25.4°F-3.7°C 20.4°F-6.4°C 81% 15.0 mph NW24.1 kmh NW 24.0 mph38.6 kmh 29.41 in995.9 mb 0.00 in0.0 mm 0.00 in0.0 mm 2.32 in58.9 mm
06:37 PM 25.7°F-3.5°C 20.7°F-6.3°C 81% 23.0 mph NNW37.0 kmh NNW 24.0 mph38.6 kmh 29.41 in995.9 mb 0.00 in0.0 mm 0.00 in0.0 mm 2.32 in58.9 mm
06:38 PM 25.7°F-3.5°C 20.7°F-6.3°C 81% 21.0 mph NW33.8 kmh NW 24.0 mph38.6 kmh 29.42 in996.3 mb 0.00 in0.0 mm 0.00 in0.0 mm 2.32 in58.9 mm
06:39 PM 25.7°F-3.5°C 20.7°F-6.3°C 81% 13.0 mph NW20.9 kmh NW 24.0 mph38.6 kmh 29.41 in995.9 mb 0.00 in0.0 mm 0.00 in0.0 mm 2.32 in58.9 mm
06:40 PM 25.7°F-3.5°C 21.2°F-6.0°C 83% 17.0 mph WNW27.4 kmh WNW 24.0 mph38.6 kmh 29.42 in996.3 mb 0.00 in0.0 mm 0.00 in0.0 mm 2.32 in58.9 mm
06:41 PM 25.7°F-3.5°C 21.2°F-6.0°C 83% 19.0 mph NW30.6 kmh NW 24.0 mph38.6 kmh 29.42 in996.3 mb 0.00 in0.0 mm 0.00 in0.0 mm 2.32 in58.9 mm
06:42 PM 25.7°F-3.5°C 21.2°F-6.0°C 83% 19.0 mph WNW30.6 kmh WNW 24.0 mph38.6 kmh 29.42 in996.3 mb 0.00 in0.0 mm 0.00 in0.0 mm 2.32 in58.9 mm
06:43 PM 25.4°F-3.7°C 20.9°F-6.2°C 83% 16.0 mph NNW25.7 kmh NNW 24.0 mph38.6 kmh 29.42 in996.3 mb 0.00 in0.0 mm 0.00 in0.0 mm 2.32 in58.9 mm
06:44 PM 25.2°F-3.8°C 20.2°F-6.6°C 81% 16.0 mph 25.7 kmh 23.0 mph37.0 kmh 29.42 in996.3 mb 0.00 in0.0 mm 0.00 in0.0 mm 2.32 in58.9 mm
06:45 PM 25.2°F-3.8°C 20.2°F-6.6°C 81% 17.0 mph WNW27.4 kmh WNW 23.0 mph37.0 kmh 29.42 in996.3 mb 0.00 in0.0 mm 0.00 in0.0 mm 2.32 in58.9 mm
06:46 PM 25.2°F-3.8°C 20.7°F-6.3°C 83% 20.0 mph NW32.2 kmh NW 23.0 mph37.0 kmh 29.43 in996.6 mb 0.00 in0.0 mm 0.00 in0.0 mm 2.32 in58.9 mm
06:47 PM 25.2°F-3.8°C 20.7°F-6.3°C 83% 20.0 mph WNW32.2 kmh WNW 21.0 mph33.8 kmh 29.42 in996.3 mb 0.00 in0.0 mm 0.00 in0.0 mm 2.32 in58.9 mm
06:48 PM 25.2°F-3.8°C 20.7°F-6.3°C 83% 24.0 mph WNW38.6 kmh WNW 24.0 mph38.6 kmh 29.43 in996.6 mb 0.00 in0.0 mm 0.00 in0.0 mm 2.32 in58.9 mm
06:49 PM 25.2°F-3.8°C 20.2°F-6.6°C 81% 17.0 mph WNW27.4 kmh WNW 24.0 mph38.6 kmh 29.42 in996.3 mb 0.00 in0.0 mm 0.00 in0.0 mm 2.32 in58.9 mm
06:50 PM 25.0°F-3.9°C 19.7°F-6.8°C 80% 17.0 mph NW27.4 kmh NW 24.0 mph38.6 kmh 29.43 in996.6 mb 0.00 in0.0 mm 0.00 in0.0 mm 2.32 in58.9 mm
06:51 PM 25.0°F-3.9°C 19.7°F-6.8°C 80% 15.0 mph WNW24.1 kmh WNW 24.0 mph38.6 kmh 29.43 in996.6 mb 0.00 in0.0 mm 0.00 in0.0 mm 2.32 in58.9 mm
06:52 PM 25.0°F-3.9°C 20.0°F-6.7°C 81% 21.0 mph WNW33.8 kmh WNW 24.0 mph38.6 kmh 29.43 in996.6 mb 0.00 in0.0 mm 0.00 in0.0 mm 2.32 in58.9 mm
06:53 PM 25.0°F-3.9°C 20.0°F-6.7°C 81% 22.0 mph NW35.4 kmh NW 24.0 mph38.6 kmh 29.43 in996.6 mb 0.00 in0.0 mm 0.00 in0.0 mm 2.32 in58.9 mm
06:54 PM 24.8°F-4.0°C 19.2°F-7.1°C 79% 24.0 mph WNW38.6 kmh WNW 24.0 mph38.6 kmh 29.43 in996.6 mb 0.00 in0.0 mm 0.00 in0.0 mm 2.32 in58.9 mm
06:55 PM 24.8°F-4.0°C 18.9°F-7.3°C 78% 24.0 mph NW38.6 kmh NW 26.0 mph41.8 kmh 29.43 in996.6 mb 0.00 in0.0 mm 0.00 in0.0 mm 2.32 in58.9 mm
06:56 PM 24.6°F-4.1°C 18.7°F-7.4°C 78% 26.0 mph NW41.8 kmh NW 26.0 mph41.8 kmh 29.43 in996.6 mb 0.00 in0.0 mm 0.00 in0.0 mm 2.32 in58.9 mm
06:57 PM 24.6°F-4.1°C 19.0°F-7.2°C 79% 16.0 mph WNW25.7 kmh WNW 26.0 mph41.8 kmh 29.43 in996.6 mb 0.00 in0.0 mm 0.00 in0.0 mm 2.32 in58.9 mm
06:58 PM 24.6°F-4.1°C 19.3°F-7.1°C 80% 13.0 mph NW20.9 kmh NW 26.0 mph41.8 kmh 29.44 in997.0 mb 0.00 in0.0 mm 0.00 in0.0 mm 2.32 in58.9 mm
06:59 PM 24.8°F-4.0°C 19.8°F-6.8°C 81% 15.0 mph WNW24.1 kmh WNW 26.0 mph41.8 kmh 29.43 in996.6 mb 0.00 in0.0 mm 0.00 in0.0 mm 2.32 in58.9 mm
07:00 PM 24.8°F-4.0°C 19.8°F-6.8°C 81% 12.0 mph NW19.3 kmh NW 26.0 mph41.8 kmh 29.44 in997.0 mb 0.00 in0.0 mm 0.00 in0.0 mm 2.32 in58.9 mm
07:01 PM 24.8°F-4.0°C 19.8°F-6.8°C 81% 16.0 mph NNW25.7 kmh NNW 26.0 mph41.8 kmh 29.43 in996.6 mb 0.00 in0.0 mm 0.00 in0.0 mm 2.32 in58.9 mm
07:02 PM 24.6°F-4.1°C 19.3°F-7.1°C 80% 21.0 mph NNW33.8 kmh NNW 26.0 mph41.8 kmh 29.44 in997.0 mb 0.00 in0.0 mm 0.00 in0.0 mm 2.32 in58.9 mm
07:03 PM 24.4°F-4.2°C 18.8°F-7.3°C 79% 17.0 mph NW27.4 kmh NW 26.0 mph41.8 kmh 29.44 in997.0 mb 0.00 in0.0 mm 0.00 in0.0 mm 2.32 in58.9 mm
07:04 PM 24.2°F-4.3°C 18.3°F-7.6°C 78% 15.0 mph NNW24.1 kmh NNW 26.0 mph41.8 kmh 29.44 in997.0 mb 0.00 in0.0 mm 0.00 in0.0 mm 2.32 in58.9 mm
07:05 PM 24.2°F-4.3°C 18.6°F-7.4°C 79% 15.0 mph NW24.1 kmh NW 26.0 mph41.8 kmh 29.44 in997.0 mb 0.00 in0.0 mm 0.00 in0.0 mm 2.32 in58.9 mm
07:06 PM 24.4°F-4.2°C 19.1°F-7.2°C 80% 14.0 mph WNW22.5 kmh WNW 25.0 mph40.2 kmh 29.44 in997.0 mb 0.00 in0.0 mm 0.00 in0.0 mm 2.32 in58.9 mm
07:07 PM 24.4°F-4.2°C 18.8°F-7.3°C 79% 13.0 mph W20.9 kmh W 23.0 mph37.0 kmh 29.44 in997.0 mb 0.00 in0.0 mm 0.00 in0.0 mm 2.32 in58.9 mm
07:08 PM 24.1°F-4.4°C 18.2°F-7.7°C 78% 17.0 mph WNW27.4 kmh WNW 23.0 mph37.0 kmh 29.45 in997.3 mb 0.00 in0.0 mm 0.00 in0.0 mm 2.32 in58.9 mm
07:09 PM 23.8°F-4.6°C 18.2°F-7.7°C 79% 16.0 mph W25.7 kmh W 23.0 mph37.0 kmh 29.45 in997.3 mb 0.00 in0.0 mm 0.00 in0.0 mm 2.32 in58.9 mm
07:10 PM 23.8°F-4.6°C 18.5°F-7.5°C 80% 16.0 mph WNW25.7 kmh WNW 23.0 mph37.0 kmh 29.45 in997.3 mb 0.00 in0.0 mm 0.00 in0.0 mm 2.32 in58.9 mm
07:11 PM 23.4°F-4.8°C 17.6°F-8.0°C 78% 19.0 mph WNW30.6 kmh WNW 23.0 mph37.0 kmh 29.44 in997.0 mb 0.00 in0.0 mm 0.00 in0.0 mm 2.32 in58.9 mm
07:12 PM 23.7°F-4.6°C 18.1°F-7.7°C 79% 16.0 mph NW25.7 kmh NW 23.0 mph37.0 kmh 29.45 in997.3 mb 0.00 in0.0 mm 0.00 in0.0 mm 2.32 in58.9 mm
07:13 PM 23.4°F-4.8°C 17.9°F-7.8°C 79% 17.0 mph WNW27.4 kmh WNW 22.0 mph35.4 kmh 29.44 in997.0 mb 0.00 in0.0 mm 0.00 in0.0 mm 2.32 in58.9 mm
07:14 PM 23.7°F-4.6°C 18.7°F-7.4°C 81% 12.0 mph NW19.3 kmh NW 22.0 mph35.4 kmh 29.46 in997.6 mb 0.00 in0.0 mm 0.00 in0.0 mm 2.32 in58.9 mm
07:15 PM 23.7°F-4.6°C 18.4°F-7.6°C 80% 11.0 mph WNW17.7 kmh WNW 22.0 mph35.4 kmh 29.45 in997.3 mb 0.00 in0.0 mm 0.00 in0.0 mm 2.32 in58.9 mm
07:16 PM 23.3°F-4.8°C 17.5°F-8.1°C 78% 12.0 mph WNW19.3 kmh WNW 22.0 mph35.4 kmh 29.46 in997.6 mb 0.00 in0.0 mm 0.00 in0.0 mm 2.32 in58.9 mm
07:17 PM 23.2°F-4.9°C 17.4°F-8.1°C 78% 13.0 mph WNW20.9 kmh WNW 22.0 mph35.4 kmh 29.45 in997.3 mb 0.00 in0.0 mm 0.00 in0.0 mm 2.32 in58.9 mm
07:18 PM 23.2°F-4.9°C 17.7°F-7.9°C 79% 19.0 mph NW30.6 kmh NW 22.0 mph35.4 kmh 29.46 in997.6 mb 0.00 in0.0 mm 0.00 in0.0 mm 2.32 in58.9 mm
07:19 PM 22.9°F-5.1°C 17.4°F-8.1°C 79% 17.0 mph WNW27.4 kmh WNW 22.0 mph35.4 kmh 29.46 in997.6 mb 0.00 in0.0 mm 0.00 in0.0 mm 2.32 in58.9 mm
07:20 PM 22.9°F-5.1°C 17.7°F-7.9°C 80% 14.0 mph WNW22.5 kmh WNW 22.0 mph35.4 kmh 29.46 in997.6 mb 0.00 in0.0 mm 0.00 in0.0 mm 2.32 in58.9 mm
07:21 PM 22.9°F-5.1°C 17.4°F-8.1°C 79% 15.0 mph NW24.1 kmh NW 20.0 mph32.2 kmh 29.46 in997.6 mb 0.00 in0.0 mm 0.00 in0.0 mm 2.32 in58.9 mm
07:22 PM 22.9°F-5.1°C 17.4°F-8.1°C 79% 17.0 mph WNW27.4 kmh WNW 20.0 mph32.2 kmh 29.46 in997.6 mb 0.00 in0.0 mm 0.00 in0.0 mm 2.32 in58.9 mm
07:23 PM 22.7°F-5.2°C 17.2°F-8.2°C 79% 18.0 mph NW29.0 kmh NW 20.0 mph32.2 kmh 29.45 in997.3 mb 0.00 in0.0 mm 0.00 in0.0 mm 2.32 in58.9 mm
07:24 PM 22.5°F-5.3°C 16.7°F-8.5°C 78% 21.0 mph NW33.8 kmh NW 21.0 mph33.8 kmh 29.47 in998.0 mb 0.00 in0.0 mm 0.00 in0.0 mm 2.32 in58.9 mm
07:25 PM 22.5°F-5.3°C 16.7°F-8.5°C 78% 16.0 mph WNW25.7 kmh WNW 21.0 mph33.8 kmh 29.47 in998.0 mb 0.00 in0.0 mm 0.00 in0.0 mm 2.32 in58.9 mm
07:26 PM 22.3°F-5.4°C 16.5°F-8.6°C 78% 18.0 mph WNW29.0 kmh WNW 21.0 mph33.8 kmh 29.47 in998.0 mb 0.00 in0.0 mm 0.00 in0.0 mm 2.32 in58.9 mm
07:27 PM 22.3°F-5.4°C 16.5°F-8.6°C 78% 22.0 mph NW35.4 kmh NW 22.0 mph35.4 kmh 29.46 in997.6 mb 0.00 in0.0 mm 0.00 in0.0 mm 2.32 in58.9 mm
07:28 PM 22.1°F-5.5°C 16.3°F-8.7°C 78% 21.0 mph WNW33.8 kmh WNW 22.0 mph35.4 kmh 29.47 in998.0 mb 0.00 in0.0 mm 0.00 in0.0 mm 2.32 in58.9 mm
07:29 PM 21.9°F-5.6°C 16.1°F-8.8°C 78% 15.0 mph WNW24.1 kmh WNW 22.0 mph35.4 kmh 29.47 in998.0 mb 0.00 in0.0 mm 0.00 in0.0 mm 2.32 in58.9 mm
07:30 PM 21.9°F-5.6°C 16.1°F-8.8°C 78% 16.0 mph WNW25.7 kmh WNW 22.0 mph35.4 kmh 29.47 in998.0 mb 0.00 in0.0 mm 0.00 in0.0 mm 2.32 in58.9 mm
07:31 PM 21.9°F-5.6°C 16.1°F-8.8°C 78% 16.0 mph WNW25.7 kmh WNW 22.0 mph35.4 kmh 29.47 in998.0 mb 0.00 in0.0 mm 0.00 in0.0 mm 2.32 in58.9 mm
07:32 PM 21.9°F-5.6°C 16.1°F-8.8°C 78% 20.0 mph NW32.2 kmh NW 22.0 mph35.4 kmh 29.47 in998.0 mb 0.00 in0.0 mm 0.00 in0.0 mm 2.32 in58.9 mm
07:33 PM 21.7°F-5.7°C 15.3°F-9.3°C 76% 13.0 mph NW20.9 kmh NW 22.0 mph35.4 kmh 29.46 in997.6 mb 0.00 in0.0 mm 0.00 in0.0 mm 2.32 in58.9 mm
07:34 PM 21.6°F-5.8°C 15.8°F-9.0°C 78% 18.0 mph NW29.0 kmh NW 22.0 mph35.4 kmh 29.47 in998.0 mb 0.00 in0.0 mm 0.00 in0.0 mm 2.32 in58.9 mm
07:35 PM 21.6°F-5.8°C 15.8°F-9.0°C 78% 20.0 mph NW32.2 kmh NW 22.0 mph35.4 kmh 29.47 in998.0 mb 0.00 in0.0 mm 0.00 in0.0 mm 2.32 in58.9 mm
07:36 PM 21.3°F-5.9°C 14.9°F-9.5°C 76% 21.0 mph NW33.8 kmh NW 22.0 mph35.4 kmh 29.48 in998.3 mb 0.00 in0.0 mm 0.00 in0.0 mm 2.32 in58.9 mm
07:37 PM 20.7°F-6.3°C 14.1°F-9.9°C 75%